Provisional Data: Conodoguinet Creek near Schlusser, PA


Please select a monitoring station.
Please select start date.
Please select start date.

Toggle Unit: C/F Toggle Unit: C/F
Sample Time Temperature (C) Temperature (F) Specific Conductivity (mS/cm) pH   Turbidity (NTU+) DO (mg/L)
8/1/2022 12:00:00 AM 23.01 73.418 0.483 0.71 8.06 75.1
8/1/2022 12:15:00 AM 23.04 73.472 0.491 0.7 8.06 75
8/1/2022 12:30:00 AM 23.04 73.472 0.498 0.71 8.05 75.3
8/1/2022 12:45:00 AM 23.04 73.472 0.503 0.7 8.06 75.1
8/1/2022 1:00:00 AM 23.05 73.49 0.508 0.69 8.05 75
8/1/2022 1:15:00 AM 23.04 73.472 0.511 0.68 8.05 75.2
8/1/2022 1:30:00 AM 23.04 73.472 0.514 0.68 8.05 75.3
8/1/2022 1:45:00 AM 23.04 73.472 0.517 0.67 8.05 75.1
8/1/2022 2:00:00 AM 23.04 73.472 0.52 0.67 8.05 75.3
8/1/2022 2:15:00 AM 23.04 73.472 0.523 0.67 8.05 75.4
8/1/2022 2:30:00 AM 23.03 73.454 0.525 0.67 8.05 75.2
8/1/2022 2:45:00 AM 23.02 73.436 0.527 0.66 8.06 75.5
8/1/2022 3:00:00 AM 23 73.4 0.528 0.67 8.05 75.2
8/1/2022 3:15:00 AM 22.98 73.364 0.529 0.66 8.05 75.5
8/1/2022 3:30:00 AM 22.96 73.328 0.53 0.65 8.05 75.8
8/1/2022 3:45:00 AM 22.93 73.274 0.532 0.65 8.06 75.9
8/1/2022 4:00:00 AM 22.92 73.256 0.533 0.64 8.06 75.9
8/1/2022 4:15:00 AM 22.89 73.202 0.533 0.65 8.06 76.1
8/1/2022 4:30:00 AM 22.85 73.13 0.534 0.64 8.07 76.2
8/1/2022 4:45:00 AM 22.8 73.04 0.535 0.64 8.07 76.4
8/1/2022 5:00:00 AM 22.79 73.022 0.535 0.64 8.08 76.5
8/1/2022 5:15:00 AM 22.76 72.968 0.536 0.64 8.08 76.4
8/1/2022 5:30:00 AM 22.72 72.896 0.536 0.63 8.08 76.5
8/1/2022 5:45:00 AM 22.69 72.842 0.536 0.63 8.08 76.5
8/1/2022 6:00:00 AM 22.66 72.788 0.536 0.63 8.09 76.9
8/1/2022 6:15:00 AM 22.62 72.716 0.536 0.63 8.09 76.7
8/1/2022 6:30:00 AM 22.6 72.68 0.536 0.63 8.09 76.9
8/1/2022 6:45:00 AM 22.59 72.662 0.537 0.62 8.09 77
8/1/2022 7:00:00 AM 22.57 72.626 0.537 0.62 8.09 77.2
8/1/2022 7:15:00 AM 22.56 72.608 0.536 0.61 8.1 77.6
8/1/2022 7:30:00 AM 22.56 72.608 0.536 0.61 8.1 77.9
8/1/2022 7:45:00 AM 22.57 72.626 0.536 0.61 8.1 78.6
8/1/2022 8:00:00 AM 22.58 72.644 0.536 0.62 8.11 79.2
8/1/2022 8:15:00 AM 22.58 72.644 0.536 0.61 8.11 79.7
8/1/2022 8:30:00 AM 22.59 72.662 0.536 0.61 8.12 80.4
8/1/2022 8:45:00 AM 22.63 72.734 0.536 0.6 8.12 81.3
8/1/2022 9:00:00 AM 22.68 72.824 0.535 0.61 8.13 83.1
8/1/2022 9:15:00 AM 22.7 72.86 0.535 0.62 8.14 84.3
8/1/2022 9:30:00 AM 22.71 72.878 0.535 0.61 8.15 85.3
8/1/2022 9:45:00 AM 22.74 72.932 0.535 0.61 8.15 85.9
8/1/2022 10:00:00 AM 22.82 73.076 0.534 0.61 8.16 88.1
8/1/2022 10:15:00 AM 22.92 73.256 0.534 0.61 8.17 90.7
8/1/2022 10:30:00 AM 23.07 73.526 0.533 0.6 8.18 93.7
8/1/2022 10:45:00 AM 23.14 73.652 0.532 0.62 8.19 96.4
8/1/2022 11:00:00 AM 23.21 73.778 0.532 0.62 8.2 98.4
8/1/2022 11:15:00 AM 23.24 73.832 0.531 0.62 8.21 99.4
8/1/2022 11:30:00 AM 23.3 73.94 0.531 0.62 8.21 100.1
8/1/2022 11:45:00 AM 23.43 74.174 0.531 0.62 8.22 102.8
8/1/2022 12:00:00 PM 23.51 74.318 0.53 0.62 8.23 104.6
8/1/2022 12:15:00 PM 23.5 74.3 0.53 0.62 8.23 103.9
8/1/2022 12:30:00 PM 23.55 74.39 0.53 0.61 8.23 103.8
8/1/2022 12:45:00 PM 23.63 74.534 0.53 0.62 8.24 105
8/1/2022 1:00:00 PM 23.67 74.606 0.53 0.62 8.24 106.1
8/1/2022 1:15:00 PM 23.7 74.66 0.53 0.61 8.24 106.4
8/1/2022 1:30:00 PM 23.68 74.624 0.53 0.61 8.24 105.4
8/1/2022 1:45:00 PM 23.83 74.894 0.53 0.62 8.24 107
8/1/2022 2:00:00 PM 23.95 75.11 0.53 0.61 8.24 109.1
8/1/2022 2:15:00 PM 24.1 75.38 0.529 0.61 8.25 110.9
8/1/2022 2:30:00 PM 24.62 76.316 0.529 0.6 8.26 113.8
8/1/2022 2:45:00 PM 25.08 77.144 0.53 0.59 8.26 116.5
8/1/2022 3:00:00 PM 25.31 77.558 0.53 0.59 8.27 118.1
8/1/2022 3:15:00 PM 25.4 77.72 0.53 0.58 8.26 118.5
8/1/2022 3:30:00 PM 25.61 78.098 0.53 0.56 8.26 119
8/1/2022 3:45:00 PM 25.77 78.386 0.53 0.55 8.26 118.6
8/1/2022 4:00:00 PM 25.81 78.458 0.53 0.55 8.25 118.1
8/1/2022 4:15:00 PM 25.65 78.17 0.531 0.55 8.25 115.7
8/1/2022 4:30:00 PM 25.63 78.134 0.531 0.53 8.23 114
8/1/2022 4:45:00 PM 25.67 78.206 0.531 0.53 8.23 113.1
8/1/2022 5:00:00 PM 25.8 78.44 0.531 0.51 8.22 113.7
8/1/2022 5:15:00 PM 25.87 78.566 0.531 0.5 8.21 113.6
8/1/2022 5:30:00 PM 25.63 78.134 0.53 0.5 8.2 111
8/1/2022 5:45:00 PM 25.58 78.044 0.531 0.5 8.2 109.7
8/1/2022 6:00:00 PM 25.59 78.062 0.531 0.49 8.21 109
8/1/2022 6:15:00 PM 25.52 77.936 0.53 0.49 8.21 108.1
8/1/2022 6:30:00 PM 25.35 77.63 0.53 0.49 8.2 105.4
8/1/2022 6:45:00 PM 25.12 77.216 0.53 0.51 8.18 101.7
8/1/2022 7:00:00 PM 24.93 76.874 0.53 0.5 8.17 97.8
8/1/2022 7:15:00 PM 24.78 76.604 0.53 0.49 8.16 95.5
8/1/2022 7:30:00 PM 24.62 76.316 0.529 0.5 8.15 93
8/1/2022 7:45:00 PM 24.48 76.064 0.529 0.5 8.14 90.4
8/1/2022 8:00:00 PM 24.36 75.848 0.529 0.5 8.13 87.9
8/1/2022 8:15:00 PM 24.22 75.596 0.528 0.49 8.12 85.7
8/1/2022 8:30:00 PM 24.08 75.344 0.528 0.5 8.1 83.3
8/1/2022 8:45:00 PM 23.96 75.128 0.527 0.49 8.09 81.6
8/1/2022 9:00:00 PM 23.86 74.948 0.526 0.5 8.09 80.2
8/1/2022 9:15:00 PM 23.78 74.804 0.526 0.51 8.08 78.7
8/1/2022 9:30:00 PM 23.69 74.642 0.525 0.52 8.07 77.6
8/1/2022 9:45:00 PM 23.62 74.516 0.524 0.52 8.06 76.6
8/1/2022 10:00:00 PM 23.52 74.336 0.523 0.53 8.05 75.8
8/1/2022 10:15:00 PM 23.45 74.21 0.523 0.53 8.04 75.2
8/1/2022 10:30:00 PM 23.38 74.084 0.522 0.52 8.04 74.9
8/1/2022 10:45:00 PM 23.31 73.958 0.521 0.54 8.03 74.7
8/1/2022 11:00:00 PM 23.26 73.868 0.521 0.54 8.03 74.6
8/1/2022 11:15:00 PM 23.2 73.76 0.52 0.55 8.03 74.7
8/1/2022 11:30:00 PM 23.16 73.688 0.519 0.56 8.03 74.8
8/1/2022 11:45:00 PM 23.12 73.616 0.519 0.57 8.03 74.9
8/2/2022 12:00:00 AM 23.08 73.544 0.519 0.58 8.03 75.1
8/2/2022 12:15:00 AM 23.05 73.49 0.518 0.58 8.03 75.3
8/2/2022 12:30:00 AM 23.01 73.418 0.518 0.59 8.03 75.2
8/2/2022 12:45:00 AM 22.98 73.364 0.518 0.58 8.03 75.8
8/2/2022 1:00:00 AM 22.95 73.31 0.518 0.6 8.03 75.8
8/2/2022 1:15:00 AM 22.93 73.274 0.518 0.6 8.04 76.2
8/2/2022 1:30:00 AM 22.91 73.238 0.517 0.6 8.04 76.7
8/2/2022 1:45:00 AM 22.88 73.184 0.516 0.61 8.04 77.1
8/2/2022 2:00:00 AM 22.86 73.148 0.516 0.61 8.04 77.3
8/2/2022 2:15:00 AM 22.84 73.112 0.517 0.61 8.05 77.6
8/2/2022 2:30:00 AM 22.81 73.058 0.517 0.6 8.05 77.7
8/2/2022 2:45:00 AM 22.78 73.004 0.517 0.6 8.05 78
8/2/2022 3:00:00 AM 22.76 72.968 0.517 0.59 8.06 78.4
8/2/2022 3:15:00 AM 22.73 72.914 0.517 0.6 8.06 78.2
8/2/2022 3:30:00 AM 22.71 72.878 0.517 0.6 8.06 78.2
8/2/2022 3:45:00 AM 22.68 72.824 0.517 0.6 8.06 78.4
8/2/2022 4:00:00 AM 22.66 72.788 0.518 0.59 8.06 78.5
8/2/2022 4:15:00 AM 22.63 72.734 0.518 0.6 8.07 78.8
8/2/2022 4:30:00 AM 22.61 72.698 0.518 0.6 8.07 78.9
8/2/2022 4:45:00 AM 22.59 72.662 0.518 0.59 8.07 79.1
8/2/2022 5:00:00 AM 22.57 72.626 0.519 0.6 8.08 79.3
8/2/2022 5:15:00 AM 22.56 72.608 0.519 0.6 8.08 79.2
8/2/2022 5:30:00 AM 22.55 72.59 0.519 0.6 8.08 79.5
8/2/2022 5:45:00 AM 22.53 72.554 0.519 0.62 8.08 79.5
8/2/2022 6:00:00 AM 22.53 72.554 0.52 0.62 8.09 79.7
8/2/2022 6:15:00 AM 22.52 72.536 0.52 0.62 8.09 79.7
8/2/2022 6:30:00 AM 22.53 72.554 0.52 0.64 8.09 80
8/2/2022 6:45:00 AM 22.54 72.57201 0.52 0.63 8.09 80.2
8/2/2022 7:00:00 AM 22.55 72.59 0.521 0.62 8.1 80.8
8/2/2022 7:15:00 AM 22.57 72.626 0.521 0.62 8.1 81.2
8/2/2022 7:30:00 AM 22.61 72.698 0.521 0.62 8.1 81.7
8/2/2022 7:45:00 AM 22.66 72.788 0.521 0.62 8.11 82.4
8/2/2022 8:00:00 AM 22.72 72.896 0.522 0.62 8.12 83.3
8/2/2022 8:15:00 AM 22.77 72.986 0.521 0.63 8.12 84.4
8/2/2022 8:30:00 AM 22.82 73.076 0.522 0.62 8.13 85.2
8/2/2022 8:45:00 AM 22.86 73.148 0.522 0.62 8.13 86
8/2/2022 9:00:00 AM 22.93 73.274 0.521 0.61 8.14 86.9
8/2/2022 9:15:00 AM 23.02 73.436 0.521 0.62 8.15 88.7
8/2/2022 9:30:00 AM 23.11 73.598 0.521 0.61 8.16 89.9
8/2/2022 9:45:00 AM 23.19 73.742 0.521 0.61 8.16 90.7
8/2/2022 10:00:00 AM 23.26 73.868 0.521 0.6 8.17 91.1
8/2/2022 10:15:00 AM 23.33 73.994 0.521 0.6 8.17 92
8/2/2022 10:30:00 AM 23.37 74.066 0.521 0.59 8.17 92.6
8/2/2022 10:45:00 AM 23.46 74.228 0.521 0.59 8.18 93.6
8/2/2022 11:00:00 AM 23.57 74.426 0.521 0.6 8.19 94.7
8/2/2022 11:15:00 AM 23.73 74.714 0.521 0.59 8.19 96.9
8/2/2022 11:30:00 AM 23.88 74.984 0.521 0.59 8.2 98.5
8/2/2022 11:45:00 AM 24.06 75.308 0.521 0.6 8.21 99.9
8/2/2022 12:00:00 PM 24.26 75.668 0.521 0.6 8.22 102.5
8/2/2022 12:15:00 PM 24.4 75.92 0.521 0.59 8.22 104.5
8/2/2022 12:30:00 PM 24.66 76.388 0.521 0.58 8.23 106.3
8/2/2022 12:45:00 PM 24.91 76.838 0.52 0.58 8.24 108.6
8/2/2022 1:00:00 PM 25.14 77.252 0.52 0.57 8.25 110.4
8/2/2022 1:15:00 PM 25.45 77.81 0.52 0.57 8.25 112.5
8/2/2022 1:30:00 PM 25.64 78.152 0.52 0.57 8.25 113.8
8/2/2022 1:45:00 PM 25.59 78.062 0.52 0.57 8.25 113.5
8/2/2022 2:00:00 PM 25.88 78.584 0.52 0.56 8.25 114.7
8/2/2022 2:15:00 PM 26.16 79.088 0.52 0.56 8.26 116.2
8/2/2022 2:30:00 PM 26.37 79.466 0.52 0.54 8.26 117.4
8/2/2022 2:45:00 PM 26.69 80.042 0.52 0.55 8.26 118.6
8/2/2022 3:00:00 PM 26.68 80.024 0.52 0.55 8.26 118.8
8/2/2022 3:15:00 PM 26.8 80.24 0.52 0.55 8.26 118.9
8/2/2022 3:30:00 PM 26.85 80.33 0.52 0.54 8.26 118.7
8/2/2022 3:45:00 PM 27.09 80.762 0.52 0.54 8.26 119.5
8/2/2022 4:00:00 PM 27.11 80.798 0.52 0.55 8.26 120.4
8/2/2022 4:15:00 PM 27.04 80.672 0.52 0.55 8.25 118.6
8/2/2022 4:30:00 PM 27.1 80.78 0.52 0.53 8.24 117.2
8/2/2022 4:45:00 PM 27.11 80.798 0.52 0.54 8.23 117.2
8/2/2022 5:00:00 PM 27.14 80.852 0.52 0.52 8.22 116.5
8/2/2022 5:15:00 PM 27.09 80.762 0.52 0.53 8.22 115.2
8/2/2022 5:30:00 PM 26.99 80.582 0.52 0.52 8.21 113.8
8/2/2022 5:45:00 PM 26.88 80.384 0.52 0.52 8.22 112.1
8/2/2022 6:00:00 PM 26.73 80.114 0.52 0.54 8.22 110
8/2/2022 6:15:00 PM 26.57 79.826 0.52 0.54 8.22 107.6
8/2/2022 6:30:00 PM 26.31 79.358 0.521 0.53 8.21 104.1
8/2/2022 6:45:00 PM 26.07 78.926 0.521 0.52 8.19 100.7
8/2/2022 7:00:00 PM 25.78 78.404 0.521 0.53 8.18 96.8
8/2/2022 7:15:00 PM 25.59 78.062 0.522 0.53 8.17 93.7
8/2/2022 7:30:00 PM 25.39 77.702 0.522 0.53 8.16 90.9
8/2/2022 7:45:00 PM 25.2 77.36 0.522 0.54 8.15 88.5
8/2/2022 8:00:00 PM 25.04 77.07201 0.522 0.54 8.13 86.1
8/2/2022 8:15:00 PM 24.89 76.802 0.522 0.54 8.13 84.2
8/2/2022 8:30:00 PM 24.75 76.55 0.522 0.54 8.12 82.7
8/2/2022 8:45:00 PM 24.65 76.37 0.523 0.55 8.11 81.1
8/2/2022 9:00:00 PM 24.54 76.172 0.523 0.57 8.1 80
8/2/2022 9:15:00 PM 24.46 76.028 0.522 0.57 8.1 78.8
8/2/2022 9:30:00 PM 24.38 75.884 0.523 0.58 8.09 77.9
8/2/2022 9:45:00 PM 24.31 75.758 0.523 0.59 8.09 77.6
8/2/2022 10:00:00 PM 24.24 75.632 0.523 0.59 8.08 76.9
8/2/2022 10:15:00 PM 24.18 75.524 0.523 0.59 8.08 76.2
8/2/2022 10:30:00 PM 24.12 75.416 0.523 0.6 8.08 76.3
8/2/2022 10:45:00 PM 24.06 75.308 0.523 0.61 8.08 76
8/2/2022 11:00:00 PM 24.01 75.218 0.523 0.6 8.08 76.1
8/2/2022 11:15:00 PM 23.95 75.11 0.523 0.6 8.08 76.2
8/2/2022 11:30:00 PM 23.91 75.038 0.523 0.6 8.09 76.2
8/2/2022 11:45:00 PM 23.87 74.966 0.523 0.61 8.09 76.2
8/3/2022 12:00:00 AM 23.82 74.876 0.523 0.61 8.09 76.6
8/3/2022 12:15:00 AM 23.79 74.82201 0.523 0.62 8.1 76.6
8/3/2022 12:30:00 AM 23.76 74.768 0.523 0.63 8.1 76.4
8/3/2022 12:45:00 AM 23.72 74.696 0.523 0.63 8.1 76.8
8/3/2022 1:00:00 AM 23.69 74.642 0.523 0.62 8.1 77.2
8/3/2022 1:15:00 AM 23.66 74.588 0.523 0.63 8.1 77.1
8/3/2022 1:30:00 AM 23.64 74.552 0.523 0.64 8.1 77
8/3/2022 1:45:00 AM 23.61 74.498 0.523 0.63 8.1 77.1
8/3/2022 2:00:00 AM 23.59 74.462 0.523 0.63 8.11 77.4
8/3/2022 2:15:00 AM 23.56 74.408 0.523 0.63 8.11 77.3
8/3/2022 2:30:00 AM 23.55 74.39 0.523 0.63 8.11 77.6
8/3/2022 2:45:00 AM 23.53 74.354 0.523 0.64 8.11 77.6
8/3/2022 3:00:00 AM 23.52 74.336 0.522 0.63 8.11 77.8
8/3/2022 3:15:00 AM 23.51 74.318 0.522 0.64 8.12 78.1
8/3/2022 3:30:00 AM 23.48 74.264 0.522 0.63 8.12 78
8/3/2022 3:45:00 AM 23.47 74.246 0.522 0.63 8.13 78.2
8/3/2022 4:00:00 AM 23.45 74.21 0.522 0.64 8.13 78.2
8/3/2022 4:15:00 AM 23.44 74.192 0.522 0.64 8.14 78.4
8/3/2022 4:30:00 AM 23.45 74.21 0.521 0.65 8.14 78.6
8/3/2022 4:45:00 AM 23.45 74.21 0.521 0.63 8.15 78.5
8/3/2022 5:00:00 AM 23.43 74.174 0.521 0.63 8.15 78.6
8/3/2022 5:15:00 AM 23.42 74.156 0.521 0.62 8.15 78.7
8/3/2022 5:30:00 AM 23.41 74.138 0.52 0.64 8.15 78.8
8/3/2022 5:45:00 AM 23.41 74.138 0.52 0.63 8.16 78.7
8/3/2022 6:00:00 AM 23.41 74.138 0.519 0.63 8.16 78.8
8/3/2022 6:15:00 AM 23.41 74.138 0.519 0.63 8.16 79.2
8/3/2022 6:30:00 AM 23.4 74.12 0.519 0.64 8.16 79
8/3/2022 6:45:00 AM 23.39 74.102 0.519 0.64 8.16 79.1
8/3/2022 7:00:00 AM 23.42 74.156 0.518 0.64 8.17 79.4
8/3/2022 7:15:00 AM 23.43 74.174 0.518 0.64 8.17 79.7
8/3/2022 7:30:00 AM 23.47 74.246 0.518 0.66 8.17 80
8/3/2022 7:45:00 AM 23.51 74.318 0.518 0.65 8.17 80.5
8/3/2022 8:00:00 AM 23.58 74.444 0.518 0.65 8.17 81.1
8/3/2022 8:15:00 AM 23.63 74.534 0.518 0.67 8.17 82.1
8/3/2022 8:30:00 AM 23.7 74.66 0.518 0.66 8.17 82.9
8/3/2022 8:45:00 AM 23.78 74.804 0.517 0.66 8.18 84
8/3/2022 9:00:00 AM 23.84 74.912 0.517 0.67 8.18 84.8
8/3/2022 9:15:00 AM 23.92 75.056 0.517 0.67 8.18 85.6
8/3/2022 9:30:00 AM 24 75.2 0.517 0.66 8.19 86.4
8/3/2022 9:45:00 AM 24.07 75.326 0.517 0.66 8.19 87.1
8/3/2022 10:00:00 AM 24.16 75.488 0.517 0.67 8.19 87.9
8/3/2022 10:15:00 AM 24.23 75.614 0.518 0.66 8.2 88.6
8/3/2022 10:30:00 AM 24.3 75.74 0.518 0.67 8.19 89.2
8/3/2022 10:45:00 AM 24.39 75.902 0.518 0.67 8.2 90.4
8/3/2022 11:00:00 AM 24.5 76.1 0.518 0.67 8.2 91.8
8/3/2022 11:15:00 AM 24.65 76.37 0.518 0.67 8.21 93.5
8/3/2022 11:30:00 AM 24.84 76.712 0.519 0.67 8.21 95.6
8/3/2022 11:45:00 AM 25.05 77.09 0.518 0.67 8.22 97.7
8/3/2022 12:00:00 PM 25.28 77.504 0.518 0.67 8.23 100.1
8/3/2022 12:15:00 PM 25.57 78.026 0.518 0.66 8.23 102.9
8/3/2022 12:30:00 PM 25.89 78.602 0.519 0.65 8.25 106
8/3/2022 12:45:00 PM 26.21 79.17799 0.518 0.64 8.25 108.8
8/3/2022 1:00:00 PM 26.55 79.79 0.518 0.64 8.26 111.6
8/3/2022 1:15:00 PM 26.87 80.366 0.518 0.64 8.27 114.4
8/3/2022 1:30:00 PM 27.2 80.96 0.518 0.63 8.27 116.7
8/3/2022 1:45:00 PM 27.54 81.57201 0.518 0.63 8.28 118.9
8/3/2022 2:00:00 PM 27.81 82.058 0.518 0.61 8.29 120.8
8/3/2022 2:15:00 PM 28.1 82.58 0.518 0.62 8.29 122.6
8/3/2022 2:30:00 PM 28.43 83.174 0.518 0.61 8.3 124.4
8/3/2022 2:45:00 PM 28.64 83.552 0.518 0.61 8.29 125.7
8/3/2022 3:00:00 PM 28.86 83.948 0.518 0.61 8.3 127.3
8/3/2022 3:15:00 PM 29.02 84.236 0.518 0.6 8.3 127.5
8/3/2022 3:30:00 PM 29.15 84.47 0.519 0.58 8.3 128
8/3/2022 3:45:00 PM 29.29 84.722 0.519 0.59 8.3 128.1
8/3/2022 4:00:00 PM 29.34 84.812 0.519 0.57 8.29 128.3
8/3/2022 4:15:00 PM 29.45 85.01 0.519 0.56 8.29 128
8/3/2022 4:30:00 PM 29.48 85.064 0.519 0.56 8.28 127.8
8/3/2022 4:45:00 PM 29.44 84.992 0.52 0.54 8.26 126.8
8/3/2022 5:00:00 PM 29.42 84.956 0.52 0.53 8.25 126
8/3/2022 5:15:00 PM 29.31 84.758 0.521 0.53 8.24 123.7
8/3/2022 5:30:00 PM 29.21 84.578 0.521 0.53 8.24 121.7
8/3/2022 5:45:00 PM 29.05 84.28999 0.522 0.53 8.24 119.2
8/3/2022 6:00:00 PM 28.88 83.98399 0.522 0.53 8.24 116.2
8/3/2022 6:15:00 PM 28.62 83.51601 0.523 0.53 8.24 112.9
8/3/2022 6:30:00 PM 28.33 82.994 0.524 0.52 8.23 108.6
8/3/2022 6:45:00 PM 28 82.4 0.526 0.52 8.21 103.2
8/3/2022 7:00:00 PM 27.67 81.806 0.526 0.52 8.19 98.4
8/3/2022 7:15:00 PM 27.45 81.41 0.527 0.53 8.18 94.5
8/3/2022 7:30:00 PM 27.2 80.96 0.528 0.53 8.16 90.8
8/3/2022 7:45:00 PM 26.99 80.582 0.529 0.54 8.15 87.9
8/3/2022 8:00:00 PM 26.77 80.186 0.529 0.54 8.14 85.3
8/3/2022 8:15:00 PM 26.58 79.844 0.53 0.55 8.13 82.7
8/3/2022 8:30:00 PM 26.41 79.538 0.531 0.56 8.12 80.6
8/3/2022 8:45:00 PM 26.25 79.25 0.531 0.58 8.11 78.7
8/3/2022 9:00:00 PM 26.1 78.98 0.532 0.59 8.1 77.1
8/3/2022 9:15:00 PM 25.96 78.728 0.532 0.59 8.08 75.6
8/3/2022 9:30:00 PM 25.85 78.53 0.532 0.6 8.08 74.6
8/3/2022 9:45:00 PM 25.74 78.332 0.532 0.6 8.07 73.6
8/3/2022 10:00:00 PM 25.64 78.152 0.532 0.61 8.07 72.8
8/3/2022 10:15:00 PM 25.56 78.008 0.533 0.61 8.06 72.3
8/3/2022 10:30:00 PM 25.47 77.846 0.532 0.6 8.06 72
8/3/2022 10:45:00 PM 25.39 77.702 0.533 0.61 8.06 71.8
8/3/2022 11:00:00 PM 25.32 77.576 0.533 0.59 8.06 71.3
8/3/2022 11:15:00 PM 25.25 77.45 0.533 0.6 8.05 71.5
8/3/2022 11:30:00 PM 25.18 77.324 0.533 0.59 8.06 71.6
8/3/2022 11:45:00 PM 25.12 77.216 0.533 0.59 8.05 71.6
8/4/2022 12:00:00 AM 25.06 77.108 0.533 0.58 8.06 71.6
8/4/2022 12:15:00 AM 25.02 77.036 0.533 0.6 8.05 71.6
8/4/2022 12:30:00 AM 24.96 76.92799 0.533 0.59 8.06 71.8
8/4/2022 12:45:00 AM 24.92 76.856 0.533 0.59 8.06 72
8/4/2022 1:00:00 AM 24.87 76.766 0.533 0.59 8.06 72
8/4/2022 1:15:00 AM 24.83 76.694 0.533 0.58 8.07 72
8/4/2022 1:30:00 AM 24.79 76.622 0.533 0.58 8.07 72.3
8/4/2022 1:45:00 AM 24.75 76.55 0.533 0.59 8.07 72.3
8/4/2022 2:00:00 AM 24.72 76.496 0.534 0.58 8.07 72.5
8/4/2022 2:15:00 AM 24.69 76.442 0.534 0.58 8.07 72.7
8/4/2022 2:30:00 AM 24.66 76.388 0.534 0.57 8.07 72.8
8/4/2022 2:45:00 AM 24.62 76.316 0.534 0.58 8.07 72.8
8/4/2022 3:00:00 AM 24.6 76.28 0.534 0.58 8.07 71.8
8/4/2022 3:15:00 AM 24.57 76.226 0.534 0.56 8.07 73.1
8/4/2022 3:30:00 AM 24.54 76.172 0.534 0.57 8.07 73
8/4/2022 3:45:00 AM 24.52 76.136 0.534 0.57 8.07 73.1
8/4/2022 4:00:00 AM 24.49 76.082 0.534 0.58 8.07 73.2
8/4/2022 4:15:00 AM 24.48 76.064 0.534 0.56 8.08 73.3
8/4/2022 4:30:00 AM 24.45 76.01 0.533 0.56 8.08 73.5
8/4/2022 4:45:00 AM 24.42 75.956 0.534 0.57 8.08 73.4
8/4/2022 5:00:00 AM 24.41 75.938 0.533 0.58 8.08 73.6
8/4/2022 5:15:00 AM 24.39 75.902 0.533 0.58 8.08 73.6
8/4/2022 5:30:00 AM 24.36 75.848 0.533 0.58 8.08 73.4
8/4/2022 5:45:00 AM 24.35 75.83 0.533 0.58 8.08 74.2
8/4/2022 6:00:00 AM 24.32 75.776 0.532 0.59 8.09 73.9
8/4/2022 6:15:00 AM 24.31 75.758 0.532 0.59 8.09 74.2
8/4/2022 6:30:00 AM 24.3 75.74 0.532 0.58 8.09 74.2
8/4/2022 6:45:00 AM 24.29 75.722 0.532 0.59 8.09 74.3
8/4/2022 7:00:00 AM 24.3 75.74 0.531 0.59 8.09 74.9
8/4/2022 7:15:00 AM 24.33 75.794 0.531 0.58 8.1 75.3
8/4/2022 7:30:00 AM 24.35 75.83 0.53 0.6 8.1 75.7
8/4/2022 7:45:00 AM 24.39 75.902 0.53 0.6 8.1 76.3
8/4/2022 8:00:00 AM 24.44 75.992 0.53 0.61 8.09 77.2
8/4/2022 8:15:00 AM 24.52 76.136 0.529 0.6 8.1 78.5
8/4/2022 8:30:00 AM 24.59 76.262 0.529 0.61 8.1 79.6
8/4/2022 8:45:00 AM 24.66 76.388 0.528 0.6 8.11 81
8/4/2022 9:00:00 AM 24.75 76.55 0.528 0.61 8.11 82.2
8/4/2022 9:15:00 AM 24.85 76.73 0.527 0.61 8.11 83.5
8/4/2022 9:30:00 AM 24.93 76.874 0.527 0.61 8.12 84.8
8/4/2022 9:45:00 AM 25.04 77.07201 0.526 0.61 8.12 86.1
8/4/2022 10:00:00 AM 25.14 77.252 0.527 0.61 8.13 87.1
8/4/2022 10:15:00 AM 25.24 77.432 0.526 0.61 8.13 88.1
8/4/2022 10:30:00 AM 25.35 77.63 0.526 0.62 8.14 89.8
8/4/2022 10:45:00 AM 25.47 77.846 0.524 0.61 8.14 91.2
8/4/2022 11:00:00 AM 25.6 78.08 0.525 0.61 8.15 93.1
8/4/2022 11:15:00 AM 25.77 78.386 0.524 0.61 8.16 95.1
8/4/2022 11:30:00 AM 25.99 78.782 0.524 0.61 8.18 97.7
8/4/2022 11:45:00 AM 26.23 79.214 0.523 0.61 8.18 100.5
8/4/2022 12:00:00 PM 26.53 79.754 0.523 0.61 8.19 103.6
8/4/2022 12:15:00 PM 26.84 80.312 0.522 0.61 8.21 106.7
8/4/2022 12:30:00 PM 27.18 80.924 0.522 0.6 8.22 109.8
8/4/2022 12:45:00 PM 27.55 81.59 0.521 0.61 8.24 113.3
8/4/2022 1:00:00 PM 27.78 82.004 0.521 0.6 8.25 115.2
8/4/2022 1:15:00 PM 28.17 82.706 0.521 0.58 8.25 117.5
8/4/2022 1:30:00 PM 28.46 83.228 0.52 0.57 8.26 120.1
8/4/2022 1:45:00 PM 28.85 83.93 0.52 0.58 8.26 123.2
8/4/2022 2:00:00 PM 29.18 84.524 0.52 0.57 8.27 126
8/4/2022 2:15:00 PM 29.39 84.902 0.52 0.57 8.28 127.4
8/4/2022 2:30:00 PM 29.69 85.442 0.519 0.57 8.28 129.5
8/4/2022 2:45:00 PM 29.64 85.35201 0.519 0.55 8.28 126.8
8/4/2022 3:00:00 PM 30.03 86.054 0.519 0.53 8.28 129.2
8/4/2022 3:15:00 PM 30.11 86.198 0.519 0.56 8.28 130.7
8/4/2022 3:30:00 PM 29.75 85.55 0.52 0.56 8.28 126.1
8/4/2022 3:45:00 PM 29.18 84.524 0.521 0.58 8.26 115.8
8/4/2022 4:00:00 PM 28.65 83.57 0.522 0.61 8.25 107.2
8/4/2022 4:15:00 PM 28.31 82.958 0.523 0.6 8.24 102
8/4/2022 4:30:00 PM 28.01 82.418 0.524 0.58 8.23 97
8/4/2022 4:45:00 PM 27.78 82.004 0.524 0.58 8.21 93.8
8/4/2022 5:00:00 PM 27.6 81.68 0.525 0.56 8.21 91.4
8/4/2022 5:15:00 PM 27.44 81.392 0.525 0.57 8.2 90.7
8/4/2022 5:30:00 PM 27.3 81.14 0.526 0.57 8.2 90.4
8/4/2022 5:45:00 PM 27.17 80.906 0.526 0.58 8.19 90.1
8/4/2022 6:00:00 PM 27.01 80.618 0.526 0.58 8.18 89.2
8/4/2022 6:15:00 PM 26.84 80.312 0.527 0.59 8.18 88.4
8/4/2022 6:30:00 PM 26.72 80.096 0.527 0.59 8.16 87
8/4/2022 6:45:00 PM 26.63 79.934 0.527 0.58 8.16 86.1
8/4/2022 7:00:00 PM 26.56 79.808 0.527 0.61 8.15 85.5
8/4/2022 7:15:00 PM 26.5 79.7 0.527 0.61 8.15 84.5
8/4/2022 7:30:00 PM 26.45 79.61 0.528 0.62 8.15 83.9
8/4/2022 7:45:00 PM 26.39 79.502 0.528 0.61 8.14 82.8
8/4/2022 8:00:00 PM 26.31 79.358 0.528 0.61 8.14 81.1
8/4/2022 8:15:00 PM 26.24 79.232 0.528 0.59 8.13 79.5
8/4/2022 8:30:00 PM 26.17 79.106 0.529 0.58 8.12 78.1
8/4/2022 8:45:00 PM 26.11 78.998 0.529 0.6 8.11 76.7
8/4/2022 9:00:00 PM 26.05 78.89 0.529 0.58 8.1 75.3
8/4/2022 9:15:00 PM 25.98 78.764 0.529 0.57 8.09 74.3
8/4/2022 9:30:00 PM 25.92 78.656 0.529 0.59 8.08 73.4
8/4/2022 9:45:00 PM 25.86 78.548 0.529 0.6 8.08 72.4
8/4/2022 10:00:00 PM 25.81 78.458 0.529 0.61 8.07 71.5
8/4/2022 10:15:00 PM 25.76 78.368 0.529 0.61 8.06 71.1
8/4/2022 10:30:00 PM 25.73 78.314 0.529 0.62 8.05 70.7
8/4/2022 10:45:00 PM 25.68 78.224 0.529 0.62 8.05 70.4
8/4/2022 11:00:00 PM 25.63 78.134 0.529 0.64 8.05 70
8/4/2022 11:15:00 PM 25.59 78.062 0.529 0.64 8.05 70
8/4/2022 11:30:00 PM 25.53 77.954 0.529 0.64 8.04 69.9
8/4/2022 11:45:00 PM 25.49 77.882 0.529 0.65 8.05 69.5
8/5/2022 12:00:00 AM 25.46 77.828 0.529 0.65 8.05 69.2
8/5/2022 12:15:00 AM 25.44 77.792 0.529 0.66 8.04 69.2
8/5/2022 12:30:00 AM 25.4 77.72 0.529 0.65 8.03 69.5
8/5/2022 12:45:00 AM 25.36 77.648 0.529 0.65 8.03 69.3
8/5/2022 1:00:00 AM 25.32 77.576 0.529 0.66 8.03 69.8
8/5/2022 1:15:00 AM 25.28 77.504 0.529 0.65 8.04 69.8
8/5/2022 1:30:00 AM 25.24 77.432 0.528 0.65 8.04 70.1
8/5/2022 1:45:00 AM 25.2 77.36 0.528 0.65 8.04 70.1
8/5/2022 2:00:00 AM 25.17 77.306 0.528 0.63 8.05 70.4
8/5/2022 2:15:00 AM 25.13 77.234 0.528 0.63 8.04 70
8/5/2022 2:30:00 AM 25.11 77.198 0.528 0.63 8.05 70.8
8/5/2022 2:45:00 AM 25.08 77.144 0.528 0.62 8.05 70.5
8/5/2022 3:00:00 AM 25.05 77.09 0.528 0.62 8.05 70.3
8/5/2022 3:15:00 AM 25.03 77.054 0.527 0.62 8.05 70.5
8/5/2022 3:30:00 AM 25.01 77.018 0.527 0.63 8.05 70.3
8/5/2022 3:45:00 AM 24.98 76.964 0.526 0.62 8.05 70.9
8/5/2022 4:00:00 AM 24.95 76.91 0.526 0.62 8.05 70.9
8/5/2022 4:15:00 AM 24.93 76.874 0.526 0.63 8.05 70.6
8/5/2022 4:30:00 AM 24.92 76.856 0.526 0.62 8.04 70.2
8/5/2022 4:45:00 AM 24.91 76.838 0.526 0.62 8.04 71.4
8/5/2022 5:00:00 AM 24.89 76.802 0.526 0.61 8.05 70.7
8/5/2022 5:15:00 AM 24.87 76.766 0.526 0.62 8.05 70.6
8/5/2022 5:30:00 AM 24.86 76.748 0.525 0.62 8.06 70.7
8/5/2022 5:45:00 AM 24.85 76.73 0.525 0.63 8.05 70.9
8/5/2022 6:00:00 AM 24.85 76.73 0.525 0.62 8.05 71.1
8/5/2022 6:15:00 AM 24.83 76.694 0.524 0.64 8.06 71.1
8/5/2022 6:30:00 AM 24.83 76.694 0.524 0.64 8.06 71.5
8/5/2022 6:45:00 AM 24.82 76.676 0.523 0.65 8.06 71.4
8/5/2022 7:00:00 AM 24.82 76.676 0.523 0.66 8.06 71.7
8/5/2022 7:15:00 AM 24.83 76.694 0.523 0.65 8.06 72.4
8/5/2022 7:30:00 AM 24.87 76.766 0.522 0.66 8.06 73.2
8/5/2022 7:45:00 AM 24.91 76.838 0.522 0.66 8.07 74.7
8/5/2022 8:00:00 AM 24.95 76.91 0.521 0.67 8.07 75.7
8/5/2022 8:15:00 AM 25 77 0.52 0.67 8.07 77.4
8/5/2022 8:30:00 AM 25.06 77.108 0.519 0.68 8.09 79.5
8/5/2022 8:45:00 AM 25.13 77.234 0.519 0.69 8.1 81.4
8/5/2022 9:00:00 AM 25.21 77.378 0.518 0.7 8.11 83.2
8/5/2022 9:15:00 AM 25.31 77.558 0.517 0.7 8.12 86.2
8/5/2022 9:30:00 AM 25.37 77.666 0.516 0.71 8.13 88.2
8/5/2022 9:45:00 AM 25.43 77.774 0.515 0.71 8.14 90.5
8/5/2022 10:00:00 AM 25.54 77.972 0.514 0.71 8.16 92.7
8/5/2022 10:15:00 AM 25.61 78.098 0.513 0.71 8.17 95.1
8/5/2022 10:30:00 AM 25.64 78.152 0.512 0.73 8.18 95.6
8/5/2022 10:45:00 AM 25.69 78.242 0.512 0.73 8.18 96.3
8/5/2022 11:00:00 AM 25.75 78.35 0.511 0.74 8.2 97.5
8/5/2022 11:15:00 AM 25.86 78.548 0.51 0.74 8.21 100.1
8/5/2022 11:30:00 AM 25.96 78.728 0.509 0.74 8.22 102.2
8/5/2022 11:45:00 AM 26.06 78.908 0.508 0.74 8.23 105.2
8/5/2022 12:00:00 PM 26.09 78.962 0.507 0.74 8.24 105.4
8/5/2022 12:15:00 PM 26.12 79.016 0.507 0.74 8.24 105.8
8/5/2022 12:30:00 PM 26.22 79.196 0.506 0.75 8.25 107.1
8/5/2022 12:45:00 PM 26.38 79.484 0.506 0.75 8.26 109.6
8/5/2022 1:00:00 PM 26.76 80.168 0.505 0.74 8.27 113.7
8/5/2022 1:15:00 PM 27.16 80.888 0.504 0.75 8.28 117.9
8/5/2022 1:30:00 PM 27.42 81.356 0.504 0.74 8.29 120.7
8/5/2022 1:45:00 PM 27.73 81.914 0.504 0.73 8.3 122.9
8/5/2022 2:00:00 PM 28.05 82.49 0.503 0.72 8.3 125.6
8/5/2022 2:15:00 PM 28.21 82.778 0.503 0.71 8.3 126.8
8/5/2022 2:30:00 PM 28.51 83.318 0.503 0.71 8.31 128.7
8/5/2022 2:45:00 PM 28.71 83.67799 0.502 0.71 8.31 130.1
8/5/2022 3:00:00 PM 28.79 83.82201 0.502 0.7 8.31 130.4
8/5/2022 3:15:00 PM 29.05 84.28999 0.502 0.69 8.31 130.9
8/5/2022 3:30:00 PM 29.33 84.794 0.503 0.69 8.31 132.3
8/5/2022 3:45:00 PM 29.65 85.37 0.502 0.7 8.31 132.5
8/5/2022 4:00:00 PM 29.7 85.46001 0.503 0.68 8.31 132.2
8/5/2022 4:15:00 PM 29.46 85.028 0.503 0.7 8.3 128.3
8/5/2022 4:30:00 PM 29.19 84.542 0.504 0.69 8.28 122.9
8/5/2022 4:45:00 PM 29.04 84.272 0.504 0.69 8.27 119.8
8/5/2022 5:00:00 PM 28.93 84.074 0.505 0.69 8.26 117.5
8/5/2022 5:15:00 PM 28.78 83.804 0.505 0.69 8.25 115.5
8/5/2022 5:30:00 PM 28.68 83.624 0.506 0.69 8.24 114
8/5/2022 5:45:00 PM 28.41 83.138 0.507 0.71 8.23 109.7
8/5/2022 6:00:00 PM 28.21 82.778 0.507 0.73 8.21 106.1
8/5/2022 6:15:00 PM 28.07 82.526 0.508 0.72 8.21 103.4
8/5/2022 6:30:00 PM 27.99 82.382 0.509 0.72 8.2 101.7
8/5/2022 6:45:00 PM 27.84 82.112 0.509 0.72 8.19 99.9
8/5/2022 7:00:00 PM 27.69 81.842 0.51 0.73 8.18 96.8
8/5/2022 7:15:00 PM 27.53 81.554 0.511 0.72 8.16 94.4
8/5/2022 7:30:00 PM 27.35 81.23 0.512 0.72 8.15 90.9
8/5/2022 7:45:00 PM 27.21 80.978 0.512 0.73 8.13 87.8
8/5/2022 8:00:00 PM 27.04 80.672 0.513 0.74 8.12 85.4
8/5/2022 8:15:00 PM 26.92 80.456 0.513 0.74 8.11 83.3
8/5/2022 8:30:00 PM 26.8 80.24 0.514 0.76 8.1 81.2
8/5/2022 8:45:00 PM 26.67 80.006 0.514 0.78 8.09 79.3
8/5/2022 9:00:00 PM 26.57 79.826 0.515 0.79 8.07 77.6
8/5/2022 9:15:00 PM 26.48 79.664 0.515 0.8 8.06 75.6
8/5/2022 9:30:00 PM 26.4 79.52 0.515 0.81 8.05 74.5
8/5/2022 9:45:00 PM 26.33 79.394 0.515 0.81 8.04 73.4
8/5/2022 10:00:00 PM 26.25 79.25 0.515 0.8 8.04 72.4
8/5/2022 10:15:00 PM 26.18 79.124 0.514 0.81 8.04 71.9
8/5/2022 10:30:00 PM 26.13 79.034 0.515 0.82 8.03 71.4
8/5/2022 10:45:00 PM 26.07 78.926 0.515 0.82 8.03 71.7
8/5/2022 11:00:00 PM 26.02 78.836 0.515 0.82 8.02 70.9
8/5/2022 11:15:00 PM 25.97 78.746 0.515 0.82 8.02 71.3
8/5/2022 11:30:00 PM 25.91 78.638 0.514 0.81 8.02 70.9
8/5/2022 11:45:00 PM 25.84 78.512 0.515 0.81 8.02 71
8/6/2022 12:00:00 AM 25.79 78.422 0.514 0.8 8.03 71.1
8/6/2022 12:15:00 AM 25.73 78.314 0.514 0.79 8.03 70.8
8/6/2022 12:30:00 AM 25.67 78.206 0.515 0.78 8.03 71.1
8/6/2022 12:45:00 AM 25.63 78.134 0.515 0.78 8.03 71.4
8/6/2022 1:00:00 AM 25.58 78.044 0.514 0.78 8.04 71.1
8/6/2022 1:15:00 AM 25.52 77.936 0.514 0.78 8.04 71.4
8/6/2022 1:30:00 AM 25.48 77.864 0.514 0.78 8.04 71.4
8/6/2022 1:45:00 AM 25.43 77.774 0.514 0.77 8.04 71.6
8/6/2022 2:00:00 AM 25.38 77.684 0.514 0.77 8.04 71.5
8/6/2022 2:15:00 AM 25.35 77.63 0.514 0.77 8.04 71.9
8/6/2022 2:30:00 AM 25.3 77.54 0.514 0.78 8.04 72
8/6/2022 2:45:00 AM 25.27 77.486 0.514 0.79 8.04 71.8
8/6/2022 3:00:00 AM 25.24 77.432 0.514 0.78 8.04 71.8
8/6/2022 3:15:00 AM 25.2 77.36 0.514 0.79 8.05 72.4
8/6/2022 3:30:00 AM 25.17 77.306 0.514 0.79 8.04 72.3
8/6/2022 3:45:00 AM 25.14 77.252 0.514 0.79 8.05 72.8
8/6/2022 4:00:00 AM 25.1 77.18 0.514 0.8 8.05 72.4
8/6/2022 4:15:00 AM 25.06 77.108 0.514 0.8 8.05 72.1
8/6/2022 4:30:00 AM 25.05 77.09 0.515 0.8 8.05 72.2
8/6/2022 4:45:00 AM 25.02 77.036 0.514 0.8 8.05 72.4
8/6/2022 5:00:00 AM 25 77 0.514 0.8 8.05 72.9
8/6/2022 5:15:00 AM 24.98 76.964 0.514 0.81 8.05 72.8
8/6/2022 5:30:00 AM 24.95 76.91 0.514 0.8 8.05 73.1
8/6/2022 5:45:00 AM 24.92 76.856 0.514 0.8 8.05 73.6
8/6/2022 6:00:00 AM 24.9 76.82 0.513 0.81 8.06 73.3
8/6/2022 6:15:00 AM 24.87 76.766 0.513 0.81 8.06 73.8
8/6/2022 6:30:00 AM 24.85 76.73 0.513 0.82 8.06 74
8/6/2022 6:45:00 AM 24.84 76.712 0.512 0.81 8.06 73.9
8/6/2022 7:00:00 AM 24.85 76.73 0.512 0.81 8.07 74.4
8/6/2022 7:15:00 AM 24.86 76.748 0.512 0.81 8.07 75.3
8/6/2022 7:30:00 AM 24.85 76.73 0.511 0.82 8.08 76
8/6/2022 7:45:00 AM 24.89 76.802 0.511 0.82 8.08 77
8/6/2022 8:00:00 AM 24.99 76.982 0.51 0.83 8.09 79
8/6/2022 8:15:00 AM 25.04 77.07201 0.51 0.83 8.1 80.6
8/6/2022 8:30:00 AM 25.08 77.144 0.509 0.84 8.1 81.9
8/6/2022 8:45:00 AM 25.11 77.198 0.509 0.84 8.11 82.8
8/6/2022 9:00:00 AM 25.15 77.27 0.509 0.85 8.11 83.4
8/6/2022 9:15:00 AM 25.22 77.396 0.508 0.84 8.13 85.5
8/6/2022 9:30:00 AM 25.26 77.468 0.507 0.84 8.14 87.1
8/6/2022 9:45:00 AM 25.32 77.576 0.507 0.84 8.15 88.1
8/6/2022 10:00:00 AM 25.38 77.684 0.506 0.84 8.15 89.6
8/6/2022 10:15:00 AM 25.49 77.882 0.506 0.85 8.17 92.4
8/6/2022 10:30:00 AM 25.54 77.972 0.505 0.85 8.19 94.8
8/6/2022 10:45:00 AM 25.61 78.098 0.504 0.85 8.2 96.3
8/6/2022 11:00:00 AM 25.7 78.26 0.503 0.84 8.21 99.1
8/6/2022 11:15:00 AM 25.75 78.35 0.503 0.83 8.23 100.6
8/6/2022 11:30:00 AM 25.88 78.584 0.502 0.83 8.24 103
8/6/2022 11:45:00 AM 25.97 78.746 0.501 0.83 8.25 105
8/6/2022 12:00:00 PM 26.03 78.854 0.501 0.84 8.26 106.6
8/6/2022 12:15:00 PM 26.15 79.07 0.5 0.83 8.27 109
8/6/2022 12:30:00 PM 26.38 79.484 0.5 0.83 8.28 112
8/6/2022 12:45:00 PM 26.72 80.096 0.499 0.83 8.29 115.4
8/6/2022 1:00:00 PM 26.91 80.438 0.499 0.83 8.3 117.5
8/6/2022 1:15:00 PM 27.05 80.69 0.498 0.83 8.31 119.2
8/6/2022 1:30:00 PM 27.05 80.69 0.498 0.82 8.31 119.7
8/6/2022 1:45:00 PM 27.17 80.906 0.498 0.82 8.31 121
8/6/2022 2:00:00 PM 27.32 81.176 0.498 0.82 8.3 121.7
8/6/2022 2:15:00 PM 27.53 81.554 0.497 0.81 8.32 122.8
8/6/2022 2:30:00 PM 27.71 81.878 0.498 0.81 8.31 123.6
8/6/2022 2:45:00 PM 27.63 81.734 0.497 0.81 8.31 122.1
8/6/2022 3:00:00 PM 27.83 82.094 0.497 0.79 8.31 121.9
8/6/2022 3:15:00 PM 27.88 82.184 0.497 0.79 8.31 122.3
8/6/2022 3:30:00 PM 27.96 82.328 0.497 0.78 8.31 122.6
8/6/2022 3:45:00 PM 28.01 82.418 0.497 0.77 8.31 122.8
8/6/2022 4:00:00 PM 27.99 82.382 0.498 0.75 8.3 120.6
8/6/2022 4:15:00 PM 28.2 82.76 0.499 0.76 8.3 121.6
8/6/2022 4:30:00 PM 28.34 83.012 0.499 0.75 8.29 122
8/6/2022 4:45:00 PM 28.13 82.634 0.499 0.74 8.28 118.6
8/6/2022 5:00:00 PM 28.2 82.76 0.5 0.73 8.26 117.5
8/6/2022 5:15:00 PM 28.35 83.03 0.5 0.73 8.27 117.9
8/6/2022 5:30:00 PM 28.13 82.634 0.445 0.73 8.27 115.3
8/6/2022 5:45:00 PM 27.9 82.22 0.457 0.74 8.26 110.6
8/6/2022 6:00:00 PM 27.78 82.004 0.502 0.74 8.24 107.3
8/6/2022 6:15:00 PM 27.78 82.004 0.502 0.74 8.24 106.4
8/6/2022 6:30:00 PM 27.61 81.698 0.503 0.74 8.23 104.6
8/6/2022 6:45:00 PM 27.42 81.356 0.503 0.73 8.22 101.2
8/6/2022 7:00:00 PM 27.24 81.032 0.504 0.74 8.2 97.3
8/6/2022 7:15:00 PM 27.1 80.78 0.505 0.74 8.19 94
8/6/2022 7:30:00 PM 26.96 80.528 0.505 0.74 8.18 91
8/6/2022 7:45:00 PM 26.83 80.294 0.506 0.74 8.16 88.2
8/6/2022 8:00:00 PM 26.72 80.096 0.507 0.76 8.14 86
8/6/2022 8:15:00 PM 26.6 79.88 0.507 0.76 8.13 83.8
8/6/2022 8:30:00 PM 26.48 79.664 0.508 0.75 8.12 81.6
8/6/2022 8:45:00 PM 26.37 79.466 0.508 0.75 8.1 79.4
8/6/2022 9:00:00 PM 26.27 79.286 0.509 0.76 8.09 77.7
8/6/2022 9:15:00 PM 26.19 79.142 0.509 0.77 8.08 76
8/6/2022 9:30:00 PM 26.13 79.034 0.509 0.77 8.07 74.9
8/6/2022 9:45:00 PM 26.07 78.926 0.509 0.79 8.06 73.8
8/6/2022 10:00:00 PM 26.02 78.836 0.51 0.79 8.05 73.2
8/6/2022 10:15:00 PM 25.98 78.764 0.51 0.79 8.04 72.4
8/6/2022 10:30:00 PM 25.93 78.674 0.51 0.79 8.04 71.9
8/6/2022 10:45:00 PM 25.89 78.602 0.51 0.8 8.03 71.5
8/6/2022 11:00:00 PM 25.84 78.512 0.51 0.79 8.03 71.3
8/6/2022 11:15:00 PM 25.81 78.458 0.51 0.78 8.02 71.1
8/6/2022 11:30:00 PM 25.77 78.386 0.511 0.79 8.02 70.9
8/6/2022 11:45:00 PM 25.74 78.332 0.511 0.78 8.02 71.1
8/7/2022 12:00:00 AM 25.7 78.26 0.511 0.78 8.02 71
8/7/2022 12:15:00 AM 25.66 78.188 0.511 0.78 8.02 70.9
8/7/2022 12:30:00 AM 25.63 78.134 0.511 0.77 8.02 71
8/7/2022 12:45:00 AM 25.59 78.062 0.511 0.76 8.02 70.9
8/7/2022 1:00:00 AM 25.55 77.99 0.511 0.76 8.02 71.3
8/7/2022 1:15:00 AM 25.52 77.936 0.511 0.76 8.03 71.3
8/7/2022 1:30:00 AM 25.48 77.864 0.511 0.76 8.03 71.4
8/7/2022 1:45:00 AM 25.45 77.81 0.511 0.75 8.03 71.5
8/7/2022 2:00:00 AM 25.41 77.738 0.511 0.74 8.03 71.3
8/7/2022 2:15:00 AM 25.37 77.666 0.511 0.75 8.04 71.5
8/7/2022 2:30:00 AM 25.34 77.612 0.511 0.75 8.03 71.4
8/7/2022 2:45:00 AM 25.31 77.558 0.511 0.75 8.04 71.6
8/7/2022 3:00:00 AM 25.29 77.522 0.511 0.75 8.04 71.7
8/7/2022 3:15:00 AM 25.28 77.504 0.511 0.75 8.04 71.8
8/7/2022 3:30:00 AM 25.26 77.468 0.511 0.75 8.04 72
8/7/2022 3:45:00 AM 25.24 77.432 0.511 0.75 8.04 71.9
8/7/2022 4:00:00 AM 25.23 77.414 0.511 0.75 8.04 71.6
8/7/2022 4:15:00 AM 25.21 77.378 0.512 0.75 8.04 72.1
8/7/2022 4:30:00 AM 25.2 77.36 0.512 0.75 8.04 72.1
8/7/2022 4:45:00 AM 25.19 77.342 0.512 0.74 8.04 72.5
8/7/2022 5:00:00 AM 25.17 77.306 0.512 0.75 8.04 72.4
8/7/2022 5:15:00 AM 25.17 77.306 0.512 0.74 8.04 72.4
8/7/2022 5:30:00 AM 25.16 77.288 0.513 0.74 8.04 72.5
8/7/2022 5:45:00 AM 25.14 77.252 0.512 0.74 8.04 72.5
8/7/2022 6:00:00 AM 25.11 77.198 0.512 0.74 8.04 72.8
8/7/2022 6:15:00 AM 25.08 77.144 0.512 0.75 8.04 72.8
8/7/2022 6:30:00 AM 25.05 77.09 0.512 0.75 8.05 73.1
8/7/2022 6:45:00 AM 25.03 77.054 0.512 0.75 8.05 73.2
8/7/2022 7:00:00 AM 25 77 0.512 0.75 8.05 73.2
8/7/2022 7:15:00 AM 24.99 76.982 0.512 0.76 8.06 74
8/7/2022 7:30:00 AM 24.99 76.982 0.512 0.75 8.06 74.5
8/7/2022 7:45:00 AM 24.99 76.982 0.511 0.74 8.07 75.1
8/7/2022 8:00:00 AM 25.01 77.018 0.511 0.75 8.07 76
8/7/2022 8:15:00 AM 25.02 77.036 0.511 0.76 8.08 77.1
8/7/2022 8:30:00 AM 25.05 77.09 0.511 0.75 8.09 78.3
8/7/2022 8:45:00 AM 25.08 77.144 0.51 0.75 8.09 79.3
8/7/2022 9:00:00 AM 25.12 77.216 0.51 0.76 8.09 80.2
8/7/2022 9:15:00 AM 25.14 77.252 0.51 0.75 8.1 81.4
8/7/2022 9:30:00 AM 25.2 77.36 0.509 0.75 8.1 82.8
8/7/2022 9:45:00 AM 25.25 77.45 0.509 0.74 8.11 84.4
8/7/2022 10:00:00 AM 25.29 77.522 0.509 0.75 8.12 85.4
8/7/2022 10:15:00 AM 25.35 77.63 0.509 0.75 8.12 86.4
8/7/2022 10:30:00 AM 25.41 77.738 0.508 0.74 8.14 88.1
8/7/2022 10:45:00 AM 25.47 77.846 0.508 0.74 8.14 90
8/7/2022 11:00:00 AM 25.58 78.044 0.507 0.75 8.16 92.3
8/7/2022 11:15:00 AM 25.74 78.332 0.507 0.73 8.17 94.6
8/7/2022 11:30:00 AM 25.91 78.638 0.506 0.73 8.18 97.4
8/7/2022 11:45:00 AM 26.11 78.998 0.506 0.74 8.2 99.8
8/7/2022 12:00:00 PM 26.33 79.394 0.505 0.73 8.22 102.5
8/7/2022 12:15:00 PM 26.57 79.826 0.504 0.73 8.23 105.5
8/7/2022 12:30:00 PM 26.81 80.258 0.503 0.72 8.25 108.6
8/7/2022 12:45:00 PM 27.12 80.816 0.503 0.72 8.27 111.3
8/7/2022 1:00:00 PM 27.46 81.42799 0.502 0.7 8.28 114.5
8/7/2022 1:15:00 PM 27.79 82.022 0.502 0.7 8.29 118
8/7/2022 1:30:00 PM 28.04 82.472 0.503 0.69 8.3 120.3
8/7/2022 1:45:00 PM 28.3 82.94 0.502 0.68 8.32 122.2
8/7/2022 2:00:00 PM 28.71 83.67799 0.501 0.68 8.32 125.3
8/7/2022 2:15:00 PM 29 84.2 0.501 0.67 8.33 127.5
8/7/2022 2:30:00 PM 29.31 84.758 0.5 0.66 8.34 129.3
8/7/2022 2:45:00 PM 29.49 85.082 0.5 0.65 8.34 130
8/7/2022 3:00:00 PM 29.73 85.514 0.5 0.65 8.34 131
8/7/2022 3:15:00 PM 29.87 85.76601 0.5 0.64 8.35 130.9
8/7/2022 3:30:00 PM 29.8 85.64 0.5 0.63 8.34 129.6
8/7/2022 3:45:00 PM 29.56 85.208 0.5 0.62 8.33 124.8
8/7/2022 4:00:00 PM 29.52 85.136 0.501 0.62 8.32 124
8/7/2022 4:15:00 PM 29.4 84.92 0.501 0.6 8.31 121.2
8/7/2022 4:30:00 PM 29.33 84.794 0.501 0.61 8.3 119.8
8/7/2022 4:45:00 PM 29.09 84.362 0.502 0.61 8.29 116.5
8/7/2022 5:00:00 PM 29.06 84.308 0.502 0.6 8.28 114.4
8/7/2022 5:15:00 PM 29.12 84.416 0.503 0.6 8.27 114.4
8/7/2022 5:30:00 PM 29.01 84.218 0.503 0.6 8.27 113.5
8/7/2022 5:45:00 PM 28.97 84.146 0.503 0.6 8.27 112.9
8/7/2022 6:00:00 PM 28.8 83.84 0.503 0.6 8.27 110.7
8/7/2022 6:15:00 PM 28.57 83.426 0.504 0.61 8.26 106.8
8/7/2022 6:30:00 PM 28.43 83.174 0.505 0.61 8.25 104.4
8/7/2022 6:45:00 PM 28.22 82.796 0.506 0.61 8.24 101
8/7/2022 7:00:00 PM 28.02 82.436 0.507 0.61 8.23 97
8/7/2022 7:15:00 PM 27.84 82.112 0.507 0.61 8.22 94.1
8/7/2022 7:30:00 PM 27.69 81.842 0.508 0.61 8.21 91.3
8/7/2022 7:45:00 PM 27.54 81.57201 0.509 0.61 8.2 88.6
8/7/2022 8:00:00 PM 27.41 81.338 0.509 0.61 8.18 85.8
8/7/2022 8:15:00 PM 27.28 81.104 0.51 0.61 8.17 83.4
8/7/2022 8:30:00 PM 27.17 80.906 0.511 0.62 8.15 81.3
8/7/2022 8:45:00 PM 27.06 80.708 0.512 0.62 8.14 78.9
8/7/2022 9:00:00 PM 26.95 80.51 0.512 0.62 8.13 77.1
8/7/2022 9:15:00 PM 26.86 80.348 0.512 0.62 8.11 75.5
8/7/2022 9:30:00 PM 26.76 80.168 0.512 0.63 8.1 74.1
8/7/2022 9:45:00 PM 26.69 80.042 0.513 0.63 8.09 72.9
8/7/2022 10:00:00 PM 26.62 79.916 0.513 0.63 8.09 72
8/7/2022 10:15:00 PM 26.56 79.808 0.513 0.64 8.08 71.7
8/7/2022 10:30:00 PM 26.5 79.7 0.513 0.63 8.07 70.9
8/7/2022 10:45:00 PM 26.46 79.628 0.513 0.63 8.06 70.4
8/7/2022 11:00:00 PM 26.41 79.538 0.514 0.63 8.06 70.1
8/7/2022 11:15:00 PM 26.36 79.448 0.513 0.63 8.06 70.1
8/7/2022 11:30:00 PM 26.32 79.376 0.513 0.62 8.06 69.8
8/7/2022 11:45:00 PM 26.27 79.286 0.513 0.62 8.05 69.8
8/8/2022 12:00:00 AM 26.23 79.214 0.514 0.62 8.05 69.5
8/8/2022 12:15:00 AM 26.2 79.16 0.513 0.63 8.06 70.1
8/8/2022 12:30:00 AM 26.16 79.088 0.514 0.63 8.06 70.1
8/8/2022 12:45:00 AM 26.12 79.016 0.514 0.61 8.06 70.5
8/8/2022 1:00:00 AM 26.08 78.944 0.513 0.62 8.06 70.4
8/8/2022 1:15:00 AM 26.03 78.854 0.514 0.62 8.06 70
8/8/2022 1:30:00 AM 26 78.8 0.514 0.62 8.06 70.5
8/8/2022 1:45:00 AM 25.96 78.728 0.514 0.61 8.06 70.4
8/8/2022 2:00:00 AM 25.92 78.656 0.514 0.61 8.06 70.3
8/8/2022 2:15:00 AM 25.89 78.602 0.514 0.6 8.07 70.6
8/8/2022 2:30:00 AM 25.86 78.548 0.514 0.6 8.07 70.8
8/8/2022 2:45:00 AM 25.82 78.476 0.515 0.6 8.07 70.7
8/8/2022 3:00:00 AM 25.79 78.422 0.515 0.6 8.07 70.9
8/8/2022 3:15:00 AM 25.76 78.368 0.515 0.6 8.07 70.8
8/8/2022 3:30:00 AM 25.74 78.332 0.515 0.6 8.07 71.3
8/8/2022 3:45:00 AM 25.71 78.278 0.515 0.59 8.08 71.2
8/8/2022 4:00:00 AM 25.68 78.224 0.516 0.59 8.08 71.1
8/8/2022 4:15:00 AM 25.66 78.188 0.515 0.6 8.08 71.4
8/8/2022 4:30:00 AM 25.63 78.134 0.515 0.59 8.08 71.2
8/8/2022 4:45:00 AM 25.6 78.08 0.515 0.59 8.08 71.3
8/8/2022 5:00:00 AM 25.59 78.062 0.515 0.59 8.08 71.3
8/8/2022 5:15:00 AM 25.57 78.026 0.515 0.59 8.07 71.3
8/8/2022 5:30:00 AM 25.54 77.972 0.516 0.59 8.07 71.1
8/8/2022 5:45:00 AM 25.53 77.954 0.516 0.59 8.08 71.5
8/8/2022 6:00:00 AM 25.51 77.918 0.516 0.59 8.07 71.3
8/8/2022 6:15:00 AM 25.49 77.882 0.515 0.59 8.07 71.5
8/8/2022 6:30:00 AM 25.47 77.846 0.516 0.59 8.08 72
8/8/2022 6:45:00 AM 25.47 77.846 0.515 0.6 8.07 72.1
8/8/2022 7:00:00 AM 25.47 77.846 0.515 0.6 8.08 72.7
8/8/2022 7:15:00 AM 25.48 77.864 0.515 0.6 8.08 72.8
8/8/2022 7:30:00 AM 25.51 77.918 0.515 0.59 8.09 73.4
8/8/2022 7:45:00 AM 25.53 77.954 0.515 0.59 8.09 74.1
8/8/2022 8:00:00 AM 25.56 78.008 0.515 0.58 8.09 74.9
8/8/2022 8:15:00 AM 25.62 78.116 0.514 0.59 8.09 76
8/8/2022 8:30:00 AM 25.66 78.188 0.514 0.59 8.09 76.8
8/8/2022 8:45:00 AM 25.72 78.296 0.514 0.58 8.1 78.3
8/8/2022 9:00:00 AM 25.79 78.422 0.514 0.59 8.1 79.5
8/8/2022 9:15:00 AM 25.86 78.548 0.513 0.59 8.11 80.7
8/8/2022 9:30:00 AM 25.92 78.656 0.513 0.59 8.11 81.4
8/8/2022 9:45:00 AM 25.99 78.782 0.513 0.59 8.11 82.7
8/8/2022 10:00:00 AM 26.05 78.89 0.512 0.59 8.12 83.6
8/8/2022 10:15:00 AM 26.11 78.998 0.512 0.58 8.12 84.6
8/8/2022 10:30:00 AM 26.19 79.142 0.511 0.57 8.13 85.9
8/8/2022 10:45:00 AM 26.27 79.286 0.511 0.57 8.14 87.5
8/8/2022 11:00:00 AM 26.38 79.484 0.511 0.57 8.14 89
8/8/2022 11:15:00 AM 26.53 79.754 0.51 0.56 8.16 91
8/8/2022 11:30:00 AM 26.7 80.06 0.511 0.56 8.17 93.7
8/8/2022 11:45:00 AM 26.93 80.474 0.51 0.56 8.18 96.4
8/8/2022 12:00:00 PM 27.19 80.942 0.509 0.55 8.2 99.2
8/8/2022 12:15:00 PM 27.5 81.5 0.509 0.55 8.21 102.8
8/8/2022 12:30:00 PM 27.84 82.112 0.509 0.54 8.23 106.4
8/8/2022 12:45:00 PM 28.19 82.742 0.508 0.53 8.24 109.8
8/8/2022 1:00:00 PM 28.56 83.408 0.508 0.53 8.26 113.1
8/8/2022 1:15:00 PM 28.91 84.038 0.507 0.52 8.28 116.5
8/8/2022 1:30:00 PM 29.26 84.668 0.507 0.52 8.29 118.7
8/8/2022 1:45:00 PM 29.6 85.28 0.507 0.52 8.3 122
8/8/2022 2:00:00 PM 29.9 85.82 0.506 0.51 8.31 124
8/8/2022 2:15:00 PM 30.12 86.216 0.506 0.51 8.32 125.4
8/8/2022 2:30:00 PM 30.47 86.84599 0.506 0.51 8.32 127.8
8/8/2022 2:45:00 PM 30.62 87.116 0.506 0.49 8.33 128
8/8/2022 3:00:00 PM 30.8 87.43999 0.506 0.5 8.33 128.7
8/8/2022 3:15:00 PM 31.05 87.89 0.505 0.49 8.34 130
8/8/2022 3:30:00 PM 31.14 88.052 0.505 0.48 8.34 130.1
8/8/2022 3:45:00 PM 31.3 88.34 0.505 0.47 8.34 131.5
8/8/2022 4:00:00 PM 31.5 88.7 0.505 0.47 8.34 132.1
8/8/2022 4:15:00 PM 31.43 88.574 0.505 0.47 8.33 131.1
8/8/2022 4:30:00 PM 31.51 88.718 0.505 0.46 8.31 130.8
8/8/2022 4:45:00 PM 31.56 88.808 0.505 0.45 8.3 130.2
8/8/2022 5:00:00 PM 31.46 88.628 0.506 0.44 8.29 128.4
8/8/2022 5:15:00 PM 31.28 88.304 0.506 0.44 8.29 125.7
8/8/2022 5:30:00 PM 31.17 88.106 0.506 0.44 8.28 123
8/8/2022 5:45:00 PM 30.99 87.782 0.507 0.43 8.28 120.7
8/8/2022 6:00:00 PM 30.82 87.476 0.507 0.43 8.29 117.8
8/8/2022 6:15:00 PM 30.57 87.026 0.508 0.42 8.28 113.8
8/8/2022 6:30:00 PM 30.23 86.414 0.509 0.42 8.27 108.7
8/8/2022 6:45:00 PM 29.91 85.838 0.51 0.42 8.25 103.1
8/8/2022 7:00:00 PM 29.61 85.298 0.512 0.42 8.23 97.9
8/8/2022 7:15:00 PM 29.4 84.92 0.513 0.42 8.2 93.7
8/8/2022 7:30:00 PM 29.16 84.488 0.514 0.43 8.19 90.3
8/8/2022 7:45:00 PM 28.92 84.056 0.515 0.44 8.17 86.4
8/8/2022 8:00:00 PM 28.73 83.714 0.516 0.44 8.16 83.3
8/8/2022 8:15:00 PM 28.55 83.39 0.517 0.44 8.15 80.9
8/8/2022 8:30:00 PM 28.39 83.102 0.517 0.46 8.14 78.6
8/8/2022 8:45:00 PM 28.25 82.85 0.518 0.45 8.13 76.7
8/8/2022 9:00:00 PM 28.14 82.652 0.518 0.47 8.11 74.8
8/8/2022 9:15:00 PM 28.03 82.454 0.519 0.46 8.1 73.6
8/8/2022 9:30:00 PM 27.94 82.292 0.519 0.47 8.09 72.1
8/8/2022 9:45:00 PM 27.86 82.148 0.52 0.47 8.08 71.2
8/8/2022 10:00:00 PM 27.78 82.004 0.52 0.46 8.07 70.2
8/8/2022 10:15:00 PM 27.7 81.86 0.52 0.47 8.06 69.1
8/8/2022 10:30:00 PM 27.64 81.752 0.52 0.46 8.06 68.8
8/8/2022 10:45:00 PM 27.57 81.626 0.52 0.46 8.06 68.4
8/8/2022 11:00:00 PM 27.51 81.518 0.521 0.47 8.05 68.1
8/8/2022 11:15:00 PM 27.45 81.41 0.521 0.47 8.05 67.8
8/8/2022 11:30:00 PM 27.39 81.302 0.521 0.47 8.04 67.6
8/8/2022 11:45:00 PM 27.33 81.194 0.521 0.47 8.04 67.9
8/9/2022 12:00:00 AM 27.29 81.122 0.522 0.48 8.04 67.6
8/9/2022 12:15:00 AM 27.25 81.05 0.522 0.47 8.04 67.7
8/9/2022 12:30:00 AM 27.21 80.978 0.522 0.48 8.04 67.8
8/9/2022 12:45:00 AM 27.19 80.942 0.522 0.47 8.04 68
8/9/2022 1:00:00 AM 27.15 80.87 0.522 0.47 8.04 67.6
8/9/2022 1:15:00 AM 27.12 80.816 0.523 0.46 8.04 67.8
8/9/2022 1:30:00 AM 27.08 80.744 0.523 0.46 8.04 67.5
8/9/2022 1:45:00 AM 27.05 80.69 0.523 0.46 8.04 68
8/9/2022 2:00:00 AM 27.03 80.654 0.523 0.46 8.04 68.2
8/9/2022 2:15:00 AM 26.99 80.582 0.524 0.45 8.04 68.4
8/9/2022 2:30:00 AM 26.97 80.546 0.524 0.46 8.05 68.6
8/9/2022 2:45:00 AM 26.94 80.492 0.524 0.46 8.04 68.2
8/9/2022 3:00:00 AM 26.9 80.42 0.525 0.46 8.05 68.3
8/9/2022 3:15:00 AM 26.88 80.384 0.525 0.46 8.05 68.7
8/9/2022 3:30:00 AM 26.84 80.312 0.525 0.46 8.05 68.7
8/9/2022 3:45:00 AM 26.82 80.276 0.525 0.46 8.06 69.2
8/9/2022 4:00:00 AM 26.79 80.222 0.525 0.47 8.06 66.9
8/9/2022 4:15:00 AM 26.78 80.204 0.526 0.46 8.06 69.7
8/9/2022 4:30:00 AM 26.75 80.15 0.526 0.47 8.06 69.8
8/9/2022 4:45:00 AM 26.73 80.114 0.526 0.46 8.06 68.8
8/9/2022 5:00:00 AM 26.71 80.078 0.526 0.46 8.06 70.2
8/9/2022 5:15:00 AM 26.69 80.042 0.526 0.46 8.06 70.2
8/9/2022 5:30:00 AM 26.66 79.988 0.526 0.47 8.06 70.5
8/9/2022 5:45:00 AM 26.63 79.934 0.527 0.46 8.06 70.5
8/9/2022 6:00:00 AM 26.61 79.898 0.526 0.47 8.06 70.2
8/9/2022 6:15:00 AM 26.6 79.88 0.527 0.48 8.06 70.1
8/9/2022 6:30:00 AM 26.57 79.826 0.526 0.47 8.06 70
8/9/2022 6:45:00 AM 26.56 79.808 0.526 0.47 8.06 70.4
8/9/2022 7:00:00 AM 26.56 79.808 0.526 0.48 8.06 70.5
8/9/2022 7:15:00 AM 26.56 79.808 0.526 0.48 8.06 71
8/9/2022 7:30:00 AM 26.58 79.844 0.526 0.48 8.06 71.5
8/9/2022 7:45:00 AM 26.6 79.88 0.526 0.48 8.06 72.4
8/9/2022 8:00:00 AM 26.63 79.934 0.526 0.47 8.06 73.2
8/9/2022 8:15:00 AM 26.67 80.006 0.526 0.48 8.06 74.3
8/9/2022 8:30:00 AM 26.72 80.096 0.526 0.48 8.06 75.7
8/9/2022 8:45:00 AM 26.78 80.204 0.526 0.48 8.07 76.9
8/9/2022 9:00:00 AM 26.83 80.294 0.525 0.48 8.07 78
8/9/2022 9:15:00 AM 26.89 80.402 0.525 0.48 8.07 79.3
8/9/2022 9:30:00 AM 26.97 80.546 0.525 0.48 8.08 80.5
8/9/2022 9:45:00 AM 27.03 80.654 0.525 0.48 8.08 81.5
8/9/2022 10:00:00 AM 27.09 80.762 0.524 0.48 8.09 83.1
8/9/2022 10:15:00 AM 27.16 80.888 0.524 0.48 8.09 84.3
8/9/2022 10:30:00 AM 27.27 81.086 0.523 0.48 8.11 86.7
8/9/2022 10:45:00 AM 27.4 81.32 0.523 0.49 8.12 89.7
8/9/2022 11:00:00 AM 27.53 81.554 0.522 0.49 8.13 92.8
8/9/2022 11:15:00 AM 27.66 81.788 0.522 0.49 8.15 95.6
8/9/2022 11:30:00 AM 27.82 82.076 0.521 0.48 8.16 98.5
8/9/2022 11:45:00 AM 28.06 82.508 0.52 0.49 8.18 101.9
8/9/2022 12:00:00 PM 28.13 82.634 0.52 0.48 8.2 103.6
8/9/2022 12:15:00 PM 28.18 82.724 0.52 0.48 8.21 104.2
8/9/2022 12:30:00 PM 28.39 83.102 0.52 0.47 8.22 104.8
8/9/2022 12:45:00 PM 28.76 83.768 0.519 0.47 8.23 109.3
8/9/2022 1:00:00 PM 28.85 83.93 0.519 0.45 8.25 110
8/9/2022 1:15:00 PM 29.19 84.542 0.519 0.46 8.25 113.8
8/9/2022 1:30:00 PM 29.11 84.39799 0.519 0.46 8.25 112.9
8/9/2022 1:45:00 PM 29.44 84.992 0.519 0.45 8.26 114.6
8/9/2022 2:00:00 PM 29.44 84.992 0.519 0.46 8.27 114
8/9/2022 2:15:00 PM 29.71 85.478 0.519 0.44 8.27 116.9
8/9/2022 2:30:00 PM 29.49 85.082 0.519 0.45 8.28 114.3
8/9/2022 2:45:00 PM 29.49 85.082 0.519 0.44 8.28 113.3
8/9/2022 3:00:00 PM 29.65 85.37 0.519 0.45 8.29 116.6
8/9/2022 3:15:00 PM 29.92 85.856 0.518 0.44 8.29 118
8/9/2022 3:30:00 PM 30.22 86.396 0.517 0.43 8.3 121.9
8/9/2022 3:45:00 PM 30.54 86.972 0.517 0.43 8.31 125.3
8/9/2022 4:00:00 PM 30.76 87.368 0.517 0.42 8.31 127.7
8/9/2022 4:15:00 PM 30.69 87.242 0.517 0.44 8.3 127.3
8/9/2022 4:30:00 PM 30.23 86.414 0.517 0.46 8.29 118.2
8/9/2022 4:45:00 PM 29.95 85.91 0.515 0.43 8.3 110.9
8/9/2022 5:00:00 PM 29.82 85.676 0.516 0.42 8.31 109
8/9/2022 5:15:00 PM 29.68 85.424 0.518 0.45 8.31 106.3
8/9/2022 5:30:00 PM 29.53 85.15401 0.518 0.45 8.3 102.4
8/9/2022 5:45:00 PM 29.48 85.064 0.519 0.45 8.29 101.8
8/9/2022 6:00:00 PM 29.41 84.938 0.519 0.48 8.28 101.8
8/9/2022 6:15:00 PM 29.19 84.542 0.519 0.47 8.27 98
8/9/2022 6:30:00 PM 28.98 84.164 0.52 0.47 8.25 93.5
8/9/2022 6:45:00 PM 28.81 83.858 0.521 0.47 8.23 90.2
8/9/2022 7:00:00 PM 28.66 83.588 0.521 0.46 8.22 88
8/9/2022 7:15:00 PM 28.56 83.408 0.523 0.46 8.2 86.3
8/9/2022 7:30:00 PM 28.45 83.21001 0.523 0.47 8.19 84.7
8/9/2022 7:45:00 PM 28.35 83.03 0.524 0.47 8.18 83.1
8/9/2022 8:00:00 PM 28.26 82.868 0.525 0.49 8.17 81.7
8/9/2022 8:15:00 PM 28.16 82.688 0.526 0.49 8.15 79.7
8/9/2022 8:30:00 PM 28.06 82.508 0.526 0.5 8.14 77.5
8/9/2022 8:45:00 PM 27.97 82.346 0.527 0.5 8.12 75.8
8/9/2022 9:00:00 PM 27.88 82.184 0.527 0.51 8.12 74.4
8/9/2022 9:15:00 PM 27.81 82.058 0.528 0.52 8.11 73.1
8/9/2022 9:30:00 PM 27.74 81.932 0.528 0.52 8.1 71.6
8/9/2022 9:45:00 PM 27.67 81.806 0.528 0.52 8.09 71.1
8/9/2022 10:00:00 PM 27.61 81.698 0.529 0.52 8.08 70.3
8/9/2022 10:15:00 PM 27.56 81.608 0.529 0.53 8.07 69.3
8/9/2022 10:30:00 PM 27.5 81.5 0.529 0.53 8.07 68.6
8/9/2022 10:45:00 PM 27.45 81.41 0.529 0.53 8.06 68.2
8/9/2022 11:00:00 PM 27.41 81.338 0.529 0.52 8.06 68.2
8/9/2022 11:15:00 PM 27.37 81.266 0.53 0.54 8.06 67.5
8/9/2022 11:30:00 PM 27.33 81.194 0.53 0.53 8.06 67.8
8/9/2022 11:45:00 PM 27.28 81.104 0.53 0.54 8.05 67.3
8/10/2022 12:00:00 AM 27.25 81.05 0.53 0.54 8.06 67.6
8/10/2022 12:15:00 AM 27.21 80.978 0.53 0.55 8.06 67.1
8/10/2022 12:30:00 AM 27.16 80.888 0.53 0.55 8.05 67.3
8/10/2022 12:45:00 AM 27.12 80.816 0.531 0.55 8.05 67.3
8/10/2022 1:00:00 AM 27.1 80.78 0.531 0.56 8.05 67.6
8/10/2022 1:15:00 AM 27.06 80.708 0.531 0.55 8.05 67.6
8/10/2022 1:30:00 AM 27.02 80.636 0.531 0.55 8.05 67.5
8/10/2022 1:45:00 AM 26.99 80.582 0.531 0.55 8.05 67.8
8/10/2022 2:00:00 AM 26.95 80.51 0.531 0.55 8.05 67.6
8/10/2022 2:15:00 AM 26.91 80.438 0.531 0.55 8.05 67.6
8/10/2022 2:30:00 AM 26.87 80.366 0.531 0.56 8.05 67.8
8/10/2022 2:45:00 AM 26.84 80.312 0.531 0.54 8.05 68.1
8/10/2022 3:00:00 AM 26.79 80.222 0.531 0.54 8.05 68.2
8/10/2022 3:15:00 AM 26.76 80.168 0.531 0.54 8.05 67.9
8/10/2022 3:30:00 AM 26.72 80.096 0.532 0.55 8.06 68.5
8/10/2022 3:45:00 AM 26.68 80.024 0.531 0.56 8.05 68.3
8/10/2022 4:00:00 AM 26.63 79.934 0.532 0.56 8.06 68.7
8/10/2022 4:15:00 AM 26.6 79.88 0.531 0.55 8.06 69.3
8/10/2022 4:30:00 AM 26.56 79.808 0.531 0.56 8.05 69
8/10/2022 4:45:00 AM 26.53 79.754 0.531 0.56 8.06 69.2
8/10/2022 5:00:00 AM 26.49 79.682 0.531 0.56 8.05 68.8
8/10/2022 5:15:00 AM 26.48 79.664 0.531 0.56 8.05 68.9
8/10/2022 5:30:00 AM 26.46 79.628 0.532 0.57 8.05 69
8/10/2022 5:45:00 AM 26.44 79.592 0.531 0.56 8.05 68.9
8/10/2022 6:00:00 AM 26.41 79.538 0.531 0.58 8.05 69.1
8/10/2022 6:15:00 AM 26.39 79.502 0.531 0.57 8.06 69.3
8/10/2022 6:30:00 AM 26.38 79.484 0.531 0.58 8.05 69.1
8/10/2022 6:45:00 AM 26.38 79.484 0.531 0.59 8.05 69.6
8/10/2022 7:00:00 AM 26.36 79.448 0.53 0.6 8.05 69.9
8/10/2022 7:15:00 AM 26.36 79.448 0.53 0.6 8.06 70.6
8/10/2022 7:30:00 AM 26.36 79.448 0.529 0.61 8.06 71.3
8/10/2022 7:45:00 AM 26.35 79.43 0.529 0.61 8.06 72.4
8/10/2022 8:00:00 AM 26.35 79.43 0.529 0.62 8.07 72.9
8/10/2022 8:15:00 AM 26.39 79.502 0.528 0.62 8.08 74.5
8/10/2022 8:30:00 AM 26.42 79.556 0.528 0.63 8.08 75.8
8/10/2022 8:45:00 AM 26.45 79.61 0.528 0.62 8.09 77.9
8/10/2022 9:00:00 AM 26.45 79.61 0.527 0.63 8.1 79.7
8/10/2022 9:15:00 AM 26.46 79.628 0.526 0.62 8.11 81.8
8/10/2022 9:30:00 AM 26.49 79.682 0.526 0.62 8.13 84.3
8/10/2022 9:45:00 AM 26.53 79.754 0.525 0.61 8.15 86.9
8/10/2022 10:00:00 AM 26.59 79.862 0.524 0.62 8.17 89.9
8/10/2022 10:15:00 AM 26.67 80.006 0.523 0.63 8.18 92.6
8/10/2022 10:30:00 AM 26.74 80.132 0.522 0.63 8.2 95.4
8/10/2022 10:45:00 AM 26.83 80.294 0.521 0.63 8.22 98.5
8/10/2022 11:00:00 AM 26.88 80.384 0.521 0.64 8.23 101.3
8/10/2022 11:15:00 AM 26.94 80.492 0.52 0.64 8.25 104.2
8/10/2022 11:30:00 AM 26.99 80.582 0.519 0.64 8.26 106.5
8/10/2022 11:45:00 AM 27.06 80.708 0.518 0.62 8.28 108.6
8/10/2022 12:00:00 PM 27.17 80.906 0.517 0.62 8.28 109.5
8/10/2022 12:15:00 PM 27.36 81.248 0.517 0.62 8.29 111.6
8/10/2022 12:30:00 PM 27.57 81.626 0.516 0.62 8.3 113.3
8/10/2022 12:45:00 PM 27.89 82.202 0.515 0.61 8.31 117
8/10/2022 1:00:00 PM 27.89 82.202 0.515 0.6 8.32 118.7
8/10/2022 1:15:00 PM 27.89 82.202 0.514 0.61 8.32 118.5
8/10/2022 1:30:00 PM 28.33 82.994 0.514 0.59 8.33 122
8/10/2022 1:45:00 PM 28.54 83.372 0.513 0.59 8.34 124.2
8/10/2022 2:00:00 PM 28.44 83.192 0.512 0.59 8.34 123.9
8/10/2022 2:15:00 PM 28.42 83.156 0.512 0.58 8.34 122.4
8/10/2022 2:30:00 PM 28.72 83.696 0.512 0.57 8.33 123.4
8/10/2022 2:45:00 PM 29.28 84.704 0.511 0.55 8.35 127.6
8/10/2022 3:00:00 PM 29.63 85.334 0.511 0.54 8.36 130.6
8/10/2022 3:15:00 PM 29.77 85.586 0.51 0.53 8.36 130.7
8/10/2022 3:30:00 PM 29.85 85.73 0.51 0.53 8.37 131
8/10/2022 3:45:00 PM 29.56 85.208 0.511 0.54 8.36 126.4
8/10/2022 4:00:00 PM 29.39 84.902 0.511 0.53 8.34 122.4
8/10/2022 4:15:00 PM 29.68 85.424 0.51 0.53 8.33 124.2
8/10/2022 4:30:00 PM 29.79 85.622 0.511 0.51 8.33 125.7
8/10/2022 4:45:00 PM 29.67 85.406 0.511 0.51 8.32 124.4
8/10/2022 5:00:00 PM 29.46 85.028 0.511 0.51 8.31 121
8/10/2022 5:15:00 PM 29.23 84.614 0.511 0.5 8.3 116.7
8/10/2022 5:30:00 PM 29.04 84.272 0.512 0.49 8.3 113.2
8/10/2022 5:45:00 PM 28.79 83.82201 0.513 0.5 8.29 108.2
8/10/2022 6:00:00 PM 28.53 83.354 0.513 0.51 8.27 103
8/10/2022 6:15:00 PM 28.34 83.012 0.515 0.5 8.25 98.5
8/10/2022 6:30:00 PM 28.17 82.706 0.515 0.5 8.24 96.1
8/10/2022 6:45:00 PM 28.02 82.436 0.515 0.5 8.23 94
8/10/2022 7:00:00 PM 27.88 82.184 0.516 0.51 8.21 90.9
8/10/2022 7:15:00 PM 27.76 81.968 0.517 0.51 8.21 88.5
8/10/2022 7:30:00 PM 27.64 81.752 0.517 0.5 8.19 85.7
8/10/2022 7:45:00 PM 27.55 81.59 0.518 0.51 8.17 82.7
8/10/2022 8:00:00 PM 27.46 81.42799 0.519 0.51 8.15 80.4
8/10/2022 8:15:00 PM 27.4 81.32 0.519 0.51 8.14 78.1
8/10/2022 8:30:00 PM 27.33 81.194 0.519 0.51 8.12 76.3
8/10/2022 8:45:00 PM 27.27 81.086 0.52 0.51 8.11 74.7
8/10/2022 9:00:00 PM 27.21 80.978 0.52 0.51 8.1 73.2
8/10/2022 9:15:00 PM 27.16 80.888 0.52 0.51 8.09 72.3
8/10/2022 9:30:00 PM 27.11 80.798 0.52 0.51 8.08 71.4
8/10/2022 9:45:00 PM 27.06 80.708 0.52 0.51 8.08 70.4
8/10/2022 10:00:00 PM 27.01 80.618 0.52 0.51 8.07 69.8
8/10/2022 10:15:00 PM 26.96 80.528 0.52 0.51 8.06 69.3
8/10/2022 10:30:00 PM 26.91 80.438 0.52 0.51 8.06 69.2
8/10/2022 10:45:00 PM 26.86 80.348 0.52 0.51 8.06 68.8
8/10/2022 11:00:00 PM 26.82 80.276 0.52 0.5 8.06 68.9
8/10/2022 11:15:00 PM 26.78 80.204 0.52 0.51 8.05 68.7
8/10/2022 11:30:00 PM 26.74 80.132 0.52 0.52 8.05 68.6
8/10/2022 11:45:00 PM 26.7 80.06 0.52 0.53 8.05 68.4
8/11/2022 12:00:00 AM 26.66 79.988 0.521 0.52 8.05 68.5
8/11/2022 12:15:00 AM 26.62 79.916 0.521 0.51 8.05 68.6
8/11/2022 12:30:00 AM 26.56 79.808 0.521 0.51 8.05 69.1
8/11/2022 12:45:00 AM 26.53 79.754 0.521 0.51 8.05 69.2
8/11/2022 1:00:00 AM 26.47 79.646 0.521 0.51 8.05 68.8
8/11/2022 1:15:00 AM 26.45 79.61 0.521 0.5 8.06 69.1
8/11/2022 1:30:00 AM 26.41 79.538 0.522 0.51 8.06 68.9
8/11/2022 1:45:00 AM 26.39 79.502 0.521 0.5 8.05 68.8
8/11/2022 2:00:00 AM 26.35 79.43 0.521 0.5 8.05 68.8
8/11/2022 2:15:00 AM 26.31 79.358 0.521 0.51 8.05 69.1
8/11/2022 2:30:00 AM 26.27 79.286 0.521 0.51 8.06 69.2
8/11/2022 2:45:00 AM 26.23 79.214 0.521 0.51 8.06 69.6
8/11/2022 3:00:00 AM 26.18 79.124 0.521 0.51 8.05 69.3
8/11/2022 3:15:00 AM 26.15 79.07 0.521 0.51 8.06 69.7
8/11/2022 3:30:00 AM 26.1 78.98 0.522 0.52 8.06 69.4
8/11/2022 3:45:00 AM 26.07 78.926 0.522 0.51 8.06 69.6
8/11/2022 4:00:00 AM 26.02 78.836 0.522 0.51 8.05 69.6
8/11/2022 4:15:00 AM 25.98 78.764 0.522 0.51 8.05 69.8
8/11/2022 4:30:00 AM 25.94 78.692 0.521 0.5 8.05 69.7
8/11/2022 4:45:00 AM 25.89 78.602 0.522 0.51 8.05 69.9
8/11/2022 5:00:00 AM 25.85 78.53 0.521 0.51 8.06 70.1
8/11/2022 5:15:00 AM 25.8 78.44 0.521 0.51 8.06 70.2
8/11/2022 5:30:00 AM 25.75 78.35 0.522 0.52 8.06 70.1
8/11/2022 5:45:00 AM 25.71 78.278 0.522 0.51 8.07 70.3
8/11/2022 6:00:00 AM 25.67 78.206 0.522 0.52 8.07 70.3
8/11/2022 6:15:00 AM 25.63 78.134 0.522 0.52 8.07 70.3
8/11/2022 6:30:00 AM 25.56 78.008 0.521 0.52 8.08 70.8
8/11/2022 6:45:00 AM 25.5 77.9 0.521 0.52 8.08 71.2
8/11/2022 7:00:00 AM 25.46 77.828 0.521 0.52 8.08 71.1
8/11/2022 7:15:00 AM 25.41 77.738 0.52 0.53 8.08 71.6
8/11/2022 7:30:00 AM 25.37 77.666 0.52 0.53 8.09 72.1
8/11/2022 7:45:00 AM 25.36 77.648 0.52 0.52 8.09 72.6
8/11/2022 8:00:00 AM 25.35 77.63 0.52 0.54 8.09 73.6
8/11/2022 8:15:00 AM 25.34 77.612 0.52 0.54 8.1 74.6
8/11/2022 8:30:00 AM 25.33 77.594 0.519 0.54 8.1 75.7
8/11/2022 8:45:00 AM 25.3 77.54 0.519 0.54 8.11 76.8
8/11/2022 9:00:00 AM 25.27 77.486 0.519 0.54 8.11 77.8
8/11/2022 9:15:00 AM 25.28 77.504 0.519 0.54 8.12 79
8/11/2022 9:30:00 AM 25.28 77.504 0.518 0.54 8.12 80.3
8/11/2022 9:45:00 AM 25.27 77.486 0.518 0.54 8.13 81.1
8/11/2022 10:00:00 AM 25.28 77.504 0.518 0.54 8.14 82.3
8/11/2022 10:15:00 AM 25.28 77.504 0.517 0.55 8.14 83
8/11/2022 10:30:00 AM 25.31 77.558 0.517 0.53 8.15 84.4
8/11/2022 10:45:00 AM 25.35 77.63 0.516 0.53 8.16 85.8
8/11/2022 11:00:00 AM 25.41 77.738 0.516 0.53 8.17 86.9
8/11/2022 11:15:00 AM 25.51 77.918 0.516 0.52 8.18 88.5
8/11/2022 11:30:00 AM 25.64 78.152 0.515 0.52 8.19 90.5
8/11/2022 11:45:00 AM 25.85 78.53 0.514 0.52 8.2 93.5
8/11/2022 12:00:00 PM 26.08 78.944 0.514 0.51 8.22 96.6
8/11/2022 12:15:00 PM 26.33 79.394 0.513 0.51 8.24 99.5
8/11/2022 12:30:00 PM 26.63 79.934 0.513 0.51 8.26 102.7
8/11/2022 12:45:00 PM 26.93 80.474 0.513 0.5 8.27 105.8
8/11/2022 1:00:00 PM 27.26 81.068 0.512 0.5 8.29 109.2
8/11/2022 1:15:00 PM 27.59 81.662 0.511 0.5 8.31 112.7
8/11/2022 1:30:00 PM 27.92 82.256 0.51 0.49 8.32 115.9
8/11/2022 1:45:00 PM 28.06 82.508 0.511 0.48 8.33 118.5
8/11/2022 2:00:00 PM 28.38 83.084 0.51 0.47 8.34 119.6
8/11/2022 2:15:00 PM 28.66 83.588 0.509 0.47 8.35 122.6
8/11/2022 2:30:00 PM 28.93 84.074 0.509 0.46 8.36 124.4
8/11/2022 2:45:00 PM 29.22 84.59599 0.508 0.45 8.37 126.6
8/11/2022 3:00:00 PM 29.31 84.758 0.508 0.45 8.37 126.5
8/11/2022 3:15:00 PM 29.41 84.938 0.508 0.45 8.37 126.6
8/11/2022 3:30:00 PM 29.51 85.118 0.508 0.44 8.36 125.2
8/11/2022 3:45:00 PM 29.69 85.442 0.508 0.42 8.37 127
8/11/2022 4:00:00 PM 29.59 85.262 0.508 0.42 8.36 125
8/11/2022 4:15:00 PM 29.38 84.884 0.508 0.42 8.35 122.6
8/11/2022 4:30:00 PM 29.55 85.18999 0.508 0.39 8.34 122.8
8/11/2022 4:45:00 PM 29.55 85.18999 0.508 0.4 8.33 123.5
8/11/2022 5:00:00 PM 29.51 85.118 0.508 0.4 8.32 122.2
8/11/2022 5:15:00 PM 29.1 84.38 0.509 0.39 8.31 116.4
8/11/2022 5:30:00 PM 28.76 83.768 0.509 0.4 8.3 111
8/11/2022 5:45:00 PM 28.55 83.39 0.51 0.4 8.29 107
8/11/2022 6:00:00 PM 28.3 82.94 0.51 0.4 8.29 103.9
8/11/2022 6:15:00 PM 28.1 82.58 0.511 0.4 8.28 100.1
8/11/2022 6:30:00 PM 27.94 82.292 0.511 0.4 8.27 97.5
8/11/2022 6:45:00 PM 27.77 81.986 0.512 0.41 8.26 95.8
8/11/2022 7:00:00 PM 27.58 81.644 0.512 0.4 8.25 92.8
8/11/2022 7:15:00 PM 27.4 81.32 0.513 0.4 8.23 89.6
8/11/2022 7:30:00 PM 27.21 80.978 0.514 0.39 8.22 86.6
8/11/2022 7:45:00 PM 27.06 80.708 0.514 0.41 8.21 84.4
8/11/2022 8:00:00 PM 26.91 80.438 0.515 0.42 8.2 82.3
8/11/2022 8:15:00 PM 26.79 80.222 0.515 0.42 8.19 80.2
8/11/2022 8:30:00 PM 26.68 80.024 0.515 0.43 8.17 78.7
8/11/2022 8:45:00 PM 26.58 79.844 0.515 0.43 8.16 77
8/11/2022 9:00:00 PM 26.49 79.682 0.515 0.45 8.15 75.6
8/11/2022 9:15:00 PM 26.4 79.52 0.516 0.45 8.14 74.1
8/11/2022 9:30:00 PM 26.33 79.394 0.516 0.46 8.13 72.9
8/11/2022 9:45:00 PM 26.26 79.268 0.517 0.46 8.12 72.1
8/11/2022 10:00:00 PM 26.17 79.106 0.517 0.46 8.12 71.1
8/11/2022 10:15:00 PM 26.09 78.962 0.517 0.47 8.11 70.8
8/11/2022 10:30:00 PM 26.04 78.872 0.517 0.46 8.11 70.5
8/11/2022 10:45:00 PM 25.98 78.764 0.516 0.47 8.1 70.1
8/11/2022 11:00:00 PM 25.91 78.638 0.516 0.47 8.09 69.4
8/11/2022 11:15:00 PM 25.83 78.494 0.516 0.47 8.09 69.5
8/11/2022 11:30:00 PM 25.76 78.368 0.516 0.48 8.1 69.7
8/11/2022 11:45:00 PM 25.69 78.242 0.517 0.49 8.09 69.3
8/12/2022 12:00:00 AM 25.61 78.098 0.516 0.48 8.09 69.8
8/12/2022 12:15:00 AM 25.55 77.99 0.516 0.5 8.1 69.7
8/12/2022 12:30:00 AM 25.5 77.9 0.516 0.5 8.1 69.8
8/12/2022 12:45:00 AM 25.44 77.792 0.516 0.51 8.09 69.8
8/12/2022 1:00:00 AM 25.4 77.72 0.516 0.5 8.1 69.8
8/12/2022 1:15:00 AM 25.32 77.576 0.516 0.5 8.1 69.9
8/12/2022 1:30:00 AM 25.25 77.45 0.516 0.51 8.11 70.2
8/12/2022 1:45:00 AM 25.2 77.36 0.516 0.51 8.11 69.8
8/12/2022 2:00:00 AM 25.13 77.234 0.516 0.5 8.11 69.7
8/12/2022 2:15:00 AM 25.05 77.09 0.516 0.51 8.11 70
8/12/2022 2:30:00 AM 24.99 76.982 0.516 0.51 8.12 70
8/12/2022 2:45:00 AM 24.94 76.892 0.516 0.52 8.12 69.7
8/12/2022 3:00:00 AM 24.85 76.73 0.516 0.51 8.12 70.1
8/12/2022 3:15:00 AM 24.79 76.622 0.515 0.52 8.13 69.9
8/12/2022 3:30:00 AM 24.72 76.496 0.515 0.52 8.13 69.7
8/12/2022 3:45:00 AM 24.66 76.388 0.516 0.53 8.13 69.8
8/12/2022 4:00:00 AM 24.59 76.262 0.515 0.54 8.13 69.8
8/12/2022 4:15:00 AM 24.54 76.172 0.515 0.53 8.13 70
8/12/2022 4:30:00 AM 24.49 76.082 0.515 0.54 8.13 70.6
8/12/2022 4:45:00 AM 24.42 75.956 0.515 0.53 8.14 70.1
8/12/2022 5:00:00 AM 24.37 75.866 0.515 0.53 8.14 70.1
8/12/2022 5:15:00 AM 24.31 75.758 0.515 0.54 8.14 70.5
8/12/2022 5:30:00 AM 24.26 75.668 0.515 0.54 8.14 70.8
8/12/2022 5:45:00 AM 24.21 75.578 0.515 0.55 8.14 70.7
8/12/2022 6:00:00 AM 24.16 75.488 0.515 0.55 8.15 70.5
8/12/2022 6:15:00 AM 24.12 75.416 0.514 0.55 8.15 70.5
8/12/2022 6:30:00 AM 24.06 75.308 0.514 0.56 8.15 70.6
8/12/2022 6:45:00 AM 24.04 75.272 0.514 0.57 8.15 71
8/12/2022 7:00:00 AM 24.02 75.236 0.514 0.57 8.15 71.1
8/12/2022 7:15:00 AM 24 75.2 0.514 0.58 8.15 71.7
8/12/2022 7:30:00 AM 24.01 75.218 0.514 0.59 8.15 72.4
8/12/2022 7:45:00 AM 24.02 75.236 0.514 0.59 8.15 73.1
8/12/2022 8:00:00 AM 24.05 75.29 0.514 0.59 8.15 74
8/12/2022 8:15:00 AM 24.06 75.308 0.513 0.59 8.15 74.9
8/12/2022 8:30:00 AM 24.06 75.308 0.513 0.59 8.15 76
8/12/2022 8:45:00 AM 24.08 75.344 0.513 0.6 8.15 77.3
8/12/2022 9:00:00 AM 24.09 75.362 0.512 0.61 8.15 78.2
8/12/2022 9:15:00 AM 24.12 75.416 0.512 0.59 8.16 79.4
8/12/2022 9:30:00 AM 24.12 75.416 0.512 0.6 8.16 80.6
8/12/2022 9:45:00 AM 24.14 75.452 0.511 0.6 8.17 81.6
8/12/2022 10:00:00 AM 24.14 75.452 0.511 0.61 8.17 82.3
8/12/2022 10:15:00 AM 24.12 75.416 0.511 0.62 8.17 83.1
8/12/2022 10:30:00 AM 24.13 75.434 0.51 0.61 8.18 84.3
8/12/2022 10:45:00 AM 24.23 75.614 0.51 0.61 8.19 85.7
8/12/2022 11:00:00 AM 24.29 75.722 0.51 0.63 8.19 87.2
8/12/2022 11:15:00 AM 24.42 75.956 0.509 0.62 8.2 88.8
8/12/2022 11:30:00 AM 24.58 76.244 0.508 0.63 8.2 91.4
8/12/2022 11:45:00 AM 24.75 76.55 0.508 0.64 8.21 93.6
8/12/2022 12:00:00 PM 24.94 76.892 0.507 0.62 8.22 96.2
8/12/2022 12:15:00 PM 25.22 77.396 0.507 0.62 8.24 99
8/12/2022 12:30:00 PM 25.5 77.9 0.506 0.61 8.25 102.1
8/12/2022 12:45:00 PM 25.79 78.422 0.505 0.61 8.27 105.4
8/12/2022 1:00:00 PM 26.08 78.944 0.504 0.59 8.29 108.8
8/12/2022 1:15:00 PM 26.43 79.574 0.504 0.59 8.31 111.8
8/12/2022 1:30:00 PM 26.75 80.15 0.503 0.58 8.32 115
8/12/2022 1:45:00 PM 27.06 80.708 0.502 0.58 8.34 118.2
8/12/2022 2:00:00 PM 27.31 81.158 0.501 0.58 8.35 120.6
8/12/2022 2:15:00 PM 27.6 81.68 0.501 0.56 8.36 123.4
8/12/2022 2:30:00 PM 27.85 82.13 0.501 0.57 8.38 125.8
8/12/2022 2:45:00 PM 28.12 82.616 0.5 0.56 8.39 127.6
8/12/2022 3:00:00 PM 28.33 82.994 0.499 0.56 8.39 129.3
8/12/2022 3:15:00 PM 28.54 83.372 0.499 0.55 8.4 130.7
8/12/2022 3:30:00 PM 28.69 83.642 0.498 0.55 8.4 131.3
8/12/2022 3:45:00 PM 28.8 83.84 0.497 0.55 8.4 131.5
8/12/2022 4:00:00 PM 28.91 84.038 0.497 0.55 8.4 131.7
8/12/2022 4:15:00 PM 28.97 84.146 0.497 0.55 8.38 131.7
8/12/2022 4:30:00 PM 29.01 84.218 0.496 0.54 8.36 131.2
8/12/2022 4:45:00 PM 29.05 84.28999 0.496 0.55 8.35 131.5
8/12/2022 5:00:00 PM 28.92 84.056 0.496 0.55 8.33 130.1
8/12/2022 5:15:00 PM 28.72 83.696 0.496 0.55 8.33 128.1
8/12/2022 5:30:00 PM 28.51 83.318 0.497 0.55 8.33 125.2
8/12/2022 5:45:00 PM 28.24 82.832 0.496 0.55 8.34 121.6
8/12/2022 6:00:00 PM 27.98 82.364 0.497 0.55 8.33 117
8/12/2022 6:15:00 PM 27.71 81.878 0.497 0.54 8.33 113.1
8/12/2022 6:30:00 PM 27.37 81.266 0.498 0.55 8.31 107.9
8/12/2022 6:45:00 PM 27.05 80.69 0.499 0.54 8.29 102.4
8/12/2022 7:00:00 PM 26.74 80.132 0.5 0.55 8.28 98.1
8/12/2022 7:15:00 PM 26.48 79.664 0.501 0.55 8.26 94.1
8/12/2022 7:30:00 PM 26.25 79.25 0.501 0.55 8.25 90.5
8/12/2022 7:45:00 PM 26.03 78.854 0.502 0.56 8.24 87.5
8/12/2022 8:00:00 PM 25.84 78.512 0.503 0.56 8.22 84.7
8/12/2022 8:15:00 PM 25.66 78.188 0.503 0.56 8.21 82.2
8/12/2022 8:30:00 PM 25.5 77.9 0.504 0.56 8.2 79.9
8/12/2022 8:45:00 PM 25.34 77.612 0.505 0.57 8.2 78.1
8/12/2022 9:00:00 PM 25.21 77.378 0.505 0.58 8.19 76.6
8/12/2022 9:15:00 PM 25.09 77.162 0.505 0.58 8.18 75.1
8/12/2022 9:30:00 PM 24.98 76.964 0.505 0.6 8.18 74.1
8/12/2022 9:45:00 PM 24.9 76.82 0.505 0.6 8.18 73
8/12/2022 10:00:00 PM 24.8 76.64 0.506 0.61 8.17 72.1
8/12/2022 10:15:00 PM 24.69 76.442 0.506 0.61 8.17 71.4
8/12/2022 10:30:00 PM 24.6 76.28 0.506 0.61 8.16 70.6
8/12/2022 10:45:00 PM 24.52 76.136 0.506 0.62 8.16 70.3
8/12/2022 11:00:00 PM 24.44 75.992 0.506 0.62 8.16 69.9
8/12/2022 11:15:00 PM 24.37 75.866 0.506 0.63 8.16 69.7
8/12/2022 11:30:00 PM 24.28 75.704 0.506 0.62 8.16 69.7
8/12/2022 11:45:00 PM 24.22 75.596 0.506 0.63 8.16 69.6
8/13/2022 12:00:00 AM 24.14 75.452 0.506 0.63 8.16 69.8
8/13/2022 12:15:00 AM 24.07 75.326 0.506 0.63 8.16 69.6
8/13/2022 12:30:00 AM 24.03 75.254 0.506 0.65 8.17 69.8
8/13/2022 12:45:00 AM 23.98 75.164 0.506 0.65 8.17 69.6
8/13/2022 1:00:00 AM 23.92 75.056 0.506 0.65 8.17 69.4
8/13/2022 1:15:00 AM 23.86 74.948 0.504 0.65 8.17 69.7
8/13/2022 1:30:00 AM 23.79 74.82201 0.506 0.65 8.16 69.8
8/13/2022 1:45:00 AM 23.74 74.732 0.506 0.65 8.17 70.1
8/13/2022 2:00:00 AM 23.69 74.642 0.507 0.64 8.17 70.1
8/13/2022 2:15:00 AM 23.62 74.516 0.507 0.65 8.17 70.3
8/13/2022 2:30:00 AM 23.56 74.408 0.507 0.65 8.17 70.3
8/13/2022 2:45:00 AM 23.48 74.264 0.507 0.66 8.17 70.2
8/13/2022 3:00:00 AM 23.43 74.174 0.507 0.65 8.17 70.2
8/13/2022 3:15:00 AM 23.37 74.066 0.507 0.66 8.17 70.2
8/13/2022 3:30:00 AM 23.32 73.976 0.506 0.67 8.17 70.1
8/13/2022 3:45:00 AM 23.24 73.832 0.507 0.67 8.17 69.6
8/13/2022 4:00:00 AM 23.18 73.724 0.507 0.67 8.17 69.9
8/13/2022 4:15:00 AM 23.11 73.598 0.507 0.68 8.17 69.9
8/13/2022 4:30:00 AM 23.03 73.454 0.507 0.68 8.17 69.9
8/13/2022 4:45:00 AM 22.95 73.31 0.507 0.68 8.18 70.4
8/13/2022 5:00:00 AM 22.89 73.202 0.506 0.69 8.17 70
8/13/2022 5:15:00 AM 22.81 73.058 0.507 0.71 8.17 70.1
8/13/2022 5:30:00 AM 22.76 72.968 0.507 0.67 8.17 70.4
8/13/2022 5:45:00 AM 22.7 72.86 0.507 0.7 8.17 70.4
8/13/2022 6:00:00 AM 22.59 72.662 0.507 0.69 8.18 70.6
8/13/2022 6:15:00 AM 22.53 72.554 0.507 0.69 8.18 70.4
8/13/2022 6:30:00 AM 22.48 72.464 0.507 0.7 8.18 70.7
8/13/2022 6:45:00 AM 22.39 72.302 0.507 0.7 8.18 70.6
8/13/2022 7:00:00 AM 22.35 72.23 0.507 0.71 8.18 71
8/13/2022 7:15:00 AM 22.31 72.158 0.507 0.71 8.18 71.4
8/13/2022 7:30:00 AM 22.29 72.122 0.507 0.71 8.19 72.7
8/13/2022 7:45:00 AM 22.31 72.158 0.507 0.71 8.19 73.4
8/13/2022 8:00:00 AM 22.31 72.158 0.507 0.71 8.19 74.1
8/13/2022 8:15:00 AM 22.36 72.248 0.506 0.7 8.2 75.3
8/13/2022 8:30:00 AM 22.4 72.32 0.506 0.72 8.2 76.8
8/13/2022 8:45:00 AM 22.43 72.374 0.506 0.71 8.2 77.7
8/13/2022 9:00:00 AM 22.48 72.464 0.506 0.71 8.19 78.9
8/13/2022 9:15:00 AM 22.55 72.59 0.506 0.7 8.19 80.3
8/13/2022 9:30:00 AM 22.61 72.698 0.506 0.7 8.18 81.2
8/13/2022 9:45:00 AM 22.66 72.788 0.506 0.7 8.17 82
8/13/2022 10:00:00 AM 22.66 72.788 0.506 0.7 8.16 82.2
8/13/2022 10:15:00 AM 22.69 72.842 0.505 0.71 8.15 83.7
8/13/2022 10:30:00 AM 22.75 72.95 0.505 0.71 8.16 84.7
8/13/2022 10:45:00 AM 22.81 73.058 0.505 0.71 8.16 86
8/13/2022 11:00:00 AM 22.89 73.202 0.505 0.7 8.17 86.9
8/13/2022 11:15:00 AM 23.03 73.454 0.504 0.69 8.18 89.1
8/13/2022 11:30:00 AM 23.15 73.67 0.504 0.7 8.19 91.1
8/13/2022 11:45:00 AM 23.37 74.066 0.504 0.7 8.21 94.3
8/13/2022 12:00:00 PM 23.64 74.552 0.503 0.7 8.22 97.4
8/13/2022 12:15:00 PM 23.9 75.02 0.503 0.69 8.24 100.2
8/13/2022 12:30:00 PM 24.22 75.596 0.502 0.69 8.26 103.6
8/13/2022 12:45:00 PM 24.55 76.19 0.501 0.68 8.28 107.4
8/13/2022 1:00:00 PM 24.97 76.946 0.501 0.68 8.3 111.3
8/13/2022 1:15:00 PM 25.33 77.594 0.5 0.66 8.31 114.6
8/13/2022 1:30:00 PM 25.7 78.26 0.499 0.65 8.33 118
8/13/2022 1:45:00 PM 26.05 78.89 0.499 0.64 8.35 121.3
8/13/2022 2:00:00 PM 26.42 79.556 0.498 0.64 8.36 124
8/13/2022 2:15:00 PM 26.75 80.15 0.497 0.63 8.37 127.3
8/13/2022 2:30:00 PM 27.02 80.636 0.497 0.63 8.38 129.4
8/13/2022 2:45:00 PM 27.32 81.176 0.497 0.62 8.39 131.5
8/13/2022 3:00:00 PM 27.6 81.68 0.496 0.61 8.4 133.8
8/13/2022 3:15:00 PM 27.77 81.986 0.496 0.61 8.41 134.8
8/13/2022 3:30:00 PM 27.97 82.346 0.491 0.6 8.41 135.5
8/13/2022 3:45:00 PM 28.1 82.58 0.495 0.59 8.41 135.4
8/13/2022 4:00:00 PM 28.2 82.76 0.494 0.59 8.41 135.3
8/13/2022 4:15:00 PM 28.28 82.904 0.495 0.58 8.38 135.5
8/13/2022 4:30:00 PM 28.33 82.994 0.495 0.57 8.35 135.5
8/13/2022 4:45:00 PM 28.36 83.048 0.495 0.57 8.33 134.3
8/13/2022 5:00:00 PM 28.22 82.796 0.495 0.55 8.32 132.7
8/13/2022 5:15:00 PM 28 82.4 0.495 0.56 8.33 131
8/13/2022 5:30:00 PM 27.86 82.148 0.495 0.56 8.33 129.1
8/13/2022 5:45:00 PM 27.63 81.734 0.496 0.56 8.34 126.2
8/13/2022 6:00:00 PM 27.36 81.248 0.497 0.56 8.34 122.9
8/13/2022 6:15:00 PM 27.05 80.69 0.498 0.56 8.33 117.9
8/13/2022 6:30:00 PM 26.73 80.114 0.499 0.56 8.32 112.4
8/13/2022 6:45:00 PM 26.42 79.556 0.5 0.56 8.31 107.1
8/13/2022 7:00:00 PM 26.14 79.052 0.501 0.55 8.29 103.4
8/13/2022 7:15:00 PM 25.86 78.548 0.502 0.56 8.28 99.5
8/13/2022 7:30:00 PM 25.57 78.026 0.503 0.56 8.26 95.3
8/13/2022 7:45:00 PM 25.32 77.576 0.504 0.56 8.25 91.4
8/13/2022 8:00:00 PM 25.08 77.144 0.505 0.57 8.24 88.5
8/13/2022 8:15:00 PM 24.87 76.766 0.505 0.57 8.23 85.7
8/13/2022 8:30:00 PM 24.66 76.388 0.496 0.57 8.22 83.1
8/13/2022 8:45:00 PM 24.48 76.064 0.507 0.57 8.21 80.9
8/13/2022 9:00:00 PM 24.32 75.776 0.508 0.57 8.21 78.9
8/13/2022 9:15:00 PM 24.19 75.542 0.508 0.58 8.21 77.5
8/13/2022 9:30:00 PM 24.07 75.326 0.508 0.58 8.2 76.3
8/13/2022 9:45:00 PM 23.95 75.11 0.509 0.59 8.2 74.9
8/13/2022 10:00:00 PM 23.85 74.93 0.51 0.59 8.19 73.8
8/13/2022 10:15:00 PM 23.77 74.786 0.51 0.58 8.19 73
8/13/2022 10:30:00 PM 23.68 74.624 0.51 0.58 8.18 72.2
8/13/2022 10:45:00 PM 23.6 74.48 0.51 0.59 8.18 72
8/13/2022 11:00:00 PM 23.53 74.354 0.511 0.59 8.18 71.5
8/13/2022 11:15:00 PM 23.47 74.246 0.511 0.59 8.17 71.3
8/13/2022 11:30:00 PM 23.4 74.12 0.512 0.59 8.17 71.1
8/13/2022 11:45:00 PM 23.34 74.012 0.511 0.59 8.17 70.8
8/14/2022 12:00:00 AM 23.3 73.94 0.512 0.59 8.16 71.1
8/14/2022 12:15:00 AM 23.24 73.832 0.512 0.59 8.16 70.9
8/14/2022 12:30:00 AM 23.2 73.76 0.512 0.59 8.16 70.7
8/14/2022 12:45:00 AM 23.16 73.688 0.513 0.6 8.16 70.6
8/14/2022 1:00:00 AM 23.12 73.616 0.513 0.59 8.16 70.8
8/14/2022 1:15:00 AM 23.08 73.544 0.513 0.58 8.16 70.9
8/14/2022 1:30:00 AM 23.03 73.454 0.513 0.57 8.16 71.2
8/14/2022 1:45:00 AM 23.01 73.418 0.513 0.58 8.16 71.6
8/14/2022 2:00:00 AM 22.97 73.346 0.514 0.57 8.17 72.1
8/14/2022 2:15:00 AM 22.95 73.31 0.514 0.57 8.17 72
8/14/2022 2:30:00 AM 22.91 73.238 0.514 0.57 8.16 72
8/14/2022 2:45:00 AM 22.88 73.184 0.514 0.57 8.16 71.8
8/14/2022 3:00:00 AM 22.83 73.094 0.515 0.57 8.16 71.6
8/14/2022 3:15:00 AM 22.81 73.058 0.515 0.57 8.16 71.9
8/14/2022 3:30:00 AM 22.78 73.004 0.516 0.58 8.16 72.1
8/14/2022 3:45:00 AM 22.75 72.95 0.516 0.57 8.16 72
8/14/2022 4:00:00 AM 22.72 72.896 0.516 0.57 8.15 71.6
8/14/2022 4:15:00 AM 22.68 72.824 0.517 0.57 8.15 71.9
8/14/2022 4:30:00 AM 22.64 72.752 0.517 0.58 8.15 72.2
8/14/2022 4:45:00 AM 22.59 72.662 0.517 0.56 8.15 72.1
8/14/2022 5:00:00 AM 22.56 72.608 0.518 0.57 8.15 72.2
8/14/2022 5:15:00 AM 22.52 72.536 0.518 0.57 8.16 72.3
8/14/2022 5:30:00 AM 22.46 72.42799 0.518 0.56 8.16 72.4
8/14/2022 5:45:00 AM 22.42 72.356 0.518 0.57 8.15 72.1
8/14/2022 6:00:00 AM 22.37 72.266 0.519 0.56 8.15 72.3
8/14/2022 6:15:00 AM 22.31 72.158 0.519 0.57 8.15 72
8/14/2022 6:30:00 AM 22.25 72.05 0.519 0.57 8.16 72.4
8/14/2022 6:45:00 AM 22.2 71.96 0.519 0.58 8.16 72.8
8/14/2022 7:00:00 AM 22.16 71.888 0.519 0.58 8.16 72.7
8/14/2022 7:15:00 AM 22.1 71.78 0.52 0.58 8.16 73.1
8/14/2022 7:30:00 AM 22.08 71.744 0.52 0.57 8.16 73.6
8/14/2022 7:45:00 AM 22.06 71.708 0.52 0.58 8.17 74.5
8/14/2022 8:00:00 AM 22.06 71.708 0.52 0.58 8.17 74.7
8/14/2022 8:15:00 AM 22.08 71.744 0.52 0.58 8.17 76.2
8/14/2022 8:30:00 AM 22.09 71.762 0.52 0.58 8.17 77.7
8/14/2022 8:45:00 AM 22.12 71.816 0.52 0.57 8.17 78.8
8/14/2022 9:00:00 AM 22.13 71.834 0.517 0.58 8.16 80
8/14/2022 9:15:00 AM 22.19 71.942 0.52 0.58 8.15 81.1
8/14/2022 9:30:00 AM 22.24 72.032 0.505 0.57 8.15 82.1
8/14/2022 9:45:00 AM 22.29 72.122 0.519 0.58 8.15 82.8
8/14/2022 10:00:00 AM 22.33 72.194 0.515 0.57 8.15 84.1
8/14/2022 10:15:00 AM 22.36 72.248 0.519 0.57 8.15 84.6
8/14/2022 10:30:00 AM 22.42 72.356 0.519 0.57 8.14 85.8
8/14/2022 10:45:00 AM 22.47 72.446 0.519 0.57 8.15 87.1
8/14/2022 11:00:00 AM 22.54 72.57201 0.518 0.57 8.15 88.5
8/14/2022 11:15:00 AM 22.67 72.806 0.518 0.56 8.15 90.2
8/14/2022 11:30:00 AM 22.83 73.094 0.518 0.55 8.16 92.8
8/14/2022 11:45:00 AM 23.03 73.454 0.517 0.55 8.16 96
8/14/2022 12:00:00 PM 23.3 73.94 0.517 0.54 8.18 99.2
8/14/2022 12:15:00 PM 23.58 74.444 0.516 0.54 8.2 102.7
8/14/2022 12:30:00 PM 23.91 75.038 0.515 0.54 8.22 106.3
8/14/2022 12:45:00 PM 24.24 75.632 0.515 0.53 8.24 110.3
8/14/2022 1:00:00 PM 24.61 76.298 0.514 0.52 8.26 114.3
8/14/2022 1:15:00 PM 24.95 76.91 0.513 0.52 8.28 118.4
8/14/2022 1:30:00 PM 25.22 77.396 0.512 0.52 8.29 121.9
8/14/2022 1:45:00 PM 25.32 77.576 0.511 0.53 8.31 123.6
8/14/2022 2:00:00 PM 25.73 78.314 0.496 0.52 8.32 127.2
8/14/2022 2:15:00 PM 25.84 78.512 0.509 0.52 8.33 128.9
8/14/2022 2:30:00 PM 26.02 78.836 0.508 0.51 8.33 129.6
8/14/2022 2:45:00 PM 26.14 79.052 0.507 0.5 8.34 131.9
8/14/2022 3:00:00 PM 26.1 78.98 0.506 0.5 8.35 131
8/14/2022 3:15:00 PM 25.98 78.764 0.506 0.5 8.36 129.6
8/14/2022 3:30:00 PM 25.98 78.764 0.505 0.49 8.36 129.1
8/14/2022 3:45:00 PM 25.99 78.782 0.504 0.49 8.37 129.9
8/14/2022 4:00:00 PM 26.02 78.836 0.504 0.49 8.38 130.5
8/14/2022 4:15:00 PM 25.87 78.566 0.503 0.49 8.37 128.2
8/14/2022 4:30:00 PM 25.71 78.278 0.503 0.49 8.38 126.2
8/14/2022 4:45:00 PM 25.56 78.008 0.503 0.49 8.38 123.9
8/14/2022 5:00:00 PM 25.33 77.594 0.504 0.49 8.37 119.2
8/14/2022 5:15:00 PM 25.13 77.234 0.504 0.5 8.36 115
8/14/2022 5:30:00 PM 24.93 76.874 0.505 0.49 8.35 110.5
8/14/2022 5:45:00 PM 24.76 76.568 0.506 0.5 8.33 106.1
8/14/2022 6:00:00 PM 24.59 76.262 0.507 0.49 8.33 102.6
8/14/2022 6:15:00 PM 24.45 76.01 0.508 0.49 8.31 99
8/14/2022 6:30:00 PM 24.3 75.74 0.508 0.49 8.29 95.5
8/14/2022 6:45:00 PM 24.19 75.542 0.51 0.49 8.28 92.6
8/14/2022 7:00:00 PM 24.07 75.326 0.511 0.5 8.26 89.6
8/14/2022 7:15:00 PM 23.9 75.02 0.509 0.5 8.24 86.1
8/14/2022 7:30:00 PM 23.7 74.66 0.505 0.49 8.25 83.2
8/14/2022 7:45:00 PM 23.63 74.534 0.505 0.5 8.26 81.4
8/14/2022 8:00:00 PM 23.57 74.426 0.49 0.5 8.26 79.7
8/14/2022 8:15:00 PM 23.5 74.3 0.511 0.51 8.25 78.5
8/14/2022 8:30:00 PM 23.44 74.192 0.512 0.51 8.24 77.7
8/14/2022 8:45:00 PM 23.4 74.12 0.513 0.51 8.24 76.9
8/14/2022 9:00:00 PM 23.37 74.066 0.514 0.51 8.23 76.3
8/14/2022 9:15:00 PM 23.33 73.994 0.515 0.52 8.22 75.6
8/14/2022 9:30:00 PM 23.3 73.94 0.515 0.53 8.21 75.1
8/14/2022 9:45:00 PM 23.27 73.886 0.516 0.53 8.21 74.7
8/14/2022 10:00:00 PM 23.24 73.832 0.516 0.52 8.2 74.9
8/14/2022 10:15:00 PM 23.22 73.796 0.516 0.53 8.19 74
8/14/2022 10:30:00 PM 23.2 73.76 0.517 0.53 8.19 73.9
8/14/2022 10:45:00 PM 23.18 73.724 0.517 0.52 8.18 73.5
8/14/2022 11:00:00 PM 23.16 73.688 0.517 0.53 8.18 73.8
8/14/2022 11:15:00 PM 23.15 73.67 0.518 0.53 8.18 73.7
8/14/2022 11:30:00 PM 23.14 73.652 0.518 0.53 8.18 73.4
8/14/2022 11:45:00 PM 23.11 73.598 0.518 0.52 8.17 73.3
8/15/2022 12:00:00 AM 23.09 73.562 0.518 0.52 8.17 73.5
8/15/2022 12:15:00 AM 23.06 73.508 0.518 0.52 8.17 73.9
8/15/2022 12:30:00 AM 23.04 73.472 0.518 0.52 8.17 73.7
8/15/2022 12:45:00 AM 23.03 73.454 0.519 0.52 8.17 73.7
8/15/2022 1:00:00 AM 23.01 73.418 0.518 0.52 8.17 73.8
8/15/2022 1:15:00 AM 22.99 73.382 0.519 0.51 8.17 74
8/15/2022 1:30:00 AM 22.97 73.346 0.519 0.52 8.17 74
8/15/2022 1:45:00 AM 22.96 73.328 0.519 0.51 8.16 73.8
8/15/2022 2:00:00 AM 22.96 73.328 0.518 0.51 8.17 74.1
8/15/2022 2:15:00 AM 22.93 73.274 0.519 0.51 8.16 73.7
8/15/2022 2:30:00 AM 22.92 73.256 0.519 0.51 8.16 73.7
8/15/2022 2:45:00 AM 22.9 73.22 0.519 0.51 8.16 74.2
8/15/2022 3:00:00 AM 22.88 73.184 0.52 0.51 8.16 74.3
8/15/2022 3:15:00 AM 22.87 73.166 0.519 0.51 8.16 74.3
8/15/2022 3:30:00 AM 22.86 73.148 0.52 0.51 8.16 74.5
8/15/2022 3:45:00 AM 22.85 73.13 0.519 0.51 8.16 74.4
8/15/2022 4:00:00 AM 22.83 73.094 0.52 0.51 8.16 74.2
8/15/2022 4:15:00 AM 22.81 73.058 0.521 0.51 8.15 74.3
8/15/2022 4:30:00 AM 22.79 73.022 0.521 0.5 8.15 74.7
8/15/2022 4:45:00 AM 22.76 72.968 0.52 0.49 8.16 74.4
8/15/2022 5:00:00 AM 22.74 72.932 0.52 0.51 8.15 74.5
8/15/2022 5:15:00 AM 22.7 72.86 0.519 0.49 8.16 75
8/15/2022 5:30:00 AM 22.67 72.806 0.519 0.5 8.16 74.6
8/15/2022 5:45:00 AM 22.65 72.77 0.519 0.5 8.15 74.6
8/15/2022 6:00:00 AM 22.63 72.734 0.519 0.5 8.16 74.6
8/15/2022 6:15:00 AM 22.61 72.698 0.519 0.51 8.16 74.7
8/15/2022 6:30:00 AM 22.58 72.644 0.518 0.5 8.15 74.7
8/15/2022 6:45:00 AM 22.53 72.554 0.517 0.51 8.15 74.9
8/15/2022 7:00:00 AM 22.51 72.518 0.516 0.51 8.15 74.9
8/15/2022 7:15:00 AM 22.47 72.446 0.515 0.52 8.15 75.8
8/15/2022 7:30:00 AM 22.42 72.356 0.511 0.51 8.16 76.6
8/15/2022 7:45:00 AM 22.4 72.32 0.511 0.51 8.15 76.4
8/15/2022 8:00:00 AM 22.37 72.266 0.507 0.52 8.15 76.3
8/15/2022 8:15:00 AM 22.35 72.23 0.506 0.52 8.15 77
8/15/2022 8:30:00 AM 22.33 72.194 0.507 0.53 8.15 77.2
8/15/2022 8:45:00 AM 22.32 72.176 0.506 0.52 8.15 77.4
8/15/2022 9:00:00 AM 22.32 72.176 0.508 0.53 8.15 78.2
8/15/2022 9:15:00 AM 22.37 72.266 0.509 0.52 8.16 79.7
8/15/2022 9:30:00 AM 22.36 72.248 0.509 0.52 8.17 80.9
8/15/2022 9:45:00 AM 22.37 72.266 0.51 0.52 8.18 82.2
8/15/2022 10:00:00 AM 22.36 72.248 0.51 0.54 8.18 82.6
8/15/2022 10:15:00 AM 22.4 72.32 0.51 0.53 8.18 84.6
8/15/2022 10:30:00 AM 22.39 72.302 0.51 0.54 8.19 85.6
8/15/2022 10:45:00 AM 22.39 72.302 0.511 0.54 8.2 86
8/15/2022 11:00:00 AM 22.41 72.338 0.511 0.54 8.21 87.7
8/15/2022 11:15:00 AM 22.42 72.356 0.511 0.53 8.22 89.2
8/15/2022 11:30:00 AM 22.42 72.356 0.511 0.53 8.23 90.7
8/15/2022 11:45:00 AM 22.45 72.41 0.512 0.53 8.24 92.3
8/15/2022 12:00:00 PM 22.47 72.446 0.512 0.53 8.25 93.9
8/15/2022 12:15:00 PM 22.5 72.5 0.512 0.52 8.27 95.5
8/15/2022 12:30:00 PM 22.53 72.554 0.512 0.52 8.27 96.6
8/15/2022 12:45:00 PM 22.56 72.608 0.513 0.52 8.28 97.8
8/15/2022 1:00:00 PM 22.58 72.644 0.513 0.52 8.29 99.1
8/15/2022 1:15:00 PM 22.62 72.716 0.513 0.52 8.3 100.4
8/15/2022 1:30:00 PM 22.67 72.806 0.512 0.51 8.3 102.2
8/15/2022 1:45:00 PM 22.71 72.878 0.512 0.51 8.31 103.4
8/15/2022 2:00:00 PM 22.76 72.968 0.512 0.51 8.32 105.3
8/15/2022 2:15:00 PM 22.82 73.076 0.512 0.51 8.33 106.5
8/15/2022 2:30:00 PM 22.85 73.13 0.512 0.52 8.34 107.4
8/15/2022 2:45:00 PM 22.88 73.184 0.512 0.51 8.34 107.7
8/15/2022 3:00:00 PM 22.89 73.202 0.512 0.5 8.34 107.5
8/15/2022 3:15:00 PM 22.9 73.22 0.512 0.5 8.34 107.2
8/15/2022 3:30:00 PM 22.92 73.256 0.511 0.49 8.34 107.3
8/15/2022 3:45:00 PM 22.93 73.274 0.511 0.5 8.34 106.9
8/15/2022 4:00:00 PM 22.94 73.292 0.511 0.49 8.34 106.9
8/15/2022 4:15:00 PM 22.95 73.31 0.511 0.48 8.34 106.7
8/15/2022 4:30:00 PM 22.95 73.31 0.511 0.48 8.33 105.9
8/15/2022 4:45:00 PM 22.94 73.292 0.511 0.48 8.33 104.7
8/15/2022 5:00:00 PM 22.93 73.274 0.511 0.48 8.32 103.7
8/15/2022 5:15:00 PM 22.91 73.238 0.511 0.48 8.32 102.2
8/15/2022 5:30:00 PM 22.9 73.22 0.511 0.48 8.31 100.7
8/15/2022 5:45:00 PM 22.89 73.202 0.512 0.48 8.3 99.6
8/15/2022 6:00:00 PM 22.88 73.184 0.512 0.48 8.3 98.7
8/15/2022 6:15:00 PM 22.85 73.13 0.513 0.48 8.29 97.1
8/15/2022 6:30:00 PM 22.84 73.112 0.513 0.48 8.28 95.9
8/15/2022 6:45:00 PM 22.83 73.094 0.513 0.48 8.28 94.8
8/15/2022 7:00:00 PM 22.81 73.058 0.514 0.48 8.27 93.6
8/15/2022 7:15:00 PM 22.79 73.022 0.514 0.47 8.25 92.2
8/15/2022 7:30:00 PM 22.76 72.968 0.515 0.48 8.24 90.8
8/15/2022 7:45:00 PM 22.72 72.896 0.515 0.49 8.23 89.3
8/15/2022 8:00:00 PM 22.68 72.824 0.516 0.49 8.22 87.4
8/15/2022 8:15:00 PM 22.64 72.752 0.516 0.5 8.21 86.2
8/15/2022 8:30:00 PM 22.59 72.662 0.516 0.51 8.2 84.9
8/15/2022 8:45:00 PM 22.54 72.57201 0.517 0.52 8.2 83.6
8/15/2022 9:00:00 PM 22.49 72.482 0.517 0.53 8.19 82.5
8/15/2022 9:15:00 PM 22.44 72.392 0.518 0.54 8.18 81.5
8/15/2022 9:30:00 PM 22.41 72.338 0.518 0.56 8.17 80.4
8/15/2022 9:45:00 PM 22.36 72.248 0.519 0.57 8.16 79.5
8/15/2022 10:00:00 PM 22.34 72.212 0.519 0.58 8.15 78.9
8/15/2022 10:15:00 PM 22.3 72.14 0.52 0.58 8.14 78.4
8/15/2022 10:30:00 PM 22.28 72.104 0.52 0.6 8.13 78
8/15/2022 10:45:00 PM 22.25 72.05 0.52 0.61 8.12 77.9
8/15/2022 11:00:00 PM 22.22 71.996 0.521 0.62 8.12 77.9
8/15/2022 11:15:00 PM 22.2 71.96 0.521 0.64 8.11 77.8
8/15/2022 11:30:00 PM 22.18 71.924 0.522 0.65 8.11 77.9
8/15/2022 11:45:00 PM 22.16 71.888 0.522 0.66 8.1 77.9
8/16/2022 12:00:00 AM 22.13 71.834 0.522 0.67 8.1 78
8/16/2022 12:15:00 AM 22.11 71.798 0.522 0.68 8.09 77.8
8/16/2022 12:30:00 AM 22.08 71.744 0.524 0.7 8.09 77.6
8/16/2022 12:45:00 AM 22.05 71.69 0.524 0.7 8.08 78
8/16/2022 1:00:00 AM 22.03 71.654 0.524 0.71 8.08 78.1
8/16/2022 1:15:00 AM 21.99 71.582 0.525 0.71 8.08 78
8/16/2022 1:30:00 AM 21.96 71.528 0.525 0.71 8.07 77.9
8/16/2022 1:45:00 AM 21.93 71.474 0.525 0.71 8.07 77.8
8/16/2022 2:00:00 AM 21.89 71.402 0.525 0.72 8.06 77.8
8/16/2022 2:15:00 AM 21.85 71.33 0.525 0.72 8.06 77.6
8/16/2022 2:30:00 AM 21.81 71.258 0.526 0.72 8.06 77.7
8/16/2022 2:45:00 AM 21.78 71.204 0.525 0.72 8.06 77.6
8/16/2022 3:00:00 AM 21.74 71.132 0.525 0.72 8.06 77.6
8/16/2022 3:15:00 AM 21.71 71.078 0.525 0.72 8.06 77.5
8/16/2022 3:30:00 AM 21.68 71.024 0.525 0.73 8.06 77.6
8/16/2022 3:45:00 AM 21.64 70.952 0.525 0.72 8.06 77.3
8/16/2022 4:00:00 AM 21.6 70.88 0.525 0.72 8.06 77.5
8/16/2022 4:15:00 AM 21.57 70.826 0.525 0.73 8.06 77.8
8/16/2022 4:30:00 AM 21.52 70.736 0.525 0.73 8.06 78
8/16/2022 4:45:00 AM 21.49 70.682 0.524 0.74 8.06 77.9
8/16/2022 5:00:00 AM 21.45 70.61 0.524 0.74 8.06 78.2
8/16/2022 5:15:00 AM 21.41 70.538 0.524 0.75 8.07 78.4
8/16/2022 5:30:00 AM 21.38 70.484 0.523 0.76 8.07 78.2
8/16/2022 5:45:00 AM 21.34 70.412 0.523 0.77 8.06 78.4
8/16/2022 6:00:00 AM 21.3 70.34 0.523 0.77 8.07 78.8
8/16/2022 6:15:00 AM 21.26 70.268 0.522 0.78 8.07 79.2
8/16/2022 6:30:00 AM 21.21 70.17799 0.522 0.79 8.07 79.4
8/16/2022 6:45:00 AM 21.18 70.124 0.522 0.8 8.07 79.8
8/16/2022 7:00:00 AM 21.13 70.034 0.521 0.79 8.08 80.3
8/16/2022 7:15:00 AM 21.11 69.998 0.521 0.79 8.08 80.7
8/16/2022 7:30:00 AM 21.09 69.962 0.52 0.81 8.09 81.3
8/16/2022 7:45:00 AM 21.08 69.944 0.519 0.82 8.1 81.9
8/16/2022 8:00:00 AM 21.07 69.926 0.519 0.82 8.1 82.7
8/16/2022 8:15:00 AM 21.05 69.89 0.518 0.83 8.12 83.2
8/16/2022 8:30:00 AM 21.04 69.872 0.517 0.83 8.13 83.9
8/16/2022 8:45:00 AM 21.07 69.926 0.517 0.85 8.14 85
8/16/2022 9:00:00 AM 21.11 69.998 0.516 0.84 8.15 86.2
8/16/2022 9:15:00 AM 21.11 69.998 0.516 0.84 8.15 86.9
8/16/2022 9:30:00 AM 21.14 70.052 0.515 0.85 8.16 87.8
8/16/2022 9:45:00 AM 21.16 70.088 0.515 0.85 8.17 88.8
8/16/2022 10:00:00 AM 21.21 70.17799 0.514 0.85 8.18 89.6
8/16/2022 10:15:00 AM 21.27 70.286 0.514 0.86 8.2 91.1
8/16/2022 10:30:00 AM 21.34 70.412 0.514 0.86 8.21 92.5
8/16/2022 10:45:00 AM 21.4 70.52 0.514 0.86 8.23 93.6
8/16/2022 11:00:00 AM 21.46 70.628 0.513 0.87 8.24 94.4
8/16/2022 11:15:00 AM 21.55 70.79 0.513 0.86 8.25 96
8/16/2022 11:30:00 AM 21.66 70.988 0.513 0.86 8.26 97.2
8/16/2022 11:45:00 AM 21.81 71.258 0.512 0.86 8.26 98.1
8/16/2022 12:00:00 PM 21.97 71.546 0.512 0.86 8.27 99.3
8/16/2022 12:15:00 PM 22.15 71.87 0.512 0.87 8.28 101.6
8/16/2022 12:30:00 PM 22.35 72.23 0.512 0.87 8.28 103
8/16/2022 12:45:00 PM 22.41 72.338 0.512 0.87 8.28 103.7
8/16/2022 1:00:00 PM 22.67 72.806 0.512 0.87 8.28 105.4
8/16/2022 1:15:00 PM 22.95 73.31 0.512 0.86 8.28 107.1
8/16/2022 1:30:00 PM 23.17 73.706 0.512 0.86 8.29 108.8
8/16/2022 1:45:00 PM 23.28 73.904 0.512 0.86 8.28 108.9
8/16/2022 2:00:00 PM 23.42 74.156 0.512 0.85 8.28 110
8/16/2022 2:15:00 PM 23.48 74.264 0.512 0.85 8.27 110.4
8/16/2022 2:30:00 PM 23.63 74.534 0.513 0.84 8.27 110.5
8/16/2022 2:45:00 PM 23.6 74.48 0.513 0.83 8.27 111
8/16/2022 3:00:00 PM 23.49 74.282 0.513 0.82 8.26 109.8
8/16/2022 3:15:00 PM 23.47 74.246 0.513 0.82 8.25 109.1
8/16/2022 3:30:00 PM 23.34 74.012 0.513 0.81 8.25 107.3
8/16/2022 3:45:00 PM 23.24 73.832 0.513 0.8 8.24 106.5
8/16/2022 4:00:00 PM 23.21 73.778 0.513 0.8 8.24 106.8
8/16/2022 4:15:00 PM 23.37 74.066 0.513 0.8 8.24 107.4
8/16/2022 4:30:00 PM 23.17 73.706 0.513 0.79 8.23 105.8
8/16/2022 4:45:00 PM 23.07 73.526 0.513 0.78 8.22 104.3
8/16/2022 5:00:00 PM 23.09 73.562 0.513 0.77 8.22 104.3
8/16/2022 5:15:00 PM 22.95 73.31 0.513 0.77 8.22 103.2
8/16/2022 5:30:00 PM 22.83 73.094 0.513 0.77 8.21 100.7
8/16/2022 5:45:00 PM 22.78 73.004 0.513 0.76 8.21 100.2
8/16/2022 6:00:00 PM 22.61 72.698 0.514 0.76 8.2 97.4
8/16/2022 6:15:00 PM 22.51 72.518 0.514 0.76 8.19 95.6
8/16/2022 6:30:00 PM 22.42 72.356 0.514 0.77 8.19 94.4
8/16/2022 6:45:00 PM 22.32 72.176 0.514 0.76 8.18 92.8
8/16/2022 7:00:00 PM 22.22 71.996 0.514 0.77 8.17 90.8
8/16/2022 7:15:00 PM 22.15 71.87 0.514 0.77 8.16 89.7
8/16/2022 7:30:00 PM 22.1 71.78 0.514 0.77 8.16 88.9
8/16/2022 7:45:00 PM 22.02 71.636 0.514 0.77 8.15 87
8/16/2022 8:00:00 PM 21.96 71.528 0.514 0.77 8.14 86.2
8/16/2022 8:15:00 PM 21.89 71.402 0.514 0.77 8.14 86
8/16/2022 8:30:00 PM 21.82 71.276 0.514 0.76 8.14 85.1
8/16/2022 8:45:00 PM 21.76 71.168 0.514 0.77 8.14 84.8
8/16/2022 9:00:00 PM 21.7 71.06 0.514 0.75 8.13 84.3
8/16/2022 9:15:00 PM 21.64 70.952 0.513 0.76 8.13 83.7
8/16/2022 9:30:00 PM 21.59 70.862 0.514 0.76 8.13 83.2
8/16/2022 9:45:00 PM 21.54 70.772 0.513 0.76 8.12 82.9
8/16/2022 10:00:00 PM 21.48 70.664 0.513 0.75 8.13 82.7
8/16/2022 10:15:00 PM 21.45 70.61 0.513 0.74 8.12 82.6
8/16/2022 10:30:00 PM 21.4 70.52 0.513 0.74 8.12 82.5
8/16/2022 10:45:00 PM 21.38 70.484 0.512 0.74 8.13 82.6
8/16/2022 11:00:00 PM 21.33 70.394 0.512 0.74 8.13 82.6
8/16/2022 11:15:00 PM 21.31 70.358 0.512 0.73 8.13 82.7
8/16/2022 11:30:00 PM 21.28 70.304 0.512 0.74 8.13 82.5
8/16/2022 11:45:00 PM 21.26 70.268 0.511 0.74 8.13 82.4
8/17/2022 12:00:00 AM 21.23 70.214 0.511 0.73 8.14 82.5
8/17/2022 12:15:00 AM 21.22 70.196 0.511 0.73 8.14 82.5
8/17/2022 12:30:00 AM 21.21 70.17799 0.51 0.73 8.14 82.5
8/17/2022 12:45:00 AM 21.2 70.16 0.51 0.73 8.14 82.6
8/17/2022 1:00:00 AM 21.21 70.17799 0.509 0.72 8.14 82.8
8/17/2022 1:15:00 AM 21.2 70.16 0.509 0.72 8.15 83
8/17/2022 1:30:00 AM 21.22 70.196 0.508 0.72 8.15 83.3
8/17/2022 1:45:00 AM 21.22 70.196 0.508 0.72 8.15 83.1
8/17/2022 2:00:00 AM 21.22 70.196 0.507 0.71 8.15 83.6
8/17/2022 2:15:00 AM 21.22 70.196 0.507 0.7 8.16 83.6
8/17/2022 2:30:00 AM 21.23 70.214 0.506 0.7 8.16 83.8
8/17/2022 2:45:00 AM 21.22 70.196 0.506 0.69 8.17 83.8
8/17/2022 3:00:00 AM 21.22 70.196 0.505 0.7 8.18 83.9
8/17/2022 3:15:00 AM 21.2 70.16 0.505 0.69 8.18 84
8/17/2022 3:30:00 AM 21.2 70.16 0.504 0.69 8.18 84.2
8/17/2022 3:45:00 AM 21.18 70.124 0.503 0.69 8.18 84.2
8/17/2022 4:00:00 AM 21.18 70.124 0.503 0.69 8.19 84.4
8/17/2022 4:15:00 AM 21.16 70.088 0.502 0.7 8.19 84.3
8/17/2022 4:30:00 AM 21.15 70.07 0.502 0.69 8.2 84.3
8/17/2022 4:45:00 AM 21.13 70.034 0.501 0.68 8.2 84.3
8/17/2022 5:00:00 AM 21.12 70.016 0.5 0.69 8.2 84.5
8/17/2022 5:15:00 AM 21.11 69.998 0.5 0.68 8.21 84.4
8/17/2022 5:30:00 AM 21.1 69.98 0.499 0.67 8.21 84.6
8/17/2022 5:45:00 AM 21.09 69.962 0.498 0.68 8.22 84.4
8/17/2022 6:00:00 AM 21.08 69.944 0.498 0.67 8.22 84.7
8/17/2022 6:15:00 AM 21.06 69.908 0.497 0.68 8.21 84.3
8/17/2022 6:30:00 AM 21.05 69.89 0.497 0.69 8.21 84.6
8/17/2022 6:45:00 AM 21.05 69.89 0.497 0.68 8.22 84.7
8/17/2022 7:00:00 AM 21.05 69.89 0.497 0.68 8.22 84.9
8/17/2022 7:15:00 AM 21.09 69.962 0.496 0.69 8.23 85.3
8/17/2022 7:30:00 AM 21.13 70.034 0.496 0.68 8.23 85.7
8/17/2022 7:45:00 AM 21.18 70.124 0.495 0.69 8.23 86.4
8/17/2022 8:00:00 AM 21.23 70.214 0.495 0.68 8.24 87.2
8/17/2022 8:15:00 AM 21.29 70.32201 0.494 0.69 8.24 88.4
8/17/2022 8:30:00 AM 21.35 70.43 0.494 0.7 8.25 89.4
8/17/2022 8:45:00 AM 21.41 70.538 0.493 0.7 8.25 90.7
8/17/2022 9:00:00 AM 21.49 70.682 0.493 0.69 8.26 92.3
8/17/2022 9:15:00 AM 21.59 70.862 0.492 0.69 8.27 93.8
8/17/2022 9:30:00 AM 21.67 71.006 0.492 0.7 8.28 95.3
8/17/2022 9:45:00 AM 21.73 71.114 0.491 0.7 8.28 96.7
8/17/2022 10:00:00 AM 21.81 71.258 0.491 0.69 8.29 98.4
8/17/2022 10:15:00 AM 21.9 71.42 0.49 0.69 8.29 100
8/17/2022 10:30:00 AM 21.98 71.564 0.489 0.69 8.31 101.5
8/17/2022 10:45:00 AM 22.06 71.708 0.488 0.69 8.32 103
8/17/2022 11:00:00 AM 22.14 71.852 0.488 0.69 8.33 104.5
8/17/2022 11:15:00 AM 22.22 71.996 0.487 0.68 8.33 106
8/17/2022 11:30:00 AM 22.27 72.086 0.486 0.68 8.34 106.7
8/17/2022 11:45:00 AM 22.29 72.122 0.486 0.68 8.35 107.4
8/17/2022 12:00:00 PM 22.33 72.194 0.485 0.68 8.35 107.8
8/17/2022 12:15:00 PM 22.37 72.266 0.485 0.67 8.35 108
8/17/2022 12:30:00 PM 22.43 72.374 0.484 0.67 8.35 109.1
8/17/2022 12:45:00 PM 22.5 72.5 0.484 0.66 8.36 110.1
8/17/2022 1:00:00 PM 22.62 72.716 0.483 0.67 8.35 111.5
8/17/2022 1:15:00 PM 22.72 72.896 0.483 0.67 8.35 113.1
8/17/2022 1:30:00 PM 22.93 73.274 0.483 0.65 8.35 114.5
8/17/2022 1:45:00 PM 22.96 73.328 0.482 0.65 8.35 115.2
8/17/2022 2:00:00 PM 23.08 73.544 0.482 0.65 8.35 116.2
8/17/2022 2:15:00 PM 23.23 73.814 0.482 0.64 8.35 117.4
8/17/2022 2:30:00 PM 23.46 74.228 0.481 0.63 8.35 118.9
8/17/2022 2:45:00 PM 23.92 75.056 0.481 0.62 8.36 121.2
8/17/2022 3:00:00 PM 24.29 75.722 0.481 0.61 8.36 122.7
8/17/2022 3:15:00 PM 24.06 75.308 0.481 0.61 8.35 120.3
8/17/2022 3:30:00 PM 23.7 74.66 0.473 0.62 8.34 112.2
8/17/2022 3:45:00 PM 23.59 74.462 0.476 0.62 8.33 109.4
8/17/2022 4:00:00 PM 23.46 74.228 0.477 0.63 8.32 107
8/17/2022 4:15:00 PM 23.32 73.976 0.478 0.63 8.32 104.4
8/17/2022 4:30:00 PM 23.17 73.706 0.479 0.63 8.3 102.1
8/17/2022 4:45:00 PM 22.99 73.382 0.481 0.62 8.29 99.6
8/17/2022 5:00:00 PM 22.8 73.04 0.482 0.63 8.27 97.6
8/17/2022 5:15:00 PM 22.62 72.716 0.482 0.64 8.26 95.7
8/17/2022 5:30:00 PM 22.43 72.374 0.483 0.62 8.24 93.7
8/17/2022 5:45:00 PM 22.31 72.158 0.483 0.61 8.22 92.2
8/17/2022 6:00:00 PM 22.24 72.032 0.484 0.6 8.21 92
8/17/2022 6:15:00 PM 22.22 71.996 0.484 0.61 8.21 92.7
8/17/2022 6:30:00 PM 22.15 71.87 0.485 0.6 8.21 92.2
8/17/2022 6:45:00 PM 22.11 71.798 0.485 0.6 8.21 91.6
8/17/2022 7:00:00 PM 22.04 71.672 0.486 0.6 8.2 90.7
8/17/2022 7:15:00 PM 21.97 71.546 0.486 0.6 8.19 89.7
8/17/2022 7:30:00 PM 21.9 71.42 0.487 0.6 8.19 88.6
8/17/2022 7:45:00 PM 21.83 71.294 0.488 0.6 8.18 87.6
8/17/2022 8:00:00 PM 21.75 71.15 0.488 0.61 8.18 86.5
8/17/2022 8:15:00 PM 21.67 71.006 0.489 0.61 8.17 84.9
8/17/2022 8:30:00 PM 21.61 70.898 0.489 0.61 8.16 83.6
8/17/2022 8:45:00 PM 21.54 70.772 0.49 0.61 8.15 82.5
8/17/2022 9:00:00 PM 21.49 70.682 0.49 0.61 8.14 81.7
8/17/2022 9:15:00 PM 21.42 70.556 0.49 0.6 8.13 80.7
8/17/2022 9:30:00 PM 21.37 70.466 0.491 0.61 8.12 80.3
8/17/2022 9:45:00 PM 21.32 70.376 0.491 0.6 8.11 79.8
8/17/2022 10:00:00 PM 21.28 70.304 0.491 0.59 8.11 79.4
8/17/2022 10:15:00 PM 21.25 70.25 0.491 0.59 8.11 79
8/17/2022 10:30:00 PM 21.21 70.17799 0.492 0.58 8.1 78.9
8/17/2022 10:45:00 PM 21.17 70.106 0.492 0.58 8.1 78.6
8/17/2022 11:00:00 PM 21.13 70.034 0.492 0.57 8.09 78.5
8/17/2022 11:15:00 PM 21.09 69.962 0.493 0.57 8.09 78.5
8/17/2022 11:30:00 PM 21.05 69.89 0.493 0.57 8.09 78.3
8/17/2022 11:45:00 PM 21.01 69.818 0.493 0.56 8.09 78.2
8/18/2022 12:00:00 AM 20.96 69.728 0.493 0.56 8.09 78.3
8/18/2022 12:15:00 AM 20.92 69.656 0.494 0.56 8.09 78.2
8/18/2022 12:30:00 AM 20.88 69.584 0.494 0.55 8.09 78.3
8/18/2022 12:45:00 AM 20.84 69.512 0.494 0.54 8.09 78.2
8/18/2022 1:00:00 AM 20.8 69.44 0.494 0.55 8.09 78.1
8/18/2022 1:15:00 AM 20.75 69.35 0.494 0.55 8.09 78.2
8/18/2022 1:30:00 AM 20.72 69.296 0.494 0.55 8.1 78.3
8/18/2022 1:45:00 AM 20.67 69.206 0.494 0.54 8.1 78.3
8/18/2022 2:00:00 AM 20.63 69.134 0.495 0.53 8.1 78.5
8/18/2022 2:15:00 AM 20.59 69.062 0.495 0.53 8.1 78.6
8/18/2022 2:30:00 AM 20.55 68.99 0.495 0.52 8.1 78.6
8/18/2022 2:45:00 AM 20.52 68.936 0.495 0.53 8.1 78.8
8/18/2022 3:00:00 AM 20.49 68.882 0.495 0.52 8.11 78.9
8/18/2022 3:15:00 AM 20.46 68.828 0.495 0.51 8.11 79
8/18/2022 3:30:00 AM 20.46 68.828 0.495 0.51 8.11 79
8/18/2022 3:45:00 AM 20.45 68.81 0.493 0.51 8.11 79.2
8/18/2022 4:00:00 AM 20.42 68.756 0.495 0.51 8.11 79.2
8/18/2022 4:15:00 AM 20.4 68.72 0.495 0.51 8.11 79.4
8/18/2022 4:30:00 AM 20.37 68.666 0.495 0.51 8.12 79.5
8/18/2022 4:45:00 AM 20.36 68.648 0.495 0.52 8.12 79.6
8/18/2022 5:00:00 AM 20.33 68.594 0.492 0.52 8.12 79.6
8/18/2022 5:15:00 AM 20.3 68.54 0.495 0.51 8.13 79.7
8/18/2022 5:30:00 AM 20.28 68.504 0.494 0.52 8.13 79.7
8/18/2022 5:45:00 AM 20.26 68.468 0.49 0.52 8.13 79.8
8/18/2022 6:00:00 AM 20.22 68.396 0.495 0.52 8.13 79.9
8/18/2022 6:15:00 AM 20.19 68.342 0.495 0.53 8.14 80.1
8/18/2022 6:30:00 AM 20.15 68.27 0.495 0.53 8.14 80.1
8/18/2022 6:45:00 AM 20.13 68.234 0.492 0.52 8.14 80.5
8/18/2022 7:00:00 AM 20.12 68.216 0.495 0.53 8.14 80.9
8/18/2022 7:15:00 AM 20.1 68.18 0.495 0.54 8.15 81.3
8/18/2022 7:30:00 AM 20.11 68.198 0.495 0.53 8.15 81.7
8/18/2022 7:45:00 AM 20.13 68.234 0.495 0.53 8.16 82.2
8/18/2022 8:00:00 AM 20.15 68.27 0.495 0.53 8.16 82.7
8/18/2022 8:15:00 AM 20.19 68.342 0.495 0.53 8.16 83.7
8/18/2022 8:30:00 AM 20.22 68.396 0.492 0.53 8.16 84.6
8/18/2022 8:45:00 AM 20.27 68.486 0.495 0.53 8.16 85.5
8/18/2022 9:00:00 AM 20.32 68.576 0.495 0.53 8.17 86.6
8/18/2022 9:15:00 AM 20.37 68.666 0.494 0.52 8.17 87.5
8/18/2022 9:30:00 AM 20.42 68.756 0.494 0.52 8.18 88.4
8/18/2022 9:45:00 AM 20.47 68.846 0.495 0.53 8.18 89
8/18/2022 10:00:00 AM 20.52 68.936 0.495 0.52 8.16 90
8/18/2022 10:15:00 AM 20.58 69.044 0.494 0.52 8.18 90.2
8/18/2022 10:30:00 AM 20.65 69.17 0.494 0.52 8.18 90.6
8/18/2022 10:45:00 AM 20.73 69.314 0.494 0.53 8.18 91.5
8/18/2022 11:00:00 AM 20.82 69.476 0.494 0.53 8.18 92.8
8/18/2022 11:15:00 AM 20.94 69.692 0.494 0.53 8.2 94.6
8/18/2022 11:30:00 AM 21.11 69.998 0.494 0.53 8.21 96.5
8/18/2022 11:45:00 AM 21.33 70.394 0.494 0.52 8.22 98.2
8/18/2022 12:00:00 PM 21.58 70.844 0.494 0.53 8.23 100.1
8/18/2022 12:15:00 PM 21.85 71.33 0.494 0.53 8.25 103.3
8/18/2022 12:30:00 PM 22.17 71.906 0.494 0.53 8.26 105.6
8/18/2022 12:45:00 PM 22.48 72.464 0.493 0.53 8.27 108.1
8/18/2022 1:00:00 PM 22.82 73.076 0.493 0.53 8.28 111.3
8/18/2022 1:15:00 PM 23.14 73.652 0.493 0.53 8.3 113.8
8/18/2022 1:30:00 PM 23.46 74.228 0.494 0.53 8.3 116
8/18/2022 1:45:00 PM 23.8 74.84 0.494 0.52 8.31 117.6
8/18/2022 2:00:00 PM 24.09 75.362 0.494 0.53 8.31 119.6
8/18/2022 2:15:00 PM 24.36 75.848 0.495 0.52 8.32 120.8
8/18/2022 2:30:00 PM 24.64 76.352 0.494 0.51 8.32 121.9
8/18/2022 2:45:00 PM 24.76 76.568 0.496 0.51 8.32 122.8
8/18/2022 3:00:00 PM 24.92 76.856 0.496 0.5 8.32 122.8
8/18/2022 3:15:00 PM 24.95 76.91 0.497 0.5 8.32 122.8
8/18/2022 3:30:00 PM 25.13 77.234 0.496 0.49 8.31 122.5
8/18/2022 3:45:00 PM 25.36 77.648 0.496 0.49 8.31 123.4
8/18/2022 4:00:00 PM 25.28 77.504 0.497 0.49 8.3 122.7
8/18/2022 4:15:00 PM 25.43 77.774 0.497 0.49 8.27 122.7
8/18/2022 4:30:00 PM 25.45 77.81 0.497 0.49 8.26 122.2
8/18/2022 4:45:00 PM 25.35 77.63 0.498 0.48 8.26 120.7
8/18/2022 5:00:00 PM 25.32 77.576 0.498 0.49 8.27 119.7
8/18/2022 5:15:00 PM 25.16 77.288 0.498 0.49 8.28 117.8
8/18/2022 5:30:00 PM 25.06 77.108 0.498 0.49 8.29 116.1
8/18/2022 5:45:00 PM 24.88 76.784 0.5 0.51 8.29 114
8/18/2022 6:00:00 PM 24.68 76.424 0.5 0.5 8.28 111.5
8/18/2022 6:15:00 PM 24.38 75.884 0.5 0.5 8.28 108
8/18/2022 6:30:00 PM 24.09 75.362 0.501 0.5 8.26 104.5
8/18/2022 6:45:00 PM 23.81 74.858 0.502 0.51 8.24 100.8
8/18/2022 7:00:00 PM 23.55 74.39 0.503 0.51 8.23 97.6
8/18/2022 7:15:00 PM 23.35 74.03 0.503 0.51 8.22 94.8
8/18/2022 7:30:00 PM 23.17 73.706 0.503 0.52 8.2 92.5
8/18/2022 7:45:00 PM 22.99 73.382 0.504 0.53 8.19 90.3
8/18/2022 8:00:00 PM 22.81 73.058 0.504 0.53 8.18 88.2
8/18/2022 8:15:00 PM 22.66 72.788 0.504 0.52 8.17 86.6
8/18/2022 8:30:00 PM 22.52 72.536 0.505 0.54 8.16 85.1
8/18/2022 8:45:00 PM 22.4 72.32 0.505 0.54 8.15 83.8
8/18/2022 9:00:00 PM 22.28 72.104 0.505 0.54 8.14 82.5
8/18/2022 9:15:00 PM 22.16 71.888 0.505 0.55 8.14 81.7
8/18/2022 9:30:00 PM 22.06 71.708 0.505 0.56 8.13 81.1
8/18/2022 9:45:00 PM 21.96 71.528 0.505 0.55 8.13 80.4
8/18/2022 10:00:00 PM 21.88 71.384 0.505 0.56 8.13 79.9
8/18/2022 10:15:00 PM 21.8 71.24 0.505 0.57 8.12 79.5
8/18/2022 10:30:00 PM 21.73 71.114 0.505 0.56 8.12 79
8/18/2022 10:45:00 PM 21.66 70.988 0.505 0.58 8.12 79.2
8/18/2022 11:00:00 PM 21.59 70.862 0.505 0.58 8.11 78.9
8/18/2022 11:15:00 PM 21.53 70.754 0.505 0.58 8.11 79
8/18/2022 11:30:00 PM 21.48 70.664 0.505 0.58 8.11 78.9
8/18/2022 11:45:00 PM 21.42 70.556 0.505 0.58 8.11 78.7
8/19/2022 12:00:00 AM 21.38 70.484 0.505 0.58 8.11 78.5
8/19/2022 12:15:00 AM 21.32 70.376 0.505 0.58 8.11 78.8
8/19/2022 12:30:00 AM 21.28 70.304 0.505 0.58 8.11 79
8/19/2022 12:45:00 AM 21.25 70.25 0.505 0.57 8.11 79.3
8/19/2022 1:00:00 AM 21.2 70.16 0.505 0.59 8.11 79
8/19/2022 1:15:00 AM 21.16 70.088 0.505 0.58 8.11 79.2
8/19/2022 1:30:00 AM 21.12 70.016 0.505 0.57 8.11 79.2
8/19/2022 1:45:00 AM 21.09 69.962 0.505 0.57 8.11 79.2
8/19/2022 2:00:00 AM 21.07 69.926 0.505 0.57 8.11 79.4
8/19/2022 2:15:00 AM 21.03 69.854 0.505 0.57 8.11 79.4
8/19/2022 2:30:00 AM 21 69.8 0.506 0.58 8.12 79.4
8/19/2022 2:45:00 AM 20.98 69.764 0.506 0.57 8.12 79
8/19/2022 3:00:00 AM 20.94 69.692 0.506 0.57 8.12 79.2
8/19/2022 3:15:00 AM 20.91 69.638 0.506 0.57 8.12 79.2
8/19/2022 3:30:00 AM 20.87 69.566 0.506 0.58 8.12 79
8/19/2022 3:45:00 AM 20.85 69.53 0.506 0.57 8.12 78.7
8/19/2022 4:00:00 AM 20.83 69.494 0.506 0.57 8.12 79.3
8/19/2022 4:15:00 AM 20.81 69.458 0.506 0.57 8.12 79.1
8/19/2022 4:30:00 AM 20.79 69.422 0.506 0.57 8.12 79.4
8/19/2022 4:45:00 AM 20.76 69.368 0.506 0.57 8.12 79.4
8/19/2022 5:00:00 AM 20.74 69.332 0.506 0.57 8.12 79.2
8/19/2022 5:15:00 AM 20.71 69.278 0.506 0.58 8.12 79.6
8/19/2022 5:30:00 AM 20.69 69.242 0.506 0.57 8.12 79.7
8/19/2022 5:45:00 AM 20.67 69.206 0.506 0.57 8.13 79.8
8/19/2022 6:00:00 AM 20.66 69.188 0.506 0.57 8.13 79.7
8/19/2022 6:15:00 AM 20.62 69.116 0.506 0.57 8.13 79.9
8/19/2022 6:30:00 AM 20.61 69.098 0.506 0.57 8.13 79.9
8/19/2022 6:45:00 AM 20.6 69.08 0.505 0.58 8.13 80.1
8/19/2022 7:00:00 AM 20.59 69.062 0.505 0.58 8.14 80.3
8/19/2022 7:15:00 AM 20.59 69.062 0.505 0.58 8.14 80.7
8/19/2022 7:30:00 AM 20.6 69.08 0.505 0.58 8.14 81.2
8/19/2022 7:45:00 AM 20.62 69.116 0.504 0.58 8.15 81.7
8/19/2022 8:00:00 AM 20.67 69.206 0.504 0.58 8.15 82.4
8/19/2022 8:15:00 AM 20.73 69.314 0.504 0.59 8.15 83.3
8/19/2022 8:30:00 AM 20.78 69.404 0.504 0.59 8.15 84.3
8/19/2022 8:45:00 AM 20.84 69.512 0.504 0.59 8.15 85.4
8/19/2022 9:00:00 AM 20.92 69.656 0.504 0.6 8.15 86.5
8/19/2022 9:15:00 AM 21.01 69.818 0.504 0.6 8.15 87.9
8/19/2022 9:30:00 AM 21.09 69.962 0.504 0.6 8.15 88.8
8/19/2022 9:45:00 AM 21.19 70.142 0.504 0.61 8.15 89.7
8/19/2022 10:00:00 AM 21.27 70.286 0.503 0.6 8.16 91
8/19/2022 10:15:00 AM 21.36 70.448 0.503 0.6 8.16 91.6
8/19/2022 10:30:00 AM 21.47 70.646 0.503 0.61 8.16 92.9
8/19/2022 10:45:00 AM 21.58 70.844 0.503 0.61 8.17 94.1
8/19/2022 11:00:00 AM 21.71 71.078 0.503 0.61 8.18 95.7
8/19/2022 11:15:00 AM 21.88 71.384 0.502 0.61 8.19 97.3
8/19/2022 11:30:00 AM 22.08 71.744 0.501 0.61 8.2 99.8
8/19/2022 11:45:00 AM 22.31 72.158 0.502 0.6 8.21 101.7
8/19/2022 12:00:00 PM 22.61 72.698 0.502 0.61 8.23 104.7
8/19/2022 12:15:00 PM 22.92 73.256 0.502 0.59 8.25 107.6
8/19/2022 12:30:00 PM 23.25 73.85 0.502 0.59 8.26 110.2
8/19/2022 12:45:00 PM 23.66 74.588 0.501 0.59 8.27 113.7
8/19/2022 1:00:00 PM 24.04 75.272 0.501 0.59 8.28 117.3
8/19/2022 1:15:00 PM 24.38 75.884 0.502 0.59 8.29 119.7
8/19/2022 1:30:00 PM 24.51 76.118 0.502 0.59 8.3 120.9
8/19/2022 1:45:00 PM 24.88 76.784 0.502 0.59 8.31 122.7
8/19/2022 2:00:00 PM 24.92 76.856 0.502 0.58 8.31 123.2
8/19/2022 2:15:00 PM 25.15 77.27 0.503 0.59 8.32 124.4
8/19/2022 2:30:00 PM 25.25 77.45 0.503 0.58 8.33 124.5
8/19/2022 2:45:00 PM 25.08 77.144 0.503 0.58 8.32 120.9
8/19/2022 3:00:00 PM 24.99 76.982 0.504 0.58 8.32 119.3
8/19/2022 3:15:00 PM 25.38 77.684 0.504 0.58 8.32 122.2
8/19/2022 3:30:00 PM 25.24 77.432 0.504 0.57 8.32 120.8
8/19/2022 3:45:00 PM 25.41 77.738 0.505 0.56 8.31 121
8/19/2022 4:00:00 PM 25.77 78.386 0.505 0.57 8.29 123.5
8/19/2022 4:15:00 PM 26 78.8 0.504 0.56 8.28 124.8
8/19/2022 4:30:00 PM 26.08 78.944 0.505 0.56 8.26 125.1
8/19/2022 4:45:00 PM 25.97 78.746 0.505 0.55 8.25 123.8
8/19/2022 5:00:00 PM 25.98 78.764 0.505 0.55 8.26 123.3
8/19/2022 5:15:00 PM 25.73 78.314 0.506 0.55 8.26 119.3
8/19/2022 5:30:00 PM 25.8 78.44 0.507 0.55 8.27 119.5
8/19/2022 5:45:00 PM 25.77 78.386 0.506 0.55 8.28 119
8/19/2022 6:00:00 PM 25.65 78.17 0.507 0.55 8.28 116.8
8/19/2022 6:15:00 PM 25.46 77.828 0.507 0.56 8.28 114
8/19/2022 6:30:00 PM 25.21 77.378 0.508 0.56 8.27 110.2
8/19/2022 6:45:00 PM 25.01 77.018 0.509 0.56 8.25 106.2
8/19/2022 7:00:00 PM 24.8 76.64 0.51 0.56 8.24 103.2
8/19/2022 7:15:00 PM 24.59 76.262 0.511 0.57 8.23 99.9
8/19/2022 7:30:00 PM 24.39 75.902 0.511 0.56 8.22 97.4
8/19/2022 7:45:00 PM 24.21 75.578 0.512 0.56 8.2 94.9
8/19/2022 8:00:00 PM 24.05 75.29 0.513 0.56 8.19 92.5
8/19/2022 8:15:00 PM 23.88 74.984 0.514 0.57 8.18 89.6
8/19/2022 8:30:00 PM 23.73 74.714 0.514 0.57 8.17 87.3
8/19/2022 8:45:00 PM 23.61 74.498 0.515 0.58 8.16 85.6
8/19/2022 9:00:00 PM 23.5 74.3 0.515 0.59 8.15 83.9
8/19/2022 9:15:00 PM 23.41 74.138 0.516 0.59 8.14 82
8/19/2022 9:30:00 PM 23.32 73.976 0.516 0.6 8.13 81.1
8/19/2022 9:45:00 PM 23.24 73.832 0.516 0.61 8.11 79.8
8/19/2022 10:00:00 PM 23.17 73.706 0.517 0.61 8.11 78.8
8/19/2022 10:15:00 PM 23.11 73.598 0.517 0.62 8.1 77.9
8/19/2022 10:30:00 PM 23.06 73.508 0.517 0.62 8.09 77.5
8/19/2022 10:45:00 PM 23 73.4 0.517 0.62 8.09 77.3
8/19/2022 11:00:00 PM 22.97 73.346 0.517 0.62 8.08 77.2
8/19/2022 11:15:00 PM 22.93 73.274 0.517 0.63 8.08 76.8
8/19/2022 11:30:00 PM 22.9 73.22 0.517 0.63 8.07 76.6
8/19/2022 11:45:00 PM 22.88 73.184 0.517 0.63 8.07 76.7
8/20/2022 12:00:00 AM 22.85 73.13 0.517 0.63 8.07 76.4
8/20/2022 12:15:00 AM 22.83 73.094 0.516 0.64 8.07 76.2
8/20/2022 12:30:00 AM 22.81 73.058 0.516 0.63 8.07 76.3
8/20/2022 12:45:00 AM 22.79 73.022 0.516 0.64 8.07 76.1
8/20/2022 1:00:00 AM 22.78 73.004 0.516 0.64 8.06 76.1
8/20/2022 1:15:00 AM 22.76 72.968 0.516 0.64 8.06 76
8/20/2022 1:30:00 AM 22.74 72.932 0.516 0.64 8.06 76.1
8/20/2022 1:45:00 AM 22.72 72.896 0.516 0.63 8.06 76.1
8/20/2022 2:00:00 AM 22.7 72.86 0.515 0.65 8.06 76.2
8/20/2022 2:15:00 AM 22.68 72.824 0.515 0.64 8.06 76.2
8/20/2022 2:30:00 AM 22.67 72.806 0.515 0.65 8.05 76
8/20/2022 2:45:00 AM 22.64 72.752 0.515 0.65 8.05 76.1
8/20/2022 3:00:00 AM 22.62 72.716 0.515 0.65 8.05 76
8/20/2022 3:15:00 AM 22.59 72.662 0.515 0.65 8.05 76.2
8/20/2022 3:30:00 AM 22.58 72.644 0.515 0.65 8.06 76.1
8/20/2022 3:45:00 AM 22.56 72.608 0.515 0.65 8.05 76.3
8/20/2022 4:00:00 AM 22.54 72.57201 0.515 0.65 8.05 76.1
8/20/2022 4:15:00 AM 22.52 72.536 0.514 0.66 8.05 75.9
8/20/2022 4:30:00 AM 22.5 72.5 0.514 0.65 8.05 75.7
8/20/2022 4:45:00 AM 22.46 72.42799 0.515 0.65 8.05 76.1
8/20/2022 5:00:00 AM 22.43 72.374 0.514 0.64 8.05 76
8/20/2022 5:15:00 AM 22.39 72.302 0.514 0.64 8.06 76.3
8/20/2022 5:30:00 AM 22.36 72.248 0.514 0.65 8.06 76
8/20/2022 5:45:00 AM 22.34 72.212 0.514 0.65 8.06 76.1
8/20/2022 6:00:00 AM 22.31 72.158 0.514 0.65 8.06 76.5
8/20/2022 6:15:00 AM 22.28 72.104 0.514 0.66 8.06 76.5
8/20/2022 6:30:00 AM 22.25 72.05 0.514 0.67 8.06 76.4
8/20/2022 6:45:00 AM 22.24 72.032 0.514 0.67 8.06 76
8/20/2022 7:00:00 AM 22.23 72.014 0.513 0.68 8.06 76.3
8/20/2022 7:15:00 AM 22.24 72.032 0.513 0.68 8.06 76.9
8/20/2022 7:30:00 AM 22.25 72.05 0.513 0.69 8.07 77.2
8/20/2022 7:45:00 AM 22.26 72.068 0.513 0.69 8.07 78.1
8/20/2022 8:00:00 AM 22.27 72.086 0.513 0.69 8.07 78.9
8/20/2022 8:15:00 AM 22.31 72.158 0.512 0.69 8.07 80.2
8/20/2022 8:30:00 AM 22.35 72.23 0.512 0.7 8.08 81.7
8/20/2022 8:45:00 AM 22.39 72.302 0.512 0.69 8.08 83.3
8/20/2022 9:00:00 AM 22.42 72.356 0.512 0.71 8.08 84.3
8/20/2022 9:15:00 AM 22.49 72.482 0.511 0.71 8.09 85.6
8/20/2022 9:30:00 AM 22.58 72.644 0.511 0.72 8.1 87.1
8/20/2022 9:45:00 AM 22.66 72.788 0.51 0.72 8.1 89
8/20/2022 10:00:00 AM 22.75 72.95 0.51 0.71 8.11 90.5
8/20/2022 10:15:00 AM 22.81 73.058 0.509 0.71 8.11 91.9
8/20/2022 10:30:00 AM 22.86 73.148 0.508 0.7 8.12 92.8
8/20/2022 10:45:00 AM 22.93 73.274 0.507 0.7 8.12 94.2
8/20/2022 11:00:00 AM 23 73.4 0.506 0.7 8.13 95.5
8/20/2022 11:15:00 AM 23.12 73.616 0.506 0.7 8.14 96.9
8/20/2022 11:30:00 AM 23.26 73.868 0.505 0.69 8.15 99.4
8/20/2022 11:45:00 AM 23.5 74.3 0.503 0.69 8.17 102.8
8/20/2022 12:00:00 PM 23.8 74.84 0.502 0.68 8.19 106.3
8/20/2022 12:15:00 PM 23.89 75.002 0.501 0.69 8.2 107.3
8/20/2022 12:30:00 PM 24.18 75.524 0.5 0.68 8.22 110.2
8/20/2022 12:45:00 PM 24.59 76.262 0.499 0.68 8.24 113.6
8/20/2022 1:00:00 PM 24.92 76.856 0.498 0.68 8.25 116.8
8/20/2022 1:15:00 PM 25.21 77.378 0.497 0.68 8.27 119.1
8/20/2022 1:30:00 PM 25.53 77.954 0.497 0.67 8.28 121.5
8/20/2022 1:45:00 PM 25.94 78.692 0.496 0.67 8.3 124.5
8/20/2022 2:00:00 PM 26.28 79.304 0.495 0.67 8.31 127.6
8/20/2022 2:15:00 PM 26.5 79.7 0.494 0.67 8.32 128.2
8/20/2022 2:30:00 PM 26.88 80.384 0.493 0.67 8.33 130.9
8/20/2022 2:45:00 PM 27.24 81.032 0.493 0.65 8.33 132.6
8/20/2022 3:00:00 PM 27.42 81.356 0.492 0.65 8.34 133.6
8/20/2022 3:15:00 PM 27.62 81.716 0.491 0.65 8.34 134.6
8/20/2022 3:30:00 PM 27.82 82.076 0.491 0.65 8.33 135.1
8/20/2022 3:45:00 PM 27.77 81.986 0.491 0.64 8.32 133.7
8/20/2022 4:00:00 PM 27.85 82.13 0.491 0.62 8.31 132.6
8/20/2022 4:15:00 PM 28.04 82.472 0.49 0.62 8.3 133.3
8/20/2022 4:30:00 PM 28.04 82.472 0.49 0.61 8.28 133
8/20/2022 4:45:00 PM 28 82.4 0.491 0.61 8.27 132.6
8/20/2022 5:00:00 PM 27.96 82.328 0.49 0.62 8.26 131.2
8/20/2022 5:15:00 PM 27.78 82.004 0.491 0.62 8.27 128.1
8/20/2022 5:30:00 PM 27.54 81.57201 0.491 0.61 8.29 125.5
8/20/2022 5:45:00 PM 27.34 81.212 0.491 0.61 8.29 122.9
8/20/2022 6:00:00 PM 27.05 80.69 0.492 0.61 8.29 119
8/20/2022 6:15:00 PM 26.8 80.24 0.492 0.6 8.28 116.4
8/20/2022 6:30:00 PM 26.48 79.664 0.493 0.61 8.27 111.3
8/20/2022 6:45:00 PM 26.19 79.142 0.494 0.61 8.26 107.2
8/20/2022 7:00:00 PM 25.91 78.638 0.495 0.61 8.24 103.2
8/20/2022 7:15:00 PM 25.64 78.152 0.496 0.61 8.22 99.8
8/20/2022 7:30:00 PM 25.42 77.756 0.497 0.62 8.21 96.3
8/20/2022 7:45:00 PM 25.26 77.468 0.498 0.61 8.2 93
8/20/2022 8:00:00 PM 25.11 77.198 0.498 0.62 8.18 90.3
8/20/2022 8:15:00 PM 24.96 76.92799 0.499 0.61 8.18 87.5
8/20/2022 8:30:00 PM 24.83 76.694 0.5 0.61 8.17 85.3
8/20/2022 8:45:00 PM 24.72 76.496 0.5 0.62 8.16 82.9
8/20/2022 9:00:00 PM 24.62 76.316 0.5 0.63 8.15 81
8/20/2022 9:15:00 PM 24.53 76.154 0.501 0.62 8.14 79.2
8/20/2022 9:30:00 PM 24.45 76.01 0.502 0.63 8.14 77.5
8/20/2022 9:45:00 PM 24.38 75.884 0.502 0.63 8.12 76.9
8/20/2022 10:00:00 PM 24.31 75.758 0.502 0.62 8.12 75.9
8/20/2022 10:15:00 PM 24.25 75.65 0.503 0.64 8.11 74.9
8/20/2022 10:30:00 PM 24.19 75.542 0.503 0.64 8.1 74.2
8/20/2022 10:45:00 PM 24.14 75.452 0.503 0.63 8.1 73.6
8/20/2022 11:00:00 PM 24.08 75.344 0.503 0.62 8.09 73.2
8/20/2022 11:15:00 PM 24.04 75.272 0.503 0.63 8.09 73.4
8/20/2022 11:30:00 PM 24 75.2 0.504 0.63 8.09 73.6
8/20/2022 11:45:00 PM 23.95 75.11 0.504 0.63 8.08 73
8/21/2022 12:00:00 AM 23.92 75.056 0.504 0.64 8.09 73.2
8/21/2022 12:15:00 AM 23.88 74.984 0.504 0.63 8.09 72.9
8/21/2022 12:30:00 AM 23.85 74.93 0.504 0.63 8.09 72.5
8/21/2022 12:45:00 AM 23.82 74.876 0.504 0.63 8.1 72.7
8/21/2022 1:00:00 AM 23.81 74.858 0.504 0.63 8.09 72.1
8/21/2022 1:15:00 AM 23.79 74.82201 0.504 0.62 8.09 72.1
8/21/2022 1:30:00 AM 23.77 74.786 0.504 0.62 8.09 72.3
8/21/2022 1:45:00 AM 23.73 74.714 0.505 0.61 8.09 72.1
8/21/2022 2:00:00 AM 23.71 74.67799 0.505 0.61 8.1 72.5
8/21/2022 2:15:00 AM 23.69 74.642 0.505 0.6 8.09 71.9
8/21/2022 2:30:00 AM 23.66 74.588 0.505 0.6 8.09 72.2
8/21/2022 2:45:00 AM 23.65 74.57 0.505 0.61 8.09 72.3
8/21/2022 3:00:00 AM 23.63 74.534 0.505 0.61 8.09 72.4
8/21/2022 3:15:00 AM 23.61 74.498 0.505 0.62 8.09 72.1
8/21/2022 3:30:00 AM 23.58 74.444 0.505 0.62 8.09 72.6
8/21/2022 3:45:00 AM 23.57 74.426 0.506 0.62 8.1 72.8
8/21/2022 4:00:00 AM 23.54 74.372 0.506 0.61 8.09 72.9
8/21/2022 4:15:00 AM 23.53 74.354 0.506 0.61 8.09 72.7
8/21/2022 4:30:00 AM 23.51 74.318 0.506 0.61 8.1 71.3
8/21/2022 4:45:00 AM 23.48 74.264 0.506 0.61 8.09 72.5
8/21/2022 5:00:00 AM 23.46 74.228 0.506 0.61 8.09 72.6
8/21/2022 5:15:00 AM 23.46 74.228 0.506 0.61 8.09 73.5
8/21/2022 5:30:00 AM 23.44 74.192 0.506 0.62 8.09 73.3
8/21/2022 5:45:00 AM 23.42 74.156 0.507 0.63 8.08 73.4
8/21/2022 6:00:00 AM 23.41 74.138 0.507 0.62 8.09 73.3
8/21/2022 6:15:00 AM 23.4 74.12 0.507 0.62 8.09 73.4
8/21/2022 6:30:00 AM 23.38 74.084 0.507 0.61 8.09 73.8
8/21/2022 6:45:00 AM 23.4 74.12 0.507 0.62 8.08 73.7
8/21/2022 7:00:00 AM 23.42 74.156 0.507 0.63 8.08 74.7
8/21/2022 7:15:00 AM 23.43 74.174 0.508 0.64 8.08 74.4
8/21/2022 7:30:00 AM 23.45 74.21 0.508 0.63 8.08 74.7
8/21/2022 7:45:00 AM 23.47 74.246 0.508 0.63 8.07 75.1
8/21/2022 8:00:00 AM 23.52 74.336 0.508 0.63 8.07 75.6
8/21/2022 8:15:00 AM 23.57 74.426 0.508 0.63 8.08 76.7
8/21/2022 8:30:00 AM 23.61 74.498 0.508 0.63 8.07 77
8/21/2022 8:45:00 AM 23.67 74.606 0.508 0.62 8.08 78.5
8/21/2022 9:00:00 AM 23.77 74.786 0.508 0.63 8.09 80.6
8/21/2022 9:15:00 AM 23.85 74.93 0.507 0.63 8.09 82.7
8/21/2022 9:30:00 AM 23.91 75.038 0.507 0.62 8.1 84.4
8/21/2022 9:45:00 AM 23.91 75.038 0.505 0.62 8.1 84.6
8/21/2022 10:00:00 AM 24.07 75.326 0.505 0.62 8.12 86.9
8/21/2022 10:15:00 AM 24.27 75.686 0.505 0.63 8.14 91.6
8/21/2022 10:30:00 AM 24.3 75.74 0.504 0.63 8.16 94.4
8/21/2022 10:45:00 AM 24.34 75.812 0.504 0.63 8.17 95.8
8/21/2022 11:00:00 AM 24.41 75.938 0.504 0.63 8.18 97.3
8/21/2022 11:15:00 AM 24.51 76.118 0.503 0.61 8.2 99.7
8/21/2022 11:30:00 AM 24.6 76.28 0.502 0.61 8.21 101.7
8/21/2022 11:45:00 AM 24.75 76.55 0.502 0.6 8.21 104.2
8/21/2022 12:00:00 PM 24.77 76.586 0.501 0.6 8.22 105.4
8/21/2022 12:15:00 PM 24.88 76.784 0.501 0.59 8.23 107.4
8/21/2022 12:30:00 PM 25 77 0.5 0.58 8.24 110.5
8/21/2022 12:45:00 PM 25.05 77.09 0.5 0.58 8.25 111.2
8/21/2022 1:00:00 PM 25.16 77.288 0.499 0.57 8.25 112.6
8/21/2022 1:15:00 PM 25.07 77.126 0.499 0.57 8.26 110.8
8/21/2022 1:30:00 PM 25.01 77.018 0.499 0.57 8.25 106.7
8/21/2022 1:45:00 PM 24.97 76.946 0.5 0.56 8.24 104.7
8/21/2022 2:00:00 PM 24.91 76.838 0.5 0.56 8.24 102.6
8/21/2022 2:15:00 PM 24.88 76.784 0.5 0.56 8.24 100.7
8/21/2022 2:30:00 PM 24.87 76.766 0.5 0.54 8.24 99.7
8/21/2022 2:45:00 PM 24.86 76.748 0.5 0.55 8.24 98.5
8/21/2022 3:00:00 PM 24.77 76.586 0.5 0.55 8.24 95.8
8/21/2022 3:15:00 PM 24.7 76.46 0.501 0.55 8.22 93.1
8/21/2022 3:30:00 PM 24.63 76.334 0.5 0.56 8.21 90
8/21/2022 3:45:00 PM 24.58 76.244 0.501 0.56 8.2 88
8/21/2022 4:00:00 PM 24.53 76.154 0.5 0.55 8.2 86.3
8/21/2022 4:15:00 PM 24.49 76.082 0.5 0.55 8.19 84.9
8/21/2022 4:30:00 PM 24.46 76.028 0.499 0.55 8.19 84.1
8/21/2022 4:45:00 PM 24.46 76.028 0.499 0.54 8.19 84.2
8/21/2022 5:00:00 PM 24.46 76.028 0.499 0.54 8.19 84.8
8/21/2022 5:15:00 PM 24.48 76.064 0.498 0.52 8.19 85.7
8/21/2022 5:30:00 PM 24.52 76.136 0.496 0.51 8.19 86.9
8/21/2022 5:45:00 PM 24.57 76.226 0.497 0.51 8.19 88.4
8/21/2022 6:00:00 PM 24.63 76.334 0.497 0.51 8.2 90.1
8/21/2022 6:15:00 PM 24.64 76.352 0.496 0.51 8.2 90.4
8/21/2022 6:30:00 PM 24.65 76.37 0.497 0.51 8.2 90.6
8/21/2022 6:45:00 PM 24.65 76.37 0.497 0.51 8.2 90.9
8/21/2022 7:00:00 PM 24.63 76.334 0.498 0.5 8.21 90.5
8/21/2022 7:15:00 PM 24.62 76.316 0.498 0.51 8.21 89.7
8/21/2022 7:30:00 PM 24.59 76.262 0.499 0.51 8.2 88.8
8/21/2022 7:45:00 PM 24.56 76.208 0.499 0.5 8.2 88.2
8/21/2022 8:00:00 PM 24.52 76.136 0.5 0.51 8.2 86.8
8/21/2022 8:15:00 PM 24.49 76.082 0.501 0.51 8.19 84.7
8/21/2022 8:30:00 PM 24.46 76.028 0.502 0.51 8.17 82.9
8/21/2022 8:45:00 PM 24.41 75.938 0.503 0.51 8.16 81.7
8/21/2022 9:00:00 PM 24.36 75.848 0.503 0.51 8.15 80
8/21/2022 9:15:00 PM 24.31 75.758 0.504 0.51 8.14 78.3
8/21/2022 9:30:00 PM 24.28 75.704 0.504 0.51 8.12 77.5
8/21/2022 9:45:00 PM 24.24 75.632 0.505 0.5 8.12 76.5
8/21/2022 10:00:00 PM 24.2 75.56 0.505 0.5 8.1 76
8/21/2022 10:15:00 PM 24.17 75.506 0.506 0.49 8.1 75.3
8/21/2022 10:30:00 PM 24.13 75.434 0.506 0.48 8.09 74.8
8/21/2022 10:45:00 PM 24.1 75.38 0.506 0.49 8.08 74.2
8/21/2022 11:00:00 PM 24.07 75.326 0.507 0.49 8.08 74
8/21/2022 11:15:00 PM 24.05 75.29 0.507 0.49 8.08 73.9
8/21/2022 11:30:00 PM 24.02 75.236 0.507 0.49 8.08 73.7
8/21/2022 11:45:00 PM 23.99 75.182 0.508 0.48 8.07 73.7
8/22/2022 12:00:00 AM 23.97 75.146 0.508 0.47 8.07 73.6
8/22/2022 12:15:00 AM 23.96 75.128 0.508 0.49 8.07 73.3
8/22/2022 12:30:00 AM 23.95 75.11 0.509 0.48 8.07 73.3
8/22/2022 12:45:00 AM 23.93 75.074 0.509 0.49 8.06 73.2
8/22/2022 1:00:00 AM 23.91 75.038 0.509 0.48 8.06 73.5
8/22/2022 1:15:00 AM 23.92 75.056 0.509 0.73 8.08 75.2
8/22/2022 1:30:00 AM 23.98 75.164 0.509 1.49 8.06 77.8
8/22/2022 1:45:00 AM 24 75.2 0.51 2.27 8.04 81.1
8/22/2022 2:00:00 AM 23.89 75.002 0.511 2.95 8 82.1
8/22/2022 2:15:00 AM 23.68 74.624 0.513 3.46 7.98 83
8/22/2022 2:30:00 AM 23.49 74.282 0.515 3.83 8 85.3
8/22/2022 2:45:00 AM 23.35 74.03 0.518 4.11 8.02 87.3
8/22/2022 3:00:00 AM 23.12 73.616 0.518 4.3 8.02 86.5
8/22/2022 3:15:00 AM 22.88 73.184 0.519 4.46 7.99 85
8/22/2022 3:30:00 AM 22.7 72.86 0.517 4.58 7.98 83.6
8/22/2022 3:45:00 AM 22.57 72.626 0.513 4.68 7.97 83
8/22/2022 4:00:00 AM 22.43 72.374 0.503 4.76 7.97 82.7
8/22/2022 4:15:00 AM 22.27 72.086 0.484 4.82 7.96 82.2
8/22/2022 4:30:00 AM 22.1 71.78 0.457 4.86 7.95 81.9
8/22/2022 4:45:00 AM 21.96 71.528 0.429 4.89 7.93 81.5
8/22/2022 5:00:00 AM 21.8 71.24 0.398 4.91 7.92 81.2
8/22/2022 5:15:00 AM 21.7 71.06 0.375 4.91 7.9 80.6
8/22/2022 5:30:00 AM 21.58 70.844 0.347 4.9 7.89 80.5
8/22/2022 5:45:00 AM 21.48 70.664 0.325 4.9 7.88 80.2
8/22/2022 6:00:00 AM 21.42 70.556 0.309 4.88 7.87 80.4
8/22/2022 6:15:00 AM 21.34 70.412 0.291 4.86 7.86 80.2
8/22/2022 6:30:00 AM 21.27 70.286 0.278 4.85 7.86 80.3
8/22/2022 6:45:00 AM 21.23 70.214 0.269 4.83 7.85 80.3
8/22/2022 7:00:00 AM 21.19 70.142 0.26 4.8 7.85 80.4
8/22/2022 7:15:00 AM 21.14 70.052 0.253 4.79 7.85 80.7
8/22/2022 7:30:00 AM 21.1 69.98 0.247 4.75 7.85 80.7
8/22/2022 7:45:00 AM 21.07 69.926 0.242 4.73 7.85 80.8
8/22/2022 8:00:00 AM 21.04 69.872 0.237 4.71 7.84 81
8/22/2022 8:15:00 AM 21.02 69.836 0.235 4.68 7.84 80.8
8/22/2022 8:30:00 AM 20.99 69.782 0.231 4.64 7.84 81.2
8/22/2022 8:45:00 AM 20.98 69.764 0.229 4.61 7.84 81.2
8/22/2022 9:00:00 AM 20.96 69.728 0.225 4.56 7.84 81.2
8/22/2022 9:15:00 AM 20.95 69.71 0.225 4.54 7.84 81.3
8/22/2022 9:30:00 AM 20.94 69.692 0.225 4.5 7.84 81.4
8/22/2022 9:45:00 AM 20.95 69.71 0.223 4.44 7.84 81.5
8/22/2022 10:00:00 AM 20.96 69.728 0.222 4.39 7.83 81.6
8/22/2022 10:15:00 AM 20.97 69.746 0.223 4.36 7.83 81.8
8/22/2022 10:30:00 AM 20.99 69.782 0.223 4.31 7.82 82
8/22/2022 10:45:00 AM 21.01 69.818 0.223 4.25 7.82 82
8/22/2022 11:00:00 AM 21.04 69.872 0.222 4.21 7.81 82.1
8/22/2022 11:15:00 AM 21.08 69.944 0.224 4.16 7.81 82.3
8/22/2022 11:30:00 AM 21.1 69.98 0.224 4.12 7.81 82.5
8/22/2022 11:45:00 AM 21.14 70.052 0.225 4.07 7.8 82.5
8/22/2022 12:00:00 PM 21.16 70.088 0.226 4.01 7.8 82.7
8/22/2022 12:15:00 PM 21.21 70.17799 0.227 3.95 7.79 82.8
8/22/2022 12:30:00 PM 21.24 70.232 0.228 3.9 7.79 83
8/22/2022 12:45:00 PM 21.31 70.358 0.229 3.85 7.79 83.2
8/22/2022 1:00:00 PM 21.38 70.484 0.23 3.8 7.79 83.4
8/22/2022 1:15:00 PM 21.4 70.52 0.23 3.76 7.78 83.3
8/22/2022 1:30:00 PM 21.42 70.556 0.232 3.72 7.78 83.5
8/22/2022 1:45:00 PM 21.45 70.61 0.233 3.67 7.78 83.4
8/22/2022 2:00:00 PM 21.49 70.682 0.236 3.63 7.78 83.4
8/22/2022 2:15:00 PM 21.54 70.772 0.236 3.58 7.78 83.3
8/22/2022 2:30:00 PM 21.62 70.916 0.238 3.55 7.77 83.7
8/22/2022 2:45:00 PM 21.67 71.006 0.24 3.5 7.77 83.6
8/22/2022 3:00:00 PM 21.73 71.114 0.241 3.45 7.78 83.6
8/22/2022 3:15:00 PM 21.82 71.276 0.243 3.42 7.77 83.9
8/22/2022 3:30:00 PM 21.85 71.33 0.244 3.36 7.77 84
8/22/2022 3:45:00 PM 21.85 71.33 0.244 3.34 7.77 83.9
8/22/2022 4:00:00 PM 21.85 71.33 0.244 3.28 7.77 83.7
8/22/2022 4:15:00 PM 21.85 71.33 0.246 3.25 7.77 83.7
8/22/2022 4:30:00 PM 21.86 71.348 0.246 3.22 7.77 83.4
8/22/2022 4:45:00 PM 21.88 71.384 0.246 3.17 7.77 83.5
8/22/2022 5:00:00 PM 21.91 71.438 0.246 3.12 7.77 83.6
8/22/2022 5:15:00 PM 21.94 71.492 0.246 3.08 7.77 83.5
8/22/2022 5:30:00 PM 21.95 71.51 0.245 3.06 7.77 83.6
8/22/2022 5:45:00 PM 22 71.6 0.244 3.01 7.77 83.5
8/22/2022 6:00:00 PM 22.01 71.618 0.244 2.97 7.78 83.7
8/22/2022 6:15:00 PM 22 71.6 0.243 2.94 7.77 83.7
8/22/2022 6:30:00 PM 21.98 71.564 0.242 2.89 7.78 83.4
8/22/2022 6:45:00 PM 21.96 71.528 0.242 2.85 7.77 83.3
8/22/2022 7:00:00 PM 21.95 71.51 0.241 2.82 7.78 83.3
8/22/2022 7:15:00 PM 21.94 71.492 0.24 2.79 7.77 83.4
8/22/2022 7:30:00 PM 21.93 71.474 0.239 2.76 7.77 83.1
8/22/2022 7:45:00 PM 21.92 71.456 0.238 2.74 7.77 82.9
8/22/2022 8:00:00 PM 21.9 71.42 0.237 2.72 7.77 82.7
8/22/2022 8:15:00 PM 21.9 71.42 0.237 2.68 7.77 82.7
8/22/2022 8:30:00 PM 21.89 71.402 0.237 2.67 7.77 82.6
8/22/2022 8:45:00 PM 21.89 71.402 0.236 2.63 7.77 82.3
8/22/2022 9:00:00 PM 21.89 71.402 0.235 2.61 7.76 82.5
8/22/2022 9:15:00 PM 21.88 71.384 0.235 2.58 7.76 82.2
8/22/2022 9:30:00 PM 21.87 71.366 0.235 2.55 7.76 82.1
8/22/2022 9:45:00 PM 21.86 71.348 0.235 2.54 7.76 82.2
8/22/2022 10:00:00 PM 21.84 71.312 0.235 2.51 7.75 81.9
8/22/2022 10:15:00 PM 21.82 71.276 0.235 2.48 7.76 81.7
8/22/2022 10:30:00 PM 21.8 71.24 0.235 2.46 7.76 82
8/22/2022 10:45:00 PM 21.78 71.204 0.236 2.43 7.75 81.9
8/22/2022 11:00:00 PM 21.76 71.168 0.236 2.42 7.75 81.8
8/22/2022 11:15:00 PM 21.74 71.132 0.237 2.39 7.75 81.7
8/22/2022 11:30:00 PM 21.72 71.096 0.238 2.38 7.76 81.7
8/22/2022 11:45:00 PM 21.7 71.06 0.239 2.37 7.74 81.8
8/23/2022 12:00:00 AM 21.67 71.006 0.24 2.34 7.74 81.7
8/23/2022 12:15:00 AM 21.65 70.97 0.241 2.32 7.75 81.3
8/23/2022 12:30:00 AM 21.63 70.934 0.242 2.29 7.75 81.4
8/23/2022 12:45:00 AM 21.61 70.898 0.243 2.28 7.75 81.4
8/23/2022 1:00:00 AM 21.6 70.88 0.245 2.24 7.75 81.1
8/23/2022 1:15:00 AM 21.58 70.844 0.246 2.22 7.75 81.2
8/23/2022 1:30:00 AM 21.56 70.808 0.247 2.21 7.76 81
8/23/2022 1:45:00 AM 21.55 70.79 0.248 2.18 7.76 80.9
8/23/2022 2:00:00 AM 21.53 70.754 0.25 2.16 7.74 80.9
8/23/2022 2:15:00 AM 21.51 70.718 0.251 2.14 7.75 80.7
8/23/2022 2:30:00 AM 21.49 70.682 0.252 2.12 7.75 80.6
8/23/2022 2:45:00 AM 21.47 70.646 0.253 2.11 7.76 80.7
8/23/2022 3:00:00 AM 21.45 70.61 0.254 2.1 7.75 80.7
8/23/2022 3:15:00 AM 21.43 70.574 0.255 2.07 7.75 80.7
8/23/2022 3:30:00 AM 21.41 70.538 0.256 2.06 7.75 80.3
8/23/2022 3:45:00 AM 21.39 70.502 0.256 2.04 7.75 80.7
8/23/2022 4:00:00 AM 21.37 70.466 0.257 2.03 7.74 80.7
8/23/2022 4:15:00 AM 21.35 70.43 0.258 2.02 7.74 80.7
8/23/2022 4:30:00 AM 21.33 70.394 0.258 2.01 7.74 80.4
8/23/2022 4:45:00 AM 21.31 70.358 0.259 1.99 7.74 80.4
8/23/2022 5:00:00 AM 21.3 70.34 0.259 1.97 7.75 80.3
8/23/2022 5:15:00 AM 21.28 70.304 0.259 1.96 7.75 80
8/23/2022 5:30:00 AM 21.26 70.268 0.26 1.96 7.75 80.2
8/23/2022 5:45:00 AM 21.24 70.232 0.26 1.94 7.76 80.2
8/23/2022 6:00:00 AM 21.22 70.196 0.26 1.93 7.75 80.3
8/23/2022 6:15:00 AM 21.21 70.17799 0.26 1.92 7.75 79.9
8/23/2022 6:30:00 AM 21.19 70.142 0.26 1.91 7.75 79.9
8/23/2022 6:45:00 AM 21.17 70.106 0.26 1.91 7.75 80.2
8/23/2022 7:00:00 AM 21.16 70.088 0.261 1.91 7.74 80.2
8/23/2022 7:15:00 AM 21.15 70.07 0.261 1.89 7.75 79.9
8/23/2022 7:30:00 AM 21.13 70.034 0.261 1.89 7.75 80.4
8/23/2022 7:45:00 AM 21.13 70.034 0.261 1.87 7.74 80.1
8/23/2022 8:00:00 AM 21.12 70.016 0.261 1.86 7.75 80.4
8/23/2022 8:15:00 AM 21.12 70.016 0.262 1.85 7.75 80.5
8/23/2022 8:30:00 AM 21.12 70.016 0.262 1.84 7.76 80.4
8/23/2022 8:45:00 AM 21.12 70.016 0.262 1.83 7.74 80.5
8/23/2022 9:00:00 AM 21.12 70.016 0.263 1.82 7.76 80.9
8/23/2022 9:15:00 AM 21.13 70.034 0.263 1.82 7.75 80.6
8/23/2022 9:30:00 AM 21.14 70.052 0.264 1.81 7.75 80.7
8/23/2022 9:45:00 AM 21.16 70.088 0.264 1.8 7.75 81
8/23/2022 10:00:00 AM 21.16 70.088 0.264 1.8 7.76 81
8/23/2022 10:15:00 AM 21.19 70.142 0.265 1.79 7.76 81.4
8/23/2022 10:30:00 AM 21.22 70.196 0.265 1.78 7.77 81.5
8/23/2022 10:45:00 AM 21.26 70.268 0.266 1.77 7.76 81.9
8/23/2022 11:00:00 AM 21.32 70.376 0.266 1.77 7.77 81.8
8/23/2022 11:15:00 AM 21.34 70.412 0.266 1.76 7.77 82.5
8/23/2022 11:30:00 AM 21.39 70.502 0.267 1.75 7.78 82.3
8/23/2022 11:45:00 AM 21.45 70.61 0.267 1.75 7.78 82.8
8/23/2022 12:00:00 PM 21.52 70.736 0.268 1.73 7.78 82.8
8/23/2022 12:15:00 PM 21.55 70.79 0.269 1.72 7.77 83
8/23/2022 12:30:00 PM 21.64 70.952 0.269 1.71 7.78 83.5
8/23/2022 12:45:00 PM 21.68 71.024 0.27 1.7 7.79 83.5
8/23/2022 1:00:00 PM 21.73 71.114 0.27 1.69 7.8 83.8
8/23/2022 1:15:00 PM 21.79 71.222 0.271 1.68 7.8 83.8
8/23/2022 1:30:00 PM 21.92 71.456 0.271 1.67 7.81 84.9
8/23/2022 1:45:00 PM 22.07 71.726 0.272 1.65 7.81 85.1
8/23/2022 2:00:00 PM 22.16 71.888 0.272 1.65 7.81 85.6
8/23/2022 2:15:00 PM 22.27 72.086 0.272 1.63 7.82 86.5
8/23/2022 2:30:00 PM 22.4 72.32 0.274 1.63 7.81 86.9
8/23/2022 2:45:00 PM 22.41 72.338 0.274 1.63 7.82 86.7
8/23/2022 3:00:00 PM 22.49 72.482 0.274 1.61 7.82 86.5
8/23/2022 3:15:00 PM 22.49 72.482 0.275 1.61 7.82 86.6
8/23/2022 3:30:00 PM 22.55 72.59 0.275 1.59 7.84 86.8
8/23/2022 3:45:00 PM 22.53 72.554 0.275 1.58 7.82 86
8/23/2022 4:00:00 PM 22.57 72.626 0.276 1.58 7.83 86.2
8/23/2022 4:15:00 PM 22.72 72.896 0.276 1.56 7.84 86.9
8/23/2022 4:30:00 PM 22.84 73.112 0.276 1.56 7.84 87.3
8/23/2022 4:45:00 PM 22.89 73.202 0.277 1.55 7.84 87.3
8/23/2022 5:00:00 PM 22.85 73.13 0.278 1.54 7.85 86.6
8/23/2022 5:15:00 PM 22.89 73.202 0.278 1.54 7.84 87.2
8/23/2022 5:30:00 PM 22.91 73.238 0.279 1.54 7.84 87
8/23/2022 5:45:00 PM 22.92 73.256 0.279 1.54 7.84 86.8
8/23/2022 6:00:00 PM 22.89 73.202 0.279 1.53 7.84 85.6
8/23/2022 6:15:00 PM 22.82 73.076 0.279 1.54 7.83 84.9
8/23/2022 6:30:00 PM 22.78 73.004 0.28 1.53 7.83 84.9
8/23/2022 6:45:00 PM 22.73 72.914 0.281 1.52 7.83 83.8
8/23/2022 7:00:00 PM 22.7 72.86 0.282 1.53 7.83 83.1
8/23/2022 7:15:00 PM 22.67 72.806 0.281 1.53 7.82 83
8/23/2022 7:30:00 PM 22.66 72.788 0.281 1.52 7.81 82.6
8/23/2022 7:45:00 PM 22.64 72.752 0.282 1.51 7.81 82.4
8/23/2022 8:00:00 PM 22.63 72.734 0.28 1.51 7.82 82.3
8/23/2022 8:15:00 PM 22.61 72.698 0.283 1.51 7.81 81.7
8/23/2022 8:30:00 PM 22.59 72.662 0.283 1.51 7.81 81.7
8/23/2022 8:45:00 PM 22.58 72.644 0.284 1.51 7.8 81.1
8/23/2022 9:00:00 PM 22.58 72.644 0.284 1.52 7.8 81.5
8/23/2022 9:15:00 PM 22.59 72.662 0.285 1.52 7.81 81
8/23/2022 9:30:00 PM 22.6 72.68 0.286 1.52 7.81 80.7
8/23/2022 9:45:00 PM 22.62 72.716 0.286 1.51 7.81 80.9
8/23/2022 10:00:00 PM 22.63 72.734 0.287 1.51 7.8 80.1
8/23/2022 10:15:00 PM 22.66 72.788 0.287 1.52 7.81 80.5
8/23/2022 10:30:00 PM 22.69 72.842 0.288 1.51 7.8 80.6
8/23/2022 10:45:00 PM 22.72 72.896 0.288 1.5 7.81 80.8
8/23/2022 11:00:00 PM 22.75 72.95 0.289 1.5 7.79 80.6
8/23/2022 11:15:00 PM 22.77 72.986 0.289 1.49 7.81 80.6
8/23/2022 11:30:00 PM 22.79 73.022 0.29 1.49 7.81 80.6
8/23/2022 11:45:00 PM 22.82 73.076 0.29 1.48 7.8 80.5
8/24/2022 12:00:00 AM 22.83 73.094 0.291 1.47 7.8 80.7
8/24/2022 12:15:00 AM 22.85 73.13 0.291 1.47 7.81 80.9
8/24/2022 12:30:00 AM 22.85 73.13 0.291 1.47 7.81 80.6
8/24/2022 12:45:00 AM 22.84 73.112 0.292 1.46 7.8 80.2
8/24/2022 1:00:00 AM 22.83 73.094 0.292 1.47 7.81 80.4
8/24/2022 1:15:00 AM 22.8 73.04 0.292 1.45 7.81 80.8
8/24/2022 1:30:00 AM 22.77 72.986 0.293 1.45 7.81 80.3
8/24/2022 1:45:00 AM 22.74 72.932 0.293 1.45 7.81 80.3
8/24/2022 2:00:00 AM 22.7 72.86 0.294 1.44 7.81 80.2
8/24/2022 2:15:00 AM 22.66 72.788 0.294 1.43 7.81 80.5
8/24/2022 2:30:00 AM 22.62 72.716 0.294 1.42 7.79 79.7
8/24/2022 2:45:00 AM 22.57 72.626 0.295 1.42 7.8 80
8/24/2022 3:00:00 AM 22.53 72.554 0.295 1.41 7.8 79.8
8/24/2022 3:15:00 AM 22.49 72.482 0.296 1.41 7.79 79.6
8/24/2022 3:30:00 AM 22.43 72.374 0.296 1.41 7.79 79.6
8/24/2022 3:45:00 AM 22.39 72.302 0.297 1.4 7.79 79
8/24/2022 4:00:00 AM 22.34 72.212 0.297 1.39 7.79 79.8
8/24/2022 4:15:00 AM 22.3 72.14 0.297 1.39 7.79 79.5
8/24/2022 4:30:00 AM 22.24 72.032 0.298 1.39 7.78 79.4
8/24/2022 4:45:00 AM 22.19 71.942 0.299 1.38 7.78 79.3
8/24/2022 5:00:00 AM 22.14 71.852 0.299 1.37 7.79 79
8/24/2022 5:15:00 AM 22.1 71.78 0.3 1.37 7.78 79
8/24/2022 5:30:00 AM 22.06 71.708 0.3 1.37 7.79 79.1
8/24/2022 5:45:00 AM 22.01 71.618 0.301 1.37 7.78 79.4
8/24/2022 6:00:00 AM 21.96 71.528 0.301 1.37 7.79 79
8/24/2022 6:15:00 AM 21.92 71.456 0.301 1.37 7.78 78.9
8/24/2022 6:30:00 AM 21.86 71.348 0.302 1.36 7.78 78.7
8/24/2022 6:45:00 AM 21.82 71.276 0.302 1.36 7.78 78.7
8/24/2022 7:00:00 AM 21.77 71.186 0.303 1.37 7.78 78.8
8/24/2022 7:15:00 AM 21.73 71.114 0.303 1.37 7.78 79.2
8/24/2022 7:30:00 AM 21.7 71.06 0.304 1.37 7.78 79
8/24/2022 7:45:00 AM 21.69 71.042 0.304 1.37 7.77 79.3
8/24/2022 8:00:00 AM 21.68 71.024 0.305 1.36 7.79 79.2
8/24/2022 8:15:00 AM 21.67 71.006 0.305 1.36 7.79 79.5
8/24/2022 8:30:00 AM 21.67 71.006 0.306 1.35 7.79 79.8
8/24/2022 8:45:00 AM 21.68 71.024 0.306 1.35 7.79 80.1
8/24/2022 9:00:00 AM 21.68 71.024 0.306 1.35 7.79 80.1
8/24/2022 9:15:00 AM 21.69 71.042 0.307 1.34 7.79 79.8
8/24/2022 9:30:00 AM 21.7 71.06 0.307 1.35 7.8 79.6
8/24/2022 9:45:00 AM 21.71 71.078 0.308 1.33 7.81 81.3
8/24/2022 10:00:00 AM 21.72 71.096 0.306 1.33 7.81 81.1
8/24/2022 10:15:00 AM 21.73 71.114 0.309 1.33 7.81 81.2
8/24/2022 10:30:00 AM 21.75 71.15 0.309 1.33 7.82 82
8/24/2022 10:45:00 AM 21.79 71.222 0.309 1.33 7.82 82.6
8/24/2022 11:00:00 AM 21.84 71.312 0.31 1.33 7.83 83.2
8/24/2022 11:15:00 AM 21.89 71.402 0.31 1.32 7.83 83.8
8/24/2022 11:30:00 AM 21.97 71.546 0.31 1.31 7.84 84.3
8/24/2022 11:45:00 AM 22.07 71.726 0.311 1.31 7.86 85.3
8/24/2022 12:00:00 PM 22.19 71.942 0.312 1.3 7.86 86.2
8/24/2022 12:15:00 PM 22.31 72.158 0.312 1.29 7.88 87
8/24/2022 12:30:00 PM 22.45 72.41 0.313 1.29 7.89 87.9
8/24/2022 12:45:00 PM 22.57 72.626 0.313 1.28 7.89 88.6
8/24/2022 1:00:00 PM 22.71 72.878 0.314 1.27 7.9 89.5
8/24/2022 1:15:00 PM 22.84 73.112 0.314 1.27 7.92 90
8/24/2022 1:30:00 PM 23.01 73.418 0.315 1.25 7.92 91.1
8/24/2022 1:45:00 PM 23.02 73.436 0.315 1.25 7.93 91.1
8/24/2022 2:00:00 PM 23.06 73.508 0.316 1.25 7.93 91.2
8/24/2022 2:15:00 PM 23.2 73.76 0.317 1.24 7.94 91.4
8/24/2022 2:30:00 PM 23.33 73.994 0.314 1.24 7.94 91.7
8/24/2022 2:45:00 PM 23.33 73.994 0.318 1.23 7.93 91.7
8/24/2022 3:00:00 PM 23.19 73.742 0.318 1.23 7.92 90.5
8/24/2022 3:15:00 PM 23.22 73.796 0.318 1.22 7.93 90.1
8/24/2022 3:30:00 PM 23.28 73.904 0.318 1.21 7.93 90.5
8/24/2022 3:45:00 PM 23.54 74.372 0.319 1.22 7.94 91.6
8/24/2022 4:00:00 PM 23.73 74.714 0.319 1.2 7.95 93
8/24/2022 4:15:00 PM 23.77 74.786 0.32 1.19 7.96 93
8/24/2022 4:30:00 PM 23.76 74.768 0.32 1.19 7.95 93
8/24/2022 4:45:00 PM 23.82 74.876 0.293 1.18 7.97 92.9
8/24/2022 5:00:00 PM 23.77 74.786 0.321 1.18 7.96 92.5
8/24/2022 5:15:00 PM 23.75 74.75 0.321 1.17 7.97 92.4
8/24/2022 5:30:00 PM 23.69 74.642 0.318 1.17 7.97 91.9
8/24/2022 5:45:00 PM 23.61 74.498 0.315 1.17 7.96 91.3
8/24/2022 6:00:00 PM 23.51 74.318 0.323 1.16 7.96 90
8/24/2022 6:15:00 PM 23.39 74.102 0.323 1.17 7.95 88.8
8/24/2022 6:30:00 PM 23.29 73.922 0.323 1.16 7.94 87.4
8/24/2022 6:45:00 PM 23.16 73.688 0.324 1.16 7.92 85.9
8/24/2022 7:00:00 PM 23.09 73.562 0.324 1.14 7.91 84.8
8/24/2022 7:15:00 PM 23.01 73.418 0.325 1.14 7.92 84.2
8/24/2022 7:30:00 PM 22.96 73.328 0.325 1.14 7.91 83.4
8/24/2022 7:45:00 PM 22.91 73.238 0.326 1.15 7.89 82.2
8/24/2022 8:00:00 PM 22.87 73.166 0.326 1.14 7.89 81.8
8/24/2022 8:15:00 PM 22.83 73.094 0.326 1.14 7.89 81
8/24/2022 8:30:00 PM 22.8 73.04 0.327 1.14 7.88 80.8
8/24/2022 8:45:00 PM 22.78 73.004 0.327 1.14 7.88 79.5
8/24/2022 9:00:00 PM 22.76 72.968 0.327 1.14 7.86 78.6
8/24/2022 9:15:00 PM 22.75 72.95 0.327 1.14 7.86 79.4
8/24/2022 9:30:00 PM 22.73 72.914 0.313 1.14 7.87 79.8
8/24/2022 9:45:00 PM 22.72 72.896 0.325 1.14 7.87 79.4
8/24/2022 10:00:00 PM 22.73 72.914 0.328 1.16 7.88 79.6
8/24/2022 10:15:00 PM 22.72 72.896 0.329 1.16 7.87 79.7
8/24/2022 10:30:00 PM 22.71 72.878 0.329 1.16 7.88 79.7
8/24/2022 10:45:00 PM 22.73 72.914 0.329 1.15 7.88 79.5
8/24/2022 11:00:00 PM 22.73 72.914 0.33 1.16 7.88 79.8
8/24/2022 11:15:00 PM 22.74 72.932 0.33 1.16 7.89 80.3
8/24/2022 11:30:00 PM 22.73 72.914 0.322 1.15 7.9 80.4
8/24/2022 11:45:00 PM 22.75 72.95 0.33 1.16 7.89 80.2
8/25/2022 12:00:00 AM 22.75 72.95 0.331 1.16 7.9 80.6
8/25/2022 12:15:00 AM 22.75 72.95 0.331 1.16 7.9 80.5
8/25/2022 12:30:00 AM 22.75 72.95 0.332 1.16 7.9 80.2
8/25/2022 12:45:00 AM 22.75 72.95 0.332 1.16 7.9 80.7
8/25/2022 1:00:00 AM 22.76 72.968 0.332 1.16 7.9 80.9
8/25/2022 1:15:00 AM 22.75 72.95 0.332 1.15 7.91 81.3
8/25/2022 1:30:00 AM 22.73 72.914 0.333 1.15 7.91 80.7
8/25/2022 1:45:00 AM 22.74 72.932 0.333 1.15 7.92 80.7
8/25/2022 2:00:00 AM 22.73 72.914 0.334 1.14 7.9 80.5
8/25/2022 2:15:00 AM 22.72 72.896 0.334 1.14 7.91 80.7
8/25/2022 2:30:00 AM 22.72 72.896 0.334 1.14 7.91 80.3
8/25/2022 2:45:00 AM 22.7 72.86 0.334 1.14 7.91 80.5
8/25/2022 3:00:00 AM 22.72 72.896 0.334 1.12 7.92 81.1
8/25/2022 3:15:00 AM 22.71 72.878 0.335 1.13 7.92 80.9
8/25/2022 3:30:00 AM 22.69 72.842 0.335 1.12 7.92 80.7
8/25/2022 3:45:00 AM 22.69 72.842 0.336 1.11 7.92 80.8
8/25/2022 4:00:00 AM 22.69 72.842 0.336 1.11 7.93 80.7
8/25/2022 4:15:00 AM 22.68 72.824 0.336 1.11 7.92 80.6
8/25/2022 4:30:00 AM 22.67 72.806 0.336 1.11 7.92 80.8
8/25/2022 4:45:00 AM 22.66 72.788 0.336 1.1 7.92 80.5
8/25/2022 5:00:00 AM 22.65 72.77 0.337 1.1 7.92 80.7
8/25/2022 5:15:00 AM 22.64 72.752 0.337 1.09 7.91 80.1
8/25/2022 5:30:00 AM 22.62 72.716 0.337 1.09 7.91 80.3
8/25/2022 5:45:00 AM 22.6 72.68 0.338 1.09 7.91 79.7
8/25/2022 6:00:00 AM 22.57 72.626 0.335 1.09 7.92 80.1
8/25/2022 6:15:00 AM 22.55 72.59 0.339 1.08 7.91 79.6
8/25/2022 6:30:00 AM 22.51 72.518 0.339 1.08 7.9 79
8/25/2022 6:45:00 AM 22.49 72.482 0.339 1.08 7.91 79.7
8/25/2022 7:00:00 AM 22.45 72.41 0.339 1.08 7.91 79.4
8/25/2022 7:15:00 AM 22.42 72.356 0.34 1.07 7.91 79.3
8/25/2022 7:30:00 AM 22.41 72.338 0.34 1.07 7.91 79.6
8/25/2022 7:45:00 AM 22.4 72.32 0.34 1.07 7.9 78.5
8/25/2022 8:00:00 AM 22.4 72.32 0.34 1.07 7.9 79.1
8/25/2022 8:15:00 AM 22.41 72.338 0.341 1.07 7.92 79.5
8/25/2022 8:30:00 AM 22.42 72.356 0.341 1.06 7.91 80.2
8/25/2022 8:45:00 AM 22.43 72.374 0.341 1.06 7.91 80.6
8/25/2022 9:00:00 AM 22.45 72.41 0.342 1.06 7.92 80.7
8/25/2022 9:15:00 AM 22.47 72.446 0.342 1.06 7.93 81.6
8/25/2022 9:30:00 AM 22.49 72.482 0.342 1.06 7.93 81.6
8/25/2022 9:45:00 AM 22.52 72.536 0.342 1.06 7.95 82.2
8/25/2022 10:00:00 AM 22.54 72.57201 0.343 1.06 7.94 82.3
8/25/2022 10:15:00 AM 22.57 72.626 0.343 1.06 7.95 82.7
8/25/2022 10:30:00 AM 22.6 72.68 0.343 1.05 7.96 82.6